<?xml version="1.0" encoding="UTF-8" standalone="no" ?>
<gpx xmlns="http://www.topografix.com/GPX/1/1" xmlns:xsi="http://www.w3.org/2001/XMLSchema-instance" xsi:schemaLocation="http://www.topografix.com/GPX/1/1 http://www.topografix.com/GPX/1/1/gpx.xsd" version="1.1" creator="VisuGPX - https://www.visugpx.com">
  <metadata>
    <name>VTT-Courmes-St-Pons</name>
    <desc><![CDATA[Rando fraîcheur.]]></desc>
  </metadata>
  <trk>
    <name><![CDATA[2015-05-16 09:25 vtt courmes]]></name>
    <desc><![CDATA[<h1>OruxMaps</h1><br /><hr align="center" width="480" style="height: 2px; width: 517px"/><h2>Nom: 2015-05-16 09:25 vtt courmes</h2><br /><p>Temps de départ: 05/16/2015 09:25</p><p>Temps d'arrivée: 05/16/2015 15:26</p><p>Distance: 27,2km (06:01)</p><p>Temps déplacement: 03:23</p><p>Vitesse moyenne: 4,5km/h</p><p>Vitesse moyenne: 8km/h</p><p>Vitess Max.: 20,1km/h</p><p>Altitude minimale: 568m</p><p>Altitude maximale: 1096m</p><p>Vitesse d'élévation: 292,8m/h</p><p>Vitesse de descente: -537m/h</p><p>Gain Altitude: 1058m</p><p>Perte Altitude: -1042m</p><p>Temps d'élévation: 03:36</p><p>Temps de descente: 01:56</p><hr align="center" width="480" style="height: 2px; width: 517px"/>]]></desc>
    <trkseg>
      <trkpt lat="43.74347" lon="7.00885">
        <ele>569.58</ele>
        <time>2015-05-16T07:25:10Z</time>
      </trkpt>
      <trkpt lat="43.74353" lon="7.0086">
        <ele>568.93</ele>
        <time>2015-05-16T07:25:13Z</time>
      </trkpt>
      <trkpt lat="43.74336" lon="7.00871">
        <ele>568.87</ele>
        <time>2015-05-16T07:27:09Z</time>
      </trkpt>
      <trkpt lat="43.74317" lon="7.00872">
        <ele>569.3</ele>
        <time>2015-05-16T07:27:16Z</time>
      </trkpt>
      <trkpt lat="43.74298" lon="7.00874">
        <ele>569.73</ele>
        <time>2015-05-16T07:27:23Z</time>
      </trkpt>
      <trkpt lat="43.74279" lon="7.00875">
        <ele>571.65</ele>
        <time>2015-05-16T07:27:33Z</time>
      </trkpt>
      <trkpt lat="43.74268" lon="7.00896">
        <ele>574.81</ele>
        <time>2015-05-16T07:27:48Z</time>
      </trkpt>
      <trkpt lat="43.74276" lon="7.00918">
        <ele>576.4</ele>
        <time>2015-05-16T07:28:00Z</time>
      </trkpt>
      <trkpt lat="43.74289" lon="7.00937">
        <ele>578.53</ele>
        <time>2015-05-16T07:28:11Z</time>
      </trkpt>
      <trkpt lat="43.74305" lon="7.00948">
        <ele>581.82</ele>
        <time>2015-05-16T07:28:28Z</time>
      </trkpt>
      <trkpt lat="43.74304" lon="7.00974">
        <ele>587.38</ele>
        <time>2015-05-16T07:29:11Z</time>
      </trkpt>
      <trkpt lat="43.74291" lon="7.00991">
        <ele>590.31</ele>
        <time>2015-05-16T07:29:43Z</time>
      </trkpt>
      <trkpt lat="43.74274" lon="7.01001">
        <ele>591.5</ele>
        <time>2015-05-16T07:29:59Z</time>
      </trkpt>
      <trkpt lat="43.74259" lon="7.01015">
        <ele>592.88</ele>
        <time>2015-05-16T07:30:14Z</time>
      </trkpt>
      <trkpt lat="43.7425" lon="7.01038">
        <ele>594.45</ele>
        <time>2015-05-16T07:30:32Z</time>
      </trkpt>
      <trkpt lat="43.74245" lon="7.01063">
        <ele>596.21</ele>
        <time>2015-05-16T07:30:51Z</time>
      </trkpt>
      <trkpt lat="43.74241" lon="7.01088">
        <ele>597.94</ele>
        <time>2015-05-16T07:31:11Z</time>
      </trkpt>
      <trkpt lat="43.74224" lon="7.01098">
        <ele>602.62</ele>
        <time>2015-05-16T07:31:45Z</time>
      </trkpt>
      <trkpt lat="43.74236" lon="7.01117">
        <ele>604.07</ele>
        <time>2015-05-16T07:32:14Z</time>
      </trkpt>
      <trkpt lat="43.74226" lon="7.01139">
        <ele>607.62</ele>
        <time>2015-05-16T07:32:44Z</time>
      </trkpt>
      <trkpt lat="43.74209" lon="7.01148">
        <ele>611.08</ele>
        <time>2015-05-16T07:33:05Z</time>
      </trkpt>
      <trkpt lat="43.74192" lon="7.01158">
        <ele>615.77</ele>
        <time>2015-05-16T07:33:27Z</time>
      </trkpt>
      <trkpt lat="43.74175" lon="7.01169">
        <ele>619.6</ele>
        <time>2015-05-16T07:33:46Z</time>
      </trkpt>
      <trkpt lat="43.7416" lon="7.01182">
        <ele>625.48</ele>
        <time>2015-05-16T07:34:07Z</time>
      </trkpt>
      <trkpt lat="43.74145" lon="7.01197">
        <ele>630.17</ele>
        <time>2015-05-16T07:34:35Z</time>
      </trkpt>
      <trkpt lat="43.74131" lon="7.01179">
        <ele>636.19</ele>
        <time>2015-05-16T07:35:03Z</time>
      </trkpt>
      <trkpt lat="43.74115" lon="7.0119">
        <ele>643.13</ele>
        <time>2015-05-16T07:35:40Z</time>
      </trkpt>
      <trkpt lat="43.74116" lon="7.01216">
        <ele>646.21</ele>
        <time>2015-05-16T07:35:59Z</time>
      </trkpt>
      <trkpt lat="43.74129" lon="7.01234">
        <ele>649.52</ele>
        <time>2015-05-16T07:36:18Z</time>
      </trkpt>
      <trkpt lat="43.74145" lon="7.01247">
        <ele>652.42</ele>
        <time>2015-05-16T07:36:36Z</time>
      </trkpt>
      <trkpt lat="43.74159" lon="7.01265">
        <ele>653.99</ele>
        <time>2015-05-16T07:36:49Z</time>
      </trkpt>
      <trkpt lat="43.74175" lon="7.01279">
        <ele>655.14</ele>
        <time>2015-05-16T07:37:09Z</time>
      </trkpt>
      <trkpt lat="43.74158" lon="7.01291">
        <ele>658.04</ele>
        <time>2015-05-16T07:37:31Z</time>
      </trkpt>
      <trkpt lat="43.74139" lon="7.01296">
        <ele>660.2</ele>
        <time>2015-05-16T07:37:49Z</time>
      </trkpt>
      <trkpt lat="43.74121" lon="7.01298">
        <ele>663.83</ele>
        <time>2015-05-16T07:38:12Z</time>
      </trkpt>
      <trkpt lat="43.74103" lon="7.01285">
        <ele>666.12</ele>
        <time>2015-05-16T07:38:28Z</time>
      </trkpt>
      <trkpt lat="43.74086" lon="7.01272">
        <ele>668.3</ele>
        <time>2015-05-16T07:38:41Z</time>
      </trkpt>
      <trkpt lat="43.74068" lon="7.01261">
        <ele>670.33</ele>
        <time>2015-05-16T07:38:51Z</time>
      </trkpt>
      <trkpt lat="43.7405" lon="7.01252">
        <ele>672.91</ele>
        <time>2015-05-16T07:39:03Z</time>
      </trkpt>
      <trkpt lat="43.74031" lon="7.0125">
        <ele>673.7</ele>
        <time>2015-05-16T07:39:12Z</time>
      </trkpt>
      <trkpt lat="43.74013" lon="7.01258">
        <ele>675.33</ele>
        <time>2015-05-16T07:39:22Z</time>
      </trkpt>
      <trkpt lat="43.73996" lon="7.01269">
        <ele>676</ele>
        <time>2015-05-16T07:39:33Z</time>
      </trkpt>
      <trkpt lat="43.7398" lon="7.01282">
        <ele>676.8</ele>
        <time>2015-05-16T07:39:47Z</time>
      </trkpt>
      <trkpt lat="43.73962" lon="7.01286">
        <ele>673.63</ele>
        <time>2015-05-16T07:41:22Z</time>
      </trkpt>
      <trkpt lat="43.73948" lon="7.01302">
        <ele>673.64</ele>
        <time>2015-05-16T07:41:45Z</time>
      </trkpt>
      <trkpt lat="43.73929" lon="7.01304">
        <ele>674.41</ele>
        <time>2015-05-16T07:42:03Z</time>
      </trkpt>
      <trkpt lat="43.73911" lon="7.01303">
        <ele>675.4</ele>
        <time>2015-05-16T07:42:22Z</time>
      </trkpt>
      <trkpt lat="43.73893" lon="7.01309">
        <ele>676.91</ele>
        <time>2015-05-16T07:42:42Z</time>
      </trkpt>
      <trkpt lat="43.73875" lon="7.01313">
        <ele>678.23</ele>
        <time>2015-05-16T07:42:56Z</time>
      </trkpt>
      <trkpt lat="43.73858" lon="7.01321">
        <ele>679.94</ele>
        <time>2015-05-16T07:43:17Z</time>
      </trkpt>
      <trkpt lat="43.73841" lon="7.01332">
        <ele>681.48</ele>
        <time>2015-05-16T07:43:35Z</time>
      </trkpt>
      <trkpt lat="43.73831" lon="7.01355">
        <ele>683.03</ele>
        <time>2015-05-16T07:43:53Z</time>
      </trkpt>
      <trkpt lat="43.73826" lon="7.01379">
        <ele>685.41</ele>
        <time>2015-05-16T07:44:11Z</time>
      </trkpt>
      <trkpt lat="43.73824" lon="7.01404">
        <ele>687.44</ele>
        <time>2015-05-16T07:44:31Z</time>
      </trkpt>
      <trkpt lat="43.73814" lon="7.01425">
        <ele>692.19</ele>
        <time>2015-05-16T07:44:47Z</time>
      </trkpt>
      <trkpt lat="43.73806" lon="7.01448">
        <ele>696.43</ele>
        <time>2015-05-16T07:45:11Z</time>
      </trkpt>
      <trkpt lat="43.73803" lon="7.01474">
        <ele>701.46</ele>
        <time>2015-05-16T07:45:33Z</time>
      </trkpt>
      <trkpt lat="43.73785" lon="7.0147">
        <ele>704.88</ele>
        <time>2015-05-16T07:45:51Z</time>
      </trkpt>
      <trkpt lat="43.73768" lon="7.01461">
        <ele>708.01</ele>
        <time>2015-05-16T07:46:05Z</time>
      </trkpt>
      <trkpt lat="43.7375" lon="7.01454">
        <ele>710.4</ele>
        <time>2015-05-16T07:46:18Z</time>
      </trkpt>
      <trkpt lat="43.73733" lon="7.01444">
        <ele>713.23</ele>
        <time>2015-05-16T07:46:33Z</time>
      </trkpt>
      <trkpt lat="43.73715" lon="7.01436">
        <ele>715.41</ele>
        <time>2015-05-16T07:46:50Z</time>
      </trkpt>
      <trkpt lat="43.73699" lon="7.01446">
        <ele>718.14</ele>
        <time>2015-05-16T07:47:07Z</time>
      </trkpt>
      <trkpt lat="43.73683" lon="7.01459">
        <ele>723.02</ele>
        <time>2015-05-16T07:47:32Z</time>
      </trkpt>
      <trkpt lat="43.73666" lon="7.01467">
        <ele>727.32</ele>
        <time>2015-05-16T07:47:53Z</time>
      </trkpt>
      <trkpt lat="43.73648" lon="7.01466">
        <ele>730.82</ele>
        <time>2015-05-16T07:48:12Z</time>
      </trkpt>
      <trkpt lat="43.7363" lon="7.01457">
        <ele>734.24</ele>
        <time>2015-05-16T07:48:30Z</time>
      </trkpt>
      <trkpt lat="43.73612" lon="7.01459">
        <ele>736.15</ele>
        <time>2015-05-16T07:48:43Z</time>
      </trkpt>
      <trkpt lat="43.73593" lon="7.01468">
        <ele>738.45</ele>
        <time>2015-05-16T07:49:01Z</time>
      </trkpt>
      <trkpt lat="43.73575" lon="7.01467">
        <ele>741.54</ele>
        <time>2015-05-16T07:49:21Z</time>
      </trkpt>
      <trkpt lat="43.73557" lon="7.01459">
        <ele>744.53</ele>
        <time>2015-05-16T07:49:37Z</time>
      </trkpt>
      <trkpt lat="43.73538" lon="7.01461">
        <ele>747.99</ele>
        <time>2015-05-16T07:49:56Z</time>
      </trkpt>
      <trkpt lat="43.7352" lon="7.01468">
        <ele>751.35</ele>
        <time>2015-05-16T07:50:15Z</time>
      </trkpt>
      <trkpt lat="43.73503" lon="7.01476">
        <ele>754.59</ele>
        <time>2015-05-16T07:50:34Z</time>
      </trkpt>
      <trkpt lat="43.73486" lon="7.01468">
        <ele>758.73</ele>
        <time>2015-05-16T07:50:56Z</time>
      </trkpt>
      <trkpt lat="43.73468" lon="7.01462">
        <ele>761.69</ele>
        <time>2015-05-16T07:51:13Z</time>
      </trkpt>
      <trkpt lat="43.73456" lon="7.0144">
        <ele>764.56</ele>
        <time>2015-05-16T07:51:32Z</time>
      </trkpt>
      <trkpt lat="43.73454" lon="7.01414">
        <ele>767.04</ele>
        <time>2015-05-16T07:51:47Z</time>
      </trkpt>
      <trkpt lat="43.73461" lon="7.01391">
        <ele>768.57</ele>
        <time>2015-05-16T07:52:00Z</time>
      </trkpt>
      <trkpt lat="43.73467" lon="7.01367">
        <ele>770.28</ele>
        <time>2015-05-16T07:52:10Z</time>
      </trkpt>
      <trkpt lat="43.73483" lon="7.01353">
        <ele>771.72</ele>
        <time>2015-05-16T07:52:23Z</time>
      </trkpt>
      <trkpt lat="43.73499" lon="7.01337">
        <ele>773.14</ele>
        <time>2015-05-16T07:52:36Z</time>
      </trkpt>
      <trkpt lat="43.73516" lon="7.01326">
        <ele>766.46</ele>
        <time>2015-05-16T07:54:31Z</time>
      </trkpt>
      <trkpt lat="43.73526" lon="7.01305">
        <ele>764.75</ele>
        <time>2015-05-16T07:54:37Z</time>
      </trkpt>
      <trkpt lat="43.73514" lon="7.01286">
        <ele>766.21</ele>
        <time>2015-05-16T07:54:55Z</time>
      </trkpt>
      <trkpt lat="43.73499" lon="7.01271">
        <ele>767.73</ele>
        <time>2015-05-16T07:55:08Z</time>
      </trkpt>
      <trkpt lat="43.73487" lon="7.01251">
        <ele>770.01</ele>
        <time>2015-05-16T07:55:22Z</time>
      </trkpt>
      <trkpt lat="43.73476" lon="7.0123">
        <ele>771.67</ele>
        <time>2015-05-16T07:55:32Z</time>
      </trkpt>
      <trkpt lat="43.73464" lon="7.01211">
        <ele>774.03</ele>
        <time>2015-05-16T07:55:45Z</time>
      </trkpt>
      <trkpt lat="43.73453" lon="7.0119">
        <ele>776.71</ele>
        <time>2015-05-16T07:55:59Z</time>
      </trkpt>
      <trkpt lat="43.73443" lon="7.01167">
        <ele>779.16</ele>
        <time>2015-05-16T07:56:12Z</time>
      </trkpt>
      <trkpt lat="43.73433" lon="7.01146">
        <ele>782.15</ele>
        <time>2015-05-16T07:56:23Z</time>
      </trkpt>
      <trkpt lat="43.73418" lon="7.01133">
        <ele>783.79</ele>
        <time>2015-05-16T07:56:36Z</time>
      </trkpt>
      <trkpt lat="43.73399" lon="7.01135">
        <ele>783.98</ele>
        <time>2015-05-16T07:56:52Z</time>
      </trkpt>
      <trkpt lat="43.73389" lon="7.01157">
        <ele>784.39</ele>
        <time>2015-05-16T07:57:07Z</time>
      </trkpt>
      <trkpt lat="43.73373" lon="7.01172">
        <ele>783.64</ele>
        <time>2015-05-16T07:57:15Z</time>
      </trkpt>
      <trkpt lat="43.73355" lon="7.01179">
        <ele>780.78</ele>
        <time>2015-05-16T07:57:26Z</time>
      </trkpt>
      <trkpt lat="43.73346" lon="7.012">
        <ele>779.15</ele>
        <time>2015-05-16T07:57:40Z</time>
      </trkpt>
      <trkpt lat="43.73354" lon="7.01225">
        <ele>780.18</ele>
        <time>2015-05-16T07:57:55Z</time>
      </trkpt>
      <trkpt lat="43.73352" lon="7.0125">
        <ele>780.8</ele>
        <time>2015-05-16T07:58:06Z</time>
      </trkpt>
      <trkpt lat="43.73336" lon="7.01265">
        <ele>780.7</ele>
        <time>2015-05-16T07:58:19Z</time>
      </trkpt>
      <trkpt lat="43.73321" lon="7.01279">
        <ele>781.4</ele>
        <time>2015-05-16T07:58:33Z</time>
      </trkpt>
      <trkpt lat="43.73305" lon="7.01294">
        <ele>782.08</ele>
        <time>2015-05-16T07:58:43Z</time>
      </trkpt>
      <trkpt lat="43.73292" lon="7.01313">
        <ele>783.56</ele>
        <time>2015-05-16T07:58:56Z</time>
      </trkpt>
      <trkpt lat="43.73273" lon="7.0132">
        <ele>785.79</ele>
        <time>2015-05-16T07:59:12Z</time>
      </trkpt>
      <trkpt lat="43.73257" lon="7.01332">
        <ele>788.42</ele>
        <time>2015-05-16T07:59:34Z</time>
      </trkpt>
      <trkpt lat="43.73248" lon="7.01354">
        <ele>791.68</ele>
        <time>2015-05-16T07:59:49Z</time>
      </trkpt>
      <trkpt lat="43.73246" lon="7.01379">
        <ele>794.81</ele>
        <time>2015-05-16T08:00:05Z</time>
      </trkpt>
      <trkpt lat="43.73246" lon="7.01404">
        <ele>797.77</ele>
        <time>2015-05-16T08:00:19Z</time>
      </trkpt>
      <trkpt lat="43.73255" lon="7.01426">
        <ele>801.51</ele>
        <time>2015-05-16T08:00:33Z</time>
      </trkpt>
      <trkpt lat="43.73274" lon="7.01432">
        <ele>802.18</ele>
        <time>2015-05-16T08:02:21Z</time>
      </trkpt>
      <trkpt lat="43.73282" lon="7.01454">
        <ele>797.33</ele>
        <time>2015-05-16T08:06:08Z</time>
      </trkpt>
      <trkpt lat="43.73298" lon="7.0147">
        <ele>797.55</ele>
        <time>2015-05-16T08:06:17Z</time>
      </trkpt>
      <trkpt lat="43.73315" lon="7.01486">
        <ele>797.62</ele>
        <time>2015-05-16T08:06:25Z</time>
      </trkpt>
      <trkpt lat="43.7333" lon="7.01507">
        <ele>795.7</ele>
        <time>2015-05-16T08:06:32Z</time>
      </trkpt>
      <trkpt lat="43.73343" lon="7.01528">
        <ele>794.17</ele>
        <time>2015-05-16T08:06:38Z</time>
      </trkpt>
      <trkpt lat="43.73357" lon="7.01547">
        <ele>792.12</ele>
        <time>2015-05-16T08:06:44Z</time>
      </trkpt>
      <trkpt lat="43.73374" lon="7.01556">
        <ele>792.15</ele>
        <time>2015-05-16T08:10:10Z</time>
      </trkpt>
      <trkpt lat="43.7339" lon="7.01569">
        <ele>793.44</ele>
        <time>2015-05-16T08:10:20Z</time>
      </trkpt>
      <trkpt lat="43.73406" lon="7.01586">
        <ele>794.78</ele>
        <time>2015-05-16T08:10:31Z</time>
      </trkpt>
      <trkpt lat="43.73424" lon="7.01603">
        <ele>794.84</ele>
        <time>2015-05-16T08:10:37Z</time>
      </trkpt>
      <trkpt lat="43.73441" lon="7.01617">
        <ele>794.66</ele>
        <time>2015-05-16T08:10:43Z</time>
      </trkpt>
      <trkpt lat="43.73457" lon="7.01631">
        <ele>794.54</ele>
        <time>2015-05-16T08:10:49Z</time>
      </trkpt>
      <trkpt lat="43.73474" lon="7.01642">
        <ele>795.55</ele>
        <time>2015-05-16T08:10:56Z</time>
      </trkpt>
      <trkpt lat="43.73491" lon="7.01656">
        <ele>798.61</ele>
        <time>2015-05-16T08:11:05Z</time>
      </trkpt>
      <trkpt lat="43.73506" lon="7.01672">
        <ele>800.3</ele>
        <time>2015-05-16T08:11:13Z</time>
      </trkpt>
      <trkpt lat="43.7352" lon="7.01688">
        <ele>802.82</ele>
        <time>2015-05-16T08:11:22Z</time>
      </trkpt>
      <trkpt lat="43.73534" lon="7.01706">
        <ele>805.54</ele>
        <time>2015-05-16T08:11:32Z</time>
      </trkpt>
      <trkpt lat="43.73538" lon="7.01734">
        <ele>806.74</ele>
        <time>2015-05-16T08:11:42Z</time>
      </trkpt>
      <trkpt lat="43.7354" lon="7.01761">
        <ele>808.53</ele>
        <time>2015-05-16T08:11:50Z</time>
      </trkpt>
      <trkpt lat="43.73557" lon="7.01774">
        <ele>809.11</ele>
        <time>2015-05-16T08:11:56Z</time>
      </trkpt>
      <trkpt lat="43.73577" lon="7.01778">
        <ele>809.25</ele>
        <time>2015-05-16T08:12:05Z</time>
      </trkpt>
      <trkpt lat="43.73593" lon="7.01767">
        <ele>809.59</ele>
        <time>2015-05-16T08:12:14Z</time>
      </trkpt>
      <trkpt lat="43.73611" lon="7.01778">
        <ele>810.17</ele>
        <time>2015-05-16T08:12:25Z</time>
      </trkpt>
      <trkpt lat="43.73629" lon="7.0179">
        <ele>809.2</ele>
        <time>2015-05-16T08:12:34Z</time>
      </trkpt>
      <trkpt lat="43.73649" lon="7.018">
        <ele>808.65</ele>
        <time>2015-05-16T08:12:40Z</time>
      </trkpt>
      <trkpt lat="43.73667" lon="7.01795">
        <ele>809.11</ele>
        <time>2015-05-16T08:12:47Z</time>
      </trkpt>
      <trkpt lat="43.73687" lon="7.01793">
        <ele>807.92</ele>
        <time>2015-05-16T08:12:54Z</time>
      </trkpt>
      <trkpt lat="43.73707" lon="7.0179">
        <ele>804.08</ele>
        <time>2015-05-16T08:13:05Z</time>
      </trkpt>
      <trkpt lat="43.73725" lon="7.01787">
        <ele>803.55</ele>
        <time>2015-05-16T08:13:18Z</time>
      </trkpt>
      <trkpt lat="43.73744" lon="7.01788">
        <ele>802.04</ele>
        <time>2015-05-16T08:13:29Z</time>
      </trkpt>
      <trkpt lat="43.73763" lon="7.01788">
        <ele>800.8</ele>
        <time>2015-05-16T08:13:40Z</time>
      </trkpt>
      <trkpt lat="43.73784" lon="7.01787">
        <ele>799.86</ele>
        <time>2015-05-16T08:13:52Z</time>
      </trkpt>
      <trkpt lat="43.73804" lon="7.01784">
        <ele>796.01</ele>
        <time>2015-05-16T08:14:01Z</time>
      </trkpt>
      <trkpt lat="43.73821" lon="7.01777">
        <ele>796.72</ele>
        <time>2015-05-16T08:14:14Z</time>
      </trkpt>
      <trkpt lat="43.73839" lon="7.01778">
        <ele>798.34</ele>
        <time>2015-05-16T08:14:24Z</time>
      </trkpt>
      <trkpt lat="43.73858" lon="7.01777">
        <ele>799.38</ele>
        <time>2015-05-16T08:14:33Z</time>
      </trkpt>
      <trkpt lat="43.73877" lon="7.01776">
        <ele>801.7</ele>
        <time>2015-05-16T08:14:46Z</time>
      </trkpt>
      <trkpt lat="43.73895" lon="7.01778">
        <ele>804.08</ele>
        <time>2015-05-16T08:14:58Z</time>
      </trkpt>
      <trkpt lat="43.73913" lon="7.01771">
        <ele>807.45</ele>
        <time>2015-05-16T08:15:15Z</time>
      </trkpt>
      <trkpt lat="43.7393" lon="7.01764">
        <ele>808.5</ele>
        <time>2015-05-16T08:15:26Z</time>
      </trkpt>
      <trkpt lat="43.73949" lon="7.01765">
        <ele>808.63</ele>
        <time>2015-05-16T08:15:37Z</time>
      </trkpt>
      <trkpt lat="43.73967" lon="7.01769">
        <ele>809.42</ele>
        <time>2015-05-16T08:15:48Z</time>
      </trkpt>
      <trkpt lat="43.73985" lon="7.01776">
        <ele>809.41</ele>
        <time>2015-05-16T08:15:58Z</time>
      </trkpt>
      <trkpt lat="43.74004" lon="7.0178">
        <ele>809.21</ele>
        <time>2015-05-16T08:16:11Z</time>
      </trkpt>
      <trkpt lat="43.74023" lon="7.01783">
        <ele>810.24</ele>
        <time>2015-05-16T08:16:29Z</time>
      </trkpt>
      <trkpt lat="43.7404" lon="7.01792">
        <ele>812.57</ele>
        <time>2015-05-16T08:16:44Z</time>
      </trkpt>
      <trkpt lat="43.74059" lon="7.01799">
        <ele>813.38</ele>
        <time>2015-05-16T08:16:56Z</time>
      </trkpt>
      <trkpt lat="43.74077" lon="7.01806">
        <ele>813.55</ele>
        <time>2015-05-16T08:17:09Z</time>
      </trkpt>
      <trkpt lat="43.74095" lon="7.01814">
        <ele>813.03</ele>
        <time>2015-05-16T08:17:19Z</time>
      </trkpt>
      <trkpt lat="43.74114" lon="7.01816">
        <ele>813.22</ele>
        <time>2015-05-16T08:17:28Z</time>
      </trkpt>
      <trkpt lat="43.74134" lon="7.01812">
        <ele>815.04</ele>
        <time>2015-05-16T08:17:38Z</time>
      </trkpt>
      <trkpt lat="43.74151" lon="7.01804">
        <ele>817.52</ele>
        <time>2015-05-16T08:17:48Z</time>
      </trkpt>
      <trkpt lat="43.7417" lon="7.01795">
        <ele>817.56</ele>
        <time>2015-05-16T08:17:58Z</time>
      </trkpt>
      <trkpt lat="43.74189" lon="7.01791">
        <ele>815.91</ele>
        <time>2015-05-16T08:18:09Z</time>
      </trkpt>
      <trkpt lat="43.74208" lon="7.01787">
        <ele>816.17</ele>
        <time>2015-05-16T08:18:23Z</time>
      </trkpt>
      <trkpt lat="43.74226" lon="7.01782">
        <ele>816.86</ele>
        <time>2015-05-16T08:18:38Z</time>
      </trkpt>
      <trkpt lat="43.74244" lon="7.01776">
        <ele>818.91</ele>
        <time>2015-05-16T08:18:53Z</time>
      </trkpt>
      <trkpt lat="43.74262" lon="7.01772">
        <ele>820.93</ele>
        <time>2015-05-16T08:19:04Z</time>
      </trkpt>
      <trkpt lat="43.7428" lon="7.01766">
        <ele>823.38</ele>
        <time>2015-05-16T08:19:13Z</time>
      </trkpt>
      <trkpt lat="43.74299" lon="7.01761">
        <ele>825.5</ele>
        <time>2015-05-16T08:19:24Z</time>
      </trkpt>
      <trkpt lat="43.74316" lon="7.01751">
        <ele>827.85</ele>
        <time>2015-05-16T08:19:33Z</time>
      </trkpt>
      <trkpt lat="43.74335" lon="7.01743">
        <ele>829.72</ele>
        <time>2015-05-16T08:19:42Z</time>
      </trkpt>
      <trkpt lat="43.74351" lon="7.01731">
        <ele>833.83</ele>
        <time>2015-05-16T08:19:55Z</time>
      </trkpt>
      <trkpt lat="43.74365" lon="7.01714">
        <ele>838.45</ele>
        <time>2015-05-16T08:20:07Z</time>
      </trkpt>
      <trkpt lat="43.74381" lon="7.017">
        <ele>841.62</ele>
        <time>2015-05-16T08:20:27Z</time>
      </trkpt>
      <trkpt lat="43.74398" lon="7.01687">
        <ele>843.52</ele>
        <time>2015-05-16T08:20:45Z</time>
      </trkpt>
      <trkpt lat="43.74414" lon="7.01674">
        <ele>845.38</ele>
        <time>2015-05-16T08:21:02Z</time>
      </trkpt>
      <trkpt lat="43.74429" lon="7.01659">
        <ele>846.42</ele>
        <time>2015-05-16T08:21:14Z</time>
      </trkpt>
      <trkpt lat="43.74442" lon="7.01642">
        <ele>847.49</ele>
        <time>2015-05-16T08:21:27Z</time>
      </trkpt>
      <trkpt lat="43.74458" lon="7.01626">
        <ele>848.64</ele>
        <time>2015-05-16T08:21:37Z</time>
      </trkpt>
      <trkpt lat="43.74474" lon="7.01612">
        <ele>849.58</ele>
        <time>2015-05-16T08:21:47Z</time>
      </trkpt>
      <trkpt lat="43.74489" lon="7.01596">
        <ele>849.77</ele>
        <time>2015-05-16T08:22:01Z</time>
      </trkpt>
      <trkpt lat="43.74504" lon="7.01579">
        <ele>850.47</ele>
        <time>2015-05-16T08:22:14Z</time>
      </trkpt>
      <trkpt lat="43.7452" lon="7.01563">
        <ele>850.49</ele>
        <time>2015-05-16T08:22:26Z</time>
      </trkpt>
      <trkpt lat="43.74533" lon="7.01547">
        <ele>852.58</ele>
        <time>2015-05-16T08:22:39Z</time>
      </trkpt>
      <trkpt lat="43.74552" lon="7.01537">
        <ele>852.52</ele>
        <time>2015-05-16T08:22:51Z</time>
      </trkpt>
      <trkpt lat="43.74571" lon="7.01531">
        <ele>848.01</ele>
        <time>2015-05-16T08:23:03Z</time>
      </trkpt>
      <trkpt lat="43.74589" lon="7.01524">
        <ele>845.42</ele>
        <time>2015-05-16T08:23:12Z</time>
      </trkpt>
      <trkpt lat="43.74608" lon="7.01522">
        <ele>842.35</ele>
        <time>2015-05-16T08:23:23Z</time>
      </trkpt>
      <trkpt lat="43.74626" lon="7.01521">
        <ele>839.77</ele>
        <time>2015-05-16T08:23:35Z</time>
      </trkpt>
      <trkpt lat="43.74645" lon="7.01515">
        <ele>837.44</ele>
        <time>2015-05-16T08:23:47Z</time>
      </trkpt>
      <trkpt lat="43.74661" lon="7.01502">
        <ele>836.8</ele>
        <time>2015-05-16T08:24:01Z</time>
      </trkpt>
      <trkpt lat="43.74676" lon="7.01485">
        <ele>838.43</ele>
        <time>2015-05-16T08:24:17Z</time>
      </trkpt>
      <trkpt lat="43.7469" lon="7.01467">
        <ele>839.83</ele>
        <time>2015-05-16T08:24:31Z</time>
      </trkpt>
      <trkpt lat="43.74701" lon="7.01448">
        <ele>841.33</ele>
        <time>2015-05-16T08:24:46Z</time>
      </trkpt>
      <trkpt lat="43.74712" lon="7.01426">
        <ele>842.87</ele>
        <time>2015-05-16T08:25:01Z</time>
      </trkpt>
      <trkpt lat="43.7472" lon="7.01404">
        <ele>843.83</ele>
        <time>2015-05-16T08:25:19Z</time>
      </trkpt>
      <trkpt lat="43.74739" lon="7.01396">
        <ele>842.47</ele>
        <time>2015-05-16T08:27:45Z</time>
      </trkpt>
      <trkpt lat="43.74756" lon="7.01411">
        <ele>841.92</ele>
        <time>2015-05-16T08:27:54Z</time>
      </trkpt>
      <trkpt lat="43.7477" lon="7.01428">
        <ele>841.52</ele>
        <time>2015-05-16T08:28:01Z</time>
      </trkpt>
      <trkpt lat="43.74783" lon="7.01447">
        <ele>841.53</ele>
        <time>2015-05-16T08:28:13Z</time>
      </trkpt>
      <trkpt lat="43.74799" lon="7.0146">
        <ele>842.87</ele>
        <time>2015-05-16T08:28:27Z</time>
      </trkpt>
      <trkpt lat="43.74812" lon="7.01478">
        <ele>843.81</ele>
        <time>2015-05-16T08:28:37Z</time>
      </trkpt>
      <trkpt lat="43.74826" lon="7.01497">
        <ele>843.78</ele>
        <time>2015-05-16T08:28:46Z</time>
      </trkpt>
      <trkpt lat="43.74838" lon="7.01519">
        <ele>843.67</ele>
        <time>2015-05-16T08:28:56Z</time>
      </trkpt>
      <trkpt lat="43.74848" lon="7.0154">
        <ele>843.75</ele>
        <time>2015-05-16T08:29:08Z</time>
      </trkpt>
      <trkpt lat="43.74863" lon="7.01556">
        <ele>844.54</ele>
        <time>2015-05-16T08:29:23Z</time>
      </trkpt>
      <trkpt lat="43.74879" lon="7.01568">
        <ele>846.52</ele>
        <time>2015-05-16T08:29:37Z</time>
      </trkpt>
      <trkpt lat="43.74897" lon="7.01574">
        <ele>849.1</ele>
        <time>2015-05-16T08:29:52Z</time>
      </trkpt>
      <trkpt lat="43.74915" lon="7.01582">
        <ele>852.18</ele>
        <time>2015-05-16T08:30:08Z</time>
      </trkpt>
      <trkpt lat="43.74933" lon="7.01588">
        <ele>857.21</ele>
        <time>2015-05-16T08:30:30Z</time>
      </trkpt>
      <trkpt lat="43.7495" lon="7.01595">
        <ele>859.61</ele>
        <time>2015-05-16T08:30:59Z</time>
      </trkpt>
      <trkpt lat="43.74967" lon="7.01603">
        <ele>862.83</ele>
        <time>2015-05-16T08:31:30Z</time>
      </trkpt>
      <trkpt lat="43.74985" lon="7.01609">
        <ele>866.77</ele>
        <time>2015-05-16T08:32:01Z</time>
      </trkpt>
      <trkpt lat="43.75004" lon="7.01612">
        <ele>870.78</ele>
        <time>2015-05-16T08:32:25Z</time>
      </trkpt>
      <trkpt lat="43.75022" lon="7.01615">
        <ele>869.69</ele>
        <time>2015-05-16T08:33:01Z</time>
      </trkpt>
      <trkpt lat="43.7504" lon="7.01619">
        <ele>871.35</ele>
        <time>2015-05-16T08:33:18Z</time>
      </trkpt>
      <trkpt lat="43.75059" lon="7.01622">
        <ele>874.37</ele>
        <time>2015-05-16T08:33:42Z</time>
      </trkpt>
      <trkpt lat="43.75077" lon="7.01626">
        <ele>880.93</ele>
        <time>2015-05-16T08:34:11Z</time>
      </trkpt>
      <trkpt lat="43.75094" lon="7.01617">
        <ele>888.64</ele>
        <time>2015-05-16T08:34:51Z</time>
      </trkpt>
      <trkpt lat="43.75111" lon="7.01606">
        <ele>891.18</ele>
        <time>2015-05-16T08:35:12Z</time>
      </trkpt>
      <trkpt lat="43.75129" lon="7.01609">
        <ele>889.15</ele>
        <time>2015-05-16T08:38:12Z</time>
      </trkpt>
      <trkpt lat="43.75148" lon="7.01618">
        <ele>889.93</ele>
        <time>2015-05-16T08:38:20Z</time>
      </trkpt>
      <trkpt lat="43.75165" lon="7.01627">
        <ele>889.73</ele>
        <time>2015-05-16T08:38:26Z</time>
      </trkpt>
      <trkpt lat="43.75183" lon="7.01642">
        <ele>889.59</ele>
        <time>2015-05-16T08:38:33Z</time>
      </trkpt>
      <trkpt lat="43.75198" lon="7.01657">
        <ele>889.21</ele>
        <time>2015-05-16T08:38:39Z</time>
      </trkpt>
      <trkpt lat="43.75214" lon="7.01675">
        <ele>889.13</ele>
        <time>2015-05-16T08:38:46Z</time>
      </trkpt>
      <trkpt lat="43.7523" lon="7.01687">
        <ele>889.8</ele>
        <time>2015-05-16T08:38:52Z</time>
      </trkpt>
      <trkpt lat="43.75246" lon="7.01702">
        <ele>888.81</ele>
        <time>2015-05-16T08:38:58Z</time>
      </trkpt>
      <trkpt lat="43.75262" lon="7.01716">
        <ele>888.84</ele>
        <time>2015-05-16T08:39:05Z</time>
      </trkpt>
      <trkpt lat="43.75278" lon="7.01732">
        <ele>889.31</ele>
        <time>2015-05-16T08:39:13Z</time>
      </trkpt>
      <trkpt lat="43.75294" lon="7.01745">
        <ele>889.27</ele>
        <time>2015-05-16T08:39:24Z</time>
      </trkpt>
      <trkpt lat="43.75311" lon="7.01759">
        <ele>890.11</ele>
        <time>2015-05-16T08:39:37Z</time>
      </trkpt>
      <trkpt lat="43.75327" lon="7.01771">
        <ele>890.71</ele>
        <time>2015-05-16T08:39:48Z</time>
      </trkpt>
      <trkpt lat="43.75342" lon="7.01785">
        <ele>892.73</ele>
        <time>2015-05-16T08:40:02Z</time>
      </trkpt>
      <trkpt lat="43.75359" lon="7.01797">
        <ele>893.5</ele>
        <time>2015-05-16T08:40:15Z</time>
      </trkpt>
      <trkpt lat="43.75378" lon="7.01794">
        <ele>892.43</ele>
        <time>2015-05-16T08:40:26Z</time>
      </trkpt>
      <trkpt lat="43.75396" lon="7.0179">
        <ele>892.46</ele>
        <time>2015-05-16T08:40:38Z</time>
      </trkpt>
      <trkpt lat="43.75415" lon="7.01788">
        <ele>892.52</ele>
        <time>2015-05-16T08:40:47Z</time>
      </trkpt>
      <trkpt lat="43.75433" lon="7.01792">
        <ele>895.1</ele>
        <time>2015-05-16T08:40:55Z</time>
      </trkpt>
      <trkpt lat="43.75451" lon="7.01801">
        <ele>896.71</ele>
        <time>2015-05-16T08:41:04Z</time>
      </trkpt>
      <trkpt lat="43.7547" lon="7.01806">
        <ele>897.54</ele>
        <time>2015-05-16T08:41:13Z</time>
      </trkpt>
      <trkpt lat="43.75489" lon="7.0181">
        <ele>897.18</ele>
        <time>2015-05-16T08:44:48Z</time>
      </trkpt>
      <trkpt lat="43.75508" lon="7.01815">
        <ele>897.03</ele>
        <time>2015-05-16T08:45:01Z</time>
      </trkpt>
      <trkpt lat="43.75528" lon="7.0182">
        <ele>896.57</ele>
        <time>2015-05-16T08:45:08Z</time>
      </trkpt>
      <trkpt lat="43.75548" lon="7.01825">
        <ele>896.57</ele>
        <time>2015-05-16T08:45:15Z</time>
      </trkpt>
      <trkpt lat="43.75567" lon="7.01829">
        <ele>894.92</ele>
        <time>2015-05-16T08:45:20Z</time>
      </trkpt>
      <trkpt lat="43.75587" lon="7.01833">
        <ele>894.23</ele>
        <time>2015-05-16T08:45:26Z</time>
      </trkpt>
      <trkpt lat="43.75606" lon="7.01835">
        <ele>893.65</ele>
        <time>2015-05-16T08:45:35Z</time>
      </trkpt>
      <trkpt lat="43.75625" lon="7.01842">
        <ele>892.39</ele>
        <time>2015-05-16T08:45:49Z</time>
      </trkpt>
      <trkpt lat="43.75644" lon="7.01848">
        <ele>895.53</ele>
        <time>2015-05-16T08:46:00Z</time>
      </trkpt>
      <trkpt lat="43.75662" lon="7.01853">
        <ele>896.66</ele>
        <time>2015-05-16T08:46:09Z</time>
      </trkpt>
      <trkpt lat="43.75681" lon="7.01858">
        <ele>896.04</ele>
        <time>2015-05-16T08:46:20Z</time>
      </trkpt>
      <trkpt lat="43.75701" lon="7.01865">
        <ele>896.57</ele>
        <time>2015-05-16T08:46:29Z</time>
      </trkpt>
      <trkpt lat="43.75719" lon="7.01873">
        <ele>896.98</ele>
        <time>2015-05-16T08:46:36Z</time>
      </trkpt>
      <trkpt lat="43.75737" lon="7.01881">
        <ele>899.04</ele>
        <time>2015-05-16T08:46:44Z</time>
      </trkpt>
      <trkpt lat="43.75757" lon="7.01887">
        <ele>899.41</ele>
        <time>2015-05-16T08:46:51Z</time>
      </trkpt>
      <trkpt lat="43.75775" lon="7.01893">
        <ele>899.98</ele>
        <time>2015-05-16T08:46:58Z</time>
      </trkpt>
      <trkpt lat="43.75792" lon="7.01903">
        <ele>899</ele>
        <time>2015-05-16T08:47:08Z</time>
      </trkpt>
      <trkpt lat="43.7581" lon="7.01915">
        <ele>901.49</ele>
        <time>2015-05-16T08:48:20Z</time>
      </trkpt>
      <trkpt lat="43.75827" lon="7.01923">
        <ele>901.47</ele>
        <time>2015-05-16T08:48:30Z</time>
      </trkpt>
      <trkpt lat="43.75844" lon="7.01933">
        <ele>902.6</ele>
        <time>2015-05-16T08:48:42Z</time>
      </trkpt>
      <trkpt lat="43.7586" lon="7.01946">
        <ele>904.96</ele>
        <time>2015-05-16T08:48:57Z</time>
      </trkpt>
      <trkpt lat="43.75879" lon="7.01954">
        <ele>906.39</ele>
        <time>2015-05-16T08:49:12Z</time>
      </trkpt>
      <trkpt lat="43.75897" lon="7.01962">
        <ele>907.82</ele>
        <time>2015-05-16T08:49:25Z</time>
      </trkpt>
      <trkpt lat="43.75916" lon="7.01969">
        <ele>909.36</ele>
        <time>2015-05-16T08:49:38Z</time>
      </trkpt>
      <trkpt lat="43.75932" lon="7.01978">
        <ele>910.08</ele>
        <time>2015-05-16T08:49:48Z</time>
      </trkpt>
      <trkpt lat="43.7595" lon="7.01988">
        <ele>910.34</ele>
        <time>2015-05-16T08:49:57Z</time>
      </trkpt>
      <trkpt lat="43.75967" lon="7.01999">
        <ele>910.66</ele>
        <time>2015-05-16T08:50:05Z</time>
      </trkpt>
      <trkpt lat="43.75984" lon="7.0201">
        <ele>911.39</ele>
        <time>2015-05-16T08:50:14Z</time>
      </trkpt>
      <trkpt lat="43.76002" lon="7.02022">
        <ele>913.3</ele>
        <time>2015-05-16T08:50:23Z</time>
      </trkpt>
      <trkpt lat="43.76017" lon="7.02037">
        <ele>916.17</ele>
        <time>2015-05-16T08:50:38Z</time>
      </trkpt>
      <trkpt lat="43.76034" lon="7.02049">
        <ele>918.84</ele>
        <time>2015-05-16T08:50:53Z</time>
      </trkpt>
      <trkpt lat="43.76049" lon="7.02064">
        <ele>920.8</ele>
        <time>2015-05-16T08:51:08Z</time>
      </trkpt>
      <trkpt lat="43.76063" lon="7.02079">
        <ele>921.28</ele>
        <time>2015-05-16T08:51:23Z</time>
      </trkpt>
      <trkpt lat="43.76079" lon="7.02092">
        <ele>922.64</ele>
        <time>2015-05-16T08:51:39Z</time>
      </trkpt>
      <trkpt lat="43.76094" lon="7.02106">
        <ele>923.87</ele>
        <time>2015-05-16T08:51:53Z</time>
      </trkpt>
      <trkpt lat="43.76111" lon="7.0212">
        <ele>925.25</ele>
        <time>2015-05-16T08:52:06Z</time>
      </trkpt>
      <trkpt lat="43.76126" lon="7.02134">
        <ele>926.68</ele>
        <time>2015-05-16T08:52:21Z</time>
      </trkpt>
      <trkpt lat="43.76142" lon="7.02148">
        <ele>927.23</ele>
        <time>2015-05-16T08:52:36Z</time>
      </trkpt>
      <trkpt lat="43.76157" lon="7.02161">
        <ele>927.74</ele>
        <time>2015-05-16T08:52:53Z</time>
      </trkpt>
      <trkpt lat="43.76175" lon="7.02172">
        <ele>930.01</ele>
        <time>2015-05-16T08:53:11Z</time>
      </trkpt>
      <trkpt lat="43.76191" lon="7.02184">
        <ele>932.09</ele>
        <time>2015-05-16T08:53:28Z</time>
      </trkpt>
      <trkpt lat="43.76209" lon="7.02188">
        <ele>932.93</ele>
        <time>2015-05-16T08:53:47Z</time>
      </trkpt>
      <trkpt lat="43.76227" lon="7.0218">
        <ele>934.74</ele>
        <time>2015-05-16T08:54:05Z</time>
      </trkpt>
      <trkpt lat="43.76244" lon="7.02193">
        <ele>938.65</ele>
        <time>2015-05-16T08:54:28Z</time>
      </trkpt>
      <trkpt lat="43.76253" lon="7.02215">
        <ele>941.08</ele>
        <time>2015-05-16T08:54:43Z</time>
      </trkpt>
      <trkpt lat="43.76262" lon="7.02237">
        <ele>943.86</ele>
        <time>2015-05-16T08:54:58Z</time>
      </trkpt>
      <trkpt lat="43.76271" lon="7.0226">
        <ele>946.34</ele>
        <time>2015-05-16T08:55:15Z</time>
      </trkpt>
      <trkpt lat="43.76282" lon="7.02282">
        <ele>949.39</ele>
        <time>2015-05-16T08:55:29Z</time>
      </trkpt>
      <trkpt lat="43.76291" lon="7.02304">
        <ele>951.53</ele>
        <time>2015-05-16T08:55:40Z</time>
      </trkpt>
      <trkpt lat="43.763" lon="7.02328">
        <ele>953.06</ele>
        <time>2015-05-16T08:55:52Z</time>
      </trkpt>
      <trkpt lat="43.76308" lon="7.02353">
        <ele>954.8</ele>
        <time>2015-05-16T08:56:03Z</time>
      </trkpt>
      <trkpt lat="43.76322" lon="7.02368">
        <ele>955.63</ele>
        <time>2015-05-16T08:56:18Z</time>
      </trkpt>
      <trkpt lat="43.76337" lon="7.02385">
        <ele>956.09</ele>
        <time>2015-05-16T08:56:36Z</time>
      </trkpt>
      <trkpt lat="43.76354" lon="7.02397">
        <ele>956.65</ele>
        <time>2015-05-16T08:56:49Z</time>
      </trkpt>
      <trkpt lat="43.76371" lon="7.02408">
        <ele>956.86</ele>
        <time>2015-05-16T08:57:02Z</time>
      </trkpt>
      <trkpt lat="43.76387" lon="7.02422">
        <ele>957.36</ele>
        <time>2015-05-16T08:57:16Z</time>
      </trkpt>
      <trkpt lat="43.76404" lon="7.02433">
        <ele>957.69</ele>
        <time>2015-05-16T08:57:33Z</time>
      </trkpt>
      <trkpt lat="43.7642" lon="7.02445">
        <ele>959.26</ele>
        <time>2015-05-16T08:57:47Z</time>
      </trkpt>
      <trkpt lat="43.76437" lon="7.02456">
        <ele>960.85</ele>
        <time>2015-05-16T08:58:01Z</time>
      </trkpt>
      <trkpt lat="43.76456" lon="7.02464">
        <ele>962.67</ele>
        <time>2015-05-16T08:58:13Z</time>
      </trkpt>
      <trkpt lat="43.76473" lon="7.02471">
        <ele>964.22</ele>
        <time>2015-05-16T08:58:26Z</time>
      </trkpt>
      <trkpt lat="43.76493" lon="7.02473">
        <ele>965.76</ele>
        <time>2015-05-16T08:58:40Z</time>
      </trkpt>
      <trkpt lat="43.76512" lon="7.02473">
        <ele>965.96</ele>
        <time>2015-05-16T08:58:51Z</time>
      </trkpt>
      <trkpt lat="43.76531" lon="7.02472">
        <ele>965.83</ele>
        <time>2015-05-16T08:59:01Z</time>
      </trkpt>
      <trkpt lat="43.76549" lon="7.02477">
        <ele>965.3</ele>
        <time>2015-05-16T08:59:09Z</time>
      </trkpt>
      <trkpt lat="43.76566" lon="7.02489">
        <ele>966.12</ele>
        <time>2015-05-16T08:59:18Z</time>
      </trkpt>
      <trkpt lat="43.76582" lon="7.02504">
        <ele>966.42</ele>
        <time>2015-05-16T08:59:27Z</time>
      </trkpt>
      <trkpt lat="43.766" lon="7.02516">
        <ele>966.24</ele>
        <time>2015-05-16T08:59:35Z</time>
      </trkpt>
      <trkpt lat="43.76616" lon="7.02528">
        <ele>967.12</ele>
        <time>2015-05-16T08:59:42Z</time>
      </trkpt>
      <trkpt lat="43.76634" lon="7.0254">
        <ele>968.01</ele>
        <time>2015-05-16T08:59:50Z</time>
      </trkpt>
      <trkpt lat="43.76651" lon="7.02554">
        <ele>969.3</ele>
        <time>2015-05-16T08:59:58Z</time>
      </trkpt>
      <trkpt lat="43.76667" lon="7.02565">
        <ele>970.12</ele>
        <time>2015-05-16T09:00:06Z</time>
      </trkpt>
      <trkpt lat="43.76683" lon="7.02578">
        <ele>970.45</ele>
        <time>2015-05-16T09:00:14Z</time>
      </trkpt>
      <trkpt lat="43.76699" lon="7.02589">
        <ele>970.46</ele>
        <time>2015-05-16T09:00:22Z</time>
      </trkpt>
      <trkpt lat="43.76716" lon="7.02601">
        <ele>969.57</ele>
        <time>2015-05-16T09:00:30Z</time>
      </trkpt>
      <trkpt lat="43.76734" lon="7.02613">
        <ele>968.99</ele>
        <time>2015-05-16T09:00:38Z</time>
      </trkpt>
      <trkpt lat="43.76751" lon="7.02625">
        <ele>970.3</ele>
        <time>2015-05-16T09:00:46Z</time>
      </trkpt>
      <trkpt lat="43.76769" lon="7.02637">
        <ele>970.31</ele>
        <time>2015-05-16T09:00:56Z</time>
      </trkpt>
      <trkpt lat="43.76785" lon="7.02651">
        <ele>970.35</ele>
        <time>2015-05-16T09:01:05Z</time>
      </trkpt>
      <trkpt lat="43.76802" lon="7.02664">
        <ele>970.42</ele>
        <time>2015-05-16T09:01:15Z</time>
      </trkpt>
      <trkpt lat="43.76819" lon="7.02676">
        <ele>970.57</ele>
        <time>2015-05-16T09:01:23Z</time>
      </trkpt>
      <trkpt lat="43.76837" lon="7.02686">
        <ele>972.21</ele>
        <time>2015-05-16T09:01:35Z</time>
      </trkpt>
      <trkpt lat="43.76856" lon="7.02688">
        <ele>975.35</ele>
        <time>2015-05-16T09:01:49Z</time>
      </trkpt>
      <trkpt lat="43.76873" lon="7.02679">
        <ele>982.21</ele>
        <time>2015-05-16T09:05:08Z</time>
      </trkpt>
      <trkpt lat="43.76883" lon="7.02656">
        <ele>982.43</ele>
        <time>2015-05-16T09:05:16Z</time>
      </trkpt>
      <trkpt lat="43.76894" lon="7.02635">
        <ele>982.26</ele>
        <time>2015-05-16T09:05:26Z</time>
      </trkpt>
      <trkpt lat="43.76906" lon="7.02615">
        <ele>981.18</ele>
        <time>2015-05-16T09:05:36Z</time>
      </trkpt>
      <trkpt lat="43.76911" lon="7.02589">
        <ele>981.11</ele>
        <time>2015-05-16T09:05:45Z</time>
      </trkpt>
      <trkpt lat="43.76913" lon="7.02562">
        <ele>979.45</ele>
        <time>2015-05-16T09:05:54Z</time>
      </trkpt>
      <trkpt lat="43.76917" lon="7.02535">
        <ele>977.67</ele>
        <time>2015-05-16T09:06:01Z</time>
      </trkpt>
      <trkpt lat="43.76916" lon="7.02508">
        <ele>976.31</ele>
        <time>2015-05-16T09:06:10Z</time>
      </trkpt>
      <trkpt lat="43.76916" lon="7.02483">
        <ele>974.77</ele>
        <time>2015-05-16T09:06:16Z</time>
      </trkpt>
      <trkpt lat="43.76921" lon="7.02458">
        <ele>973.72</ele>
        <time>2015-05-16T09:06:24Z</time>
      </trkpt>
      <trkpt lat="43.76935" lon="7.02439">
        <ele>971.22</ele>
        <time>2015-05-16T09:06:33Z</time>
      </trkpt>
      <trkpt lat="43.76949" lon="7.02419">
        <ele>967.27</ele>
        <time>2015-05-16T09:06:42Z</time>
      </trkpt>
      <trkpt lat="43.76959" lon="7.02396">
        <ele>965.08</ele>
        <time>2015-05-16T09:06:50Z</time>
      </trkpt>
      <trkpt lat="43.76962" lon="7.02368">
        <ele>963.52</ele>
        <time>2015-05-16T09:06:57Z</time>
      </trkpt>
      <trkpt lat="43.76967" lon="7.02342">
        <ele>962.51</ele>
        <time>2015-05-16T09:07:03Z</time>
      </trkpt>
      <trkpt lat="43.7698" lon="7.02321">
        <ele>961.98</ele>
        <time>2015-05-16T09:07:32Z</time>
      </trkpt>
      <trkpt lat="43.76993" lon="7.02303">
        <ele>961.1</ele>
        <time>2015-05-16T09:08:13Z</time>
      </trkpt>
      <trkpt lat="43.77009" lon="7.02286">
        <ele>959.98</ele>
        <time>2015-05-16T09:10:01Z</time>
      </trkpt>
      <trkpt lat="43.77011" lon="7.0226">
        <ele>959.84</ele>
        <time>2015-05-16T09:11:21Z</time>
      </trkpt>
      <trkpt lat="43.77023" lon="7.02232">
        <ele>960.18</ele>
        <time>2015-05-16T09:12:30Z</time>
      </trkpt>
      <trkpt lat="43.77024" lon="7.02206">
        <ele>960.73</ele>
        <time>2015-05-16T09:13:57Z</time>
      </trkpt>
      <trkpt lat="43.77038" lon="7.0219">
        <ele>962.6</ele>
        <time>2015-05-16T09:14:07Z</time>
      </trkpt>
      <trkpt lat="43.77055" lon="7.02178">
        <ele>964.2</ele>
        <time>2015-05-16T09:14:16Z</time>
      </trkpt>
      <trkpt lat="43.77071" lon="7.02161">
        <ele>964.09</ele>
        <time>2015-05-16T09:14:25Z</time>
      </trkpt>
      <trkpt lat="43.77076" lon="7.02136">
        <ele>963.35</ele>
        <time>2015-05-16T09:14:32Z</time>
      </trkpt>
      <trkpt lat="43.77073" lon="7.02108">
        <ele>962.58</ele>
        <time>2015-05-16T09:14:42Z</time>
      </trkpt>
      <trkpt lat="43.77073" lon="7.02082">
        <ele>962.17</ele>
        <time>2015-05-16T09:14:52Z</time>
      </trkpt>
      <trkpt lat="43.77076" lon="7.02055">
        <ele>961.56</ele>
        <time>2015-05-16T09:15:01Z</time>
      </trkpt>
      <trkpt lat="43.77085" lon="7.02033">
        <ele>961.36</ele>
        <time>2015-05-16T09:15:08Z</time>
      </trkpt>
      <trkpt lat="43.77101" lon="7.02017">
        <ele>961.31</ele>
        <time>2015-05-16T09:15:14Z</time>
      </trkpt>
      <trkpt lat="43.77117" lon="7.02003">
        <ele>960.44</ele>
        <time>2015-05-16T09:15:20Z</time>
      </trkpt>
      <trkpt lat="43.77132" lon="7.01985">
        <ele>959.05</ele>
        <time>2015-05-16T09:15:27Z</time>
      </trkpt>
      <trkpt lat="43.77135" lon="7.01959">
        <ele>959.5</ele>
        <time>2015-05-16T09:15:37Z</time>
      </trkpt>
      <trkpt lat="43.77138" lon="7.01934">
        <ele>960.23</ele>
        <time>2015-05-16T09:15:48Z</time>
      </trkpt>
      <trkpt lat="43.77146" lon="7.01911">
        <ele>963.02</ele>
        <time>2015-05-16T09:15:59Z</time>
      </trkpt>
      <trkpt lat="43.77155" lon="7.01889">
        <ele>964.52</ele>
        <time>2015-05-16T09:16:10Z</time>
      </trkpt>
      <trkpt lat="43.77166" lon="7.01868">
        <ele>964.8</ele>
        <time>2015-05-16T09:16:21Z</time>
      </trkpt>
      <trkpt lat="43.77177" lon="7.01848">
        <ele>964.75</ele>
        <time>2015-05-16T09:16:30Z</time>
      </trkpt>
      <trkpt lat="43.77179" lon="7.01823">
        <ele>966.67</ele>
        <time>2015-05-16T09:16:51Z</time>
      </trkpt>
      <trkpt lat="43.77178" lon="7.01798">
        <ele>968.49</ele>
        <time>2015-05-16T09:17:14Z</time>
      </trkpt>
      <trkpt lat="43.7718" lon="7.01772">
        <ele>970.73</ele>
        <time>2015-05-16T09:17:39Z</time>
      </trkpt>
      <trkpt lat="43.77184" lon="7.01747">
        <ele>971.89</ele>
        <time>2015-05-16T09:18:13Z</time>
      </trkpt>
      <trkpt lat="43.77199" lon="7.01732">
        <ele>973.73</ele>
        <time>2015-05-16T09:18:39Z</time>
      </trkpt>
      <trkpt lat="43.77202" lon="7.01707">
        <ele>976.1</ele>
        <time>2015-05-16T09:19:10Z</time>
      </trkpt>
      <trkpt lat="43.77215" lon="7.01689">
        <ele>978.83</ele>
        <time>2015-05-16T09:19:29Z</time>
      </trkpt>
      <trkpt lat="43.77231" lon="7.01678">
        <ele>981.81</ele>
        <time>2015-05-16T09:19:48Z</time>
      </trkpt>
      <trkpt lat="43.77245" lon="7.0166">
        <ele>985.02</ele>
        <time>2015-05-16T09:20:07Z</time>
      </trkpt>
      <trkpt lat="43.77255" lon="7.01639">
        <ele>987.47</ele>
        <time>2015-05-16T09:20:25Z</time>
      </trkpt>
      <trkpt lat="43.77261" lon="7.01614">
        <ele>989.33</ele>
        <time>2015-05-16T09:20:37Z</time>
      </trkpt>
      <trkpt lat="43.77272" lon="7.01593">
        <ele>990.15</ele>
        <time>2015-05-16T09:20:47Z</time>
      </trkpt>
      <trkpt lat="43.77284" lon="7.01571">
        <ele>991.06</ele>
        <time>2015-05-16T09:22:16Z</time>
      </trkpt>
      <trkpt lat="43.77281" lon="7.01546">
        <ele>990.6</ele>
        <time>2015-05-16T09:22:25Z</time>
      </trkpt>
      <trkpt lat="43.77294" lon="7.01527">
        <ele>990.05</ele>
        <time>2015-05-16T09:23:59Z</time>
      </trkpt>
      <trkpt lat="43.77313" lon="7.01524">
        <ele>988.5</ele>
        <time>2015-05-16T09:24:08Z</time>
      </trkpt>
      <trkpt lat="43.7733" lon="7.01514">
        <ele>986.68</ele>
        <time>2015-05-16T09:24:15Z</time>
      </trkpt>
      <trkpt lat="43.77348" lon="7.01514">
        <ele>985.86</ele>
        <time>2015-05-16T09:24:24Z</time>
      </trkpt>
      <trkpt lat="43.77367" lon="7.01514">
        <ele>985.12</ele>
        <time>2015-05-16T09:24:30Z</time>
      </trkpt>
      <trkpt lat="43.77386" lon="7.01508">
        <ele>984.7</ele>
        <time>2015-05-16T09:24:36Z</time>
      </trkpt>
      <trkpt lat="43.77402" lon="7.01494">
        <ele>984</ele>
        <time>2015-05-16T09:24:44Z</time>
      </trkpt>
      <trkpt lat="43.77408" lon="7.01469">
        <ele>982.28</ele>
        <time>2015-05-16T09:24:56Z</time>
      </trkpt>
      <trkpt lat="43.77411" lon="7.01444">
        <ele>980.33</ele>
        <time>2015-05-16T09:25:28Z</time>
      </trkpt>
      <trkpt lat="43.77407" lon="7.01469">
        <ele>978.21</ele>
        <time>2015-05-16T09:27:05Z</time>
      </trkpt>
      <trkpt lat="43.77415" lon="7.01444">
        <ele>978.33</ele>
        <time>2015-05-16T09:28:53Z</time>
      </trkpt>
      <trkpt lat="43.77431" lon="7.01433">
        <ele>978.55</ele>
        <time>2015-05-16T09:29:10Z</time>
      </trkpt>
      <trkpt lat="43.7745" lon="7.01429">
        <ele>978.42</ele>
        <time>2015-05-16T09:29:17Z</time>
      </trkpt>
      <trkpt lat="43.77467" lon="7.0142">
        <ele>978.88</ele>
        <time>2015-05-16T09:29:24Z</time>
      </trkpt>
      <trkpt lat="43.77473" lon="7.01394">
        <ele>980.13</ele>
        <time>2015-05-16T09:29:35Z</time>
      </trkpt>
      <trkpt lat="43.77463" lon="7.01371">
        <ele>980.03</ele>
        <time>2015-05-16T09:29:43Z</time>
      </trkpt>
      <trkpt lat="43.77451" lon="7.01351">
        <ele>978.92</ele>
        <time>2015-05-16T09:29:50Z</time>
      </trkpt>
      <trkpt lat="43.77448" lon="7.01324">
        <ele>977.9</ele>
        <time>2015-05-16T09:29:58Z</time>
      </trkpt>
      <trkpt lat="43.77443" lon="7.01297">
        <ele>977.3</ele>
        <time>2015-05-16T09:30:04Z</time>
      </trkpt>
      <trkpt lat="43.77438" lon="7.0127">
        <ele>976</ele>
        <time>2015-05-16T09:30:08Z</time>
      </trkpt>
      <trkpt lat="43.77434" lon="7.01246">
        <ele>973.75</ele>
        <time>2015-05-16T09:30:13Z</time>
      </trkpt>
      <trkpt lat="43.77427" lon="7.0122">
        <ele>971.68</ele>
        <time>2015-05-16T09:30:19Z</time>
      </trkpt>
      <trkpt lat="43.77413" lon="7.012">
        <ele>968.52</ele>
        <time>2015-05-16T09:30:26Z</time>
      </trkpt>
      <trkpt lat="43.77402" lon="7.0118">
        <ele>966.87</ele>
        <time>2015-05-16T09:30:34Z</time>
      </trkpt>
      <trkpt lat="43.77401" lon="7.01154">
        <ele>965.46</ele>
        <time>2015-05-16T09:30:41Z</time>
      </trkpt>
      <trkpt lat="43.77411" lon="7.01131">
        <ele>962.94</ele>
        <time>2015-05-16T09:30:52Z</time>
      </trkpt>
      <trkpt lat="43.77416" lon="7.01107">
        <ele>962.35</ele>
        <time>2015-05-16T09:31:07Z</time>
      </trkpt>
      <trkpt lat="43.77423" lon="7.01083">
        <ele>962.86</ele>
        <time>2015-05-16T09:31:16Z</time>
      </trkpt>
      <trkpt lat="43.77432" lon="7.01061">
        <ele>964.42</ele>
        <time>2015-05-16T09:31:29Z</time>
      </trkpt>
      <trkpt lat="43.77438" lon="7.01038">
        <ele>967.28</ele>
        <time>2015-05-16T09:31:44Z</time>
      </trkpt>
      <trkpt lat="43.77434" lon="7.01012">
        <ele>971.6</ele>
        <time>2015-05-16T09:32:05Z</time>
      </trkpt>
      <trkpt lat="43.77425" lon="7.0099">
        <ele>974.8</ele>
        <time>2015-05-16T09:32:36Z</time>
      </trkpt>
      <trkpt lat="43.77414" lon="7.0097">
        <ele>976.94</ele>
        <time>2015-05-16T09:33:01Z</time>
      </trkpt>
      <trkpt lat="43.77402" lon="7.0095">
        <ele>978.18</ele>
        <time>2015-05-16T09:33:19Z</time>
      </trkpt>
      <trkpt lat="43.77393" lon="7.00928">
        <ele>979.42</ele>
        <time>2015-05-16T09:33:33Z</time>
      </trkpt>
      <trkpt lat="43.77384" lon="7.00905">
        <ele>979.86</ele>
        <time>2015-05-16T09:33:42Z</time>
      </trkpt>
      <trkpt lat="43.77374" lon="7.00883">
        <ele>980.37</ele>
        <time>2015-05-16T09:33:50Z</time>
      </trkpt>
      <trkpt lat="43.77364" lon="7.0086">
        <ele>979.59</ele>
        <time>2015-05-16T09:33:57Z</time>
      </trkpt>
      <trkpt lat="43.77357" lon="7.00834">
        <ele>979.59</ele>
        <time>2015-05-16T09:34:04Z</time>
      </trkpt>
      <trkpt lat="43.77352" lon="7.00809">
        <ele>978.43</ele>
        <time>2015-05-16T09:34:11Z</time>
      </trkpt>
      <trkpt lat="43.77347" lon="7.00784">
        <ele>976.76</ele>
        <time>2015-05-16T09:34:16Z</time>
      </trkpt>
      <trkpt lat="43.77341" lon="7.00756">
        <ele>975.19</ele>
        <time>2015-05-16T09:34:21Z</time>
      </trkpt>
      <trkpt lat="43.77335" lon="7.0073">
        <ele>973.47</ele>
        <time>2015-05-16T09:34:27Z</time>
      </trkpt>
      <trkpt lat="43.77328" lon="7.00706">
        <ele>972.36</ele>
        <time>2015-05-16T09:34:33Z</time>
      </trkpt>
      <trkpt lat="43.77311" lon="7.0069">
        <ele>972.38</ele>
        <time>2015-05-16T09:34:39Z</time>
      </trkpt>
      <trkpt lat="43.77296" lon="7.00671">
        <ele>972.22</ele>
        <time>2015-05-16T09:34:44Z</time>
      </trkpt>
      <trkpt lat="43.77285" lon="7.0065">
        <ele>971.64</ele>
        <time>2015-05-16T09:34:49Z</time>
      </trkpt>
      <trkpt lat="43.77275" lon="7.00625">
        <ele>971.01</ele>
        <time>2015-05-16T09:34:54Z</time>
      </trkpt>
      <trkpt lat="43.77265" lon="7.00603">
        <ele>970.8</ele>
        <time>2015-05-16T09:34:59Z</time>
      </trkpt>
      <trkpt lat="43.77257" lon="7.0058">
        <ele>971.21</ele>
        <time>2015-05-16T09:35:04Z</time>
      </trkpt>
      <trkpt lat="43.77247" lon="7.00557">
        <ele>971.54</ele>
        <time>2015-05-16T09:35:16Z</time>
      </trkpt>
      <trkpt lat="43.77237" lon="7.00535">
        <ele>970.4</ele>
        <time>2015-05-16T09:35:30Z</time>
      </trkpt>
      <trkpt lat="43.77232" lon="7.00511">
        <ele>964.19</ele>
        <time>2015-05-16T09:35:59Z</time>
      </trkpt>
      <trkpt lat="43.77217" lon="7.00495">
        <ele>962.73</ele>
        <time>2015-05-16T09:36:10Z</time>
      </trkpt>
      <trkpt lat="43.77206" lon="7.00472">
        <ele>961.37</ele>
        <time>2015-05-16T09:36:15Z</time>
      </trkpt>
      <trkpt lat="43.77194" lon="7.00449">
        <ele>958.65</ele>
        <time>2015-05-16T09:36:22Z</time>
      </trkpt>
      <trkpt lat="43.77187" lon="7.00425">
        <ele>955.12</ele>
        <time>2015-05-16T09:36:28Z</time>
      </trkpt>
      <trkpt lat="43.77202" lon="7.0041">
        <ele>952.99</ele>
        <time>2015-05-16T09:36:33Z</time>
      </trkpt>
      <trkpt lat="43.77219" lon="7.00397">
        <ele>951.51</ele>
        <time>2015-05-16T09:36:38Z</time>
      </trkpt>
      <trkpt lat="43.77237" lon="7.00392">
        <ele>950.57</ele>
        <time>2015-05-16T09:36:44Z</time>
      </trkpt>
      <trkpt lat="43.77255" lon="7.00385">
        <ele>950.02</ele>
        <time>2015-05-16T09:36:51Z</time>
      </trkpt>
      <trkpt lat="43.77273" lon="7.00378">
        <ele>949.97</ele>
        <time>2015-05-16T09:37:00Z</time>
      </trkpt>
      <trkpt lat="43.77291" lon="7.0037">
        <ele>949.63</ele>
        <time>2015-05-16T09:37:08Z</time>
      </trkpt>
      <trkpt lat="43.77301" lon="7.00348">
        <ele>948.08</ele>
        <time>2015-05-16T09:37:17Z</time>
      </trkpt>
      <trkpt lat="43.77292" lon="7.00323">
        <ele>945.82</ele>
        <time>2015-05-16T09:37:25Z</time>
      </trkpt>
      <trkpt lat="43.77285" lon="7.00296">
        <ele>943.91</ele>
        <time>2015-05-16T09:37:31Z</time>
      </trkpt>
      <trkpt lat="43.77267" lon="7.00286">
        <ele>942.73</ele>
        <time>2015-05-16T09:37:37Z</time>
      </trkpt>
      <trkpt lat="43.77248" lon="7.00282">
        <ele>941.87</ele>
        <time>2015-05-16T09:37:42Z</time>
      </trkpt>
      <trkpt lat="43.77228" lon="7.00285">
        <ele>940.8</ele>
        <time>2015-05-16T09:37:47Z</time>
      </trkpt>
      <trkpt lat="43.77208" lon="7.00295">
        <ele>940.56</ele>
        <time>2015-05-16T09:37:52Z</time>
      </trkpt>
      <trkpt lat="43.77189" lon="7.00301">
        <ele>940.18</ele>
        <time>2015-05-16T09:37:56Z</time>
      </trkpt>
      <trkpt lat="43.7717" lon="7.00309">
        <ele>940.28</ele>
        <time>2015-05-16T09:38:01Z</time>
      </trkpt>
      <trkpt lat="43.77152" lon="7.00314">
        <ele>940.53</ele>
        <time>2015-05-16T09:38:07Z</time>
      </trkpt>
      <trkpt lat="43.77131" lon="7.00312">
        <ele>938.84</ele>
        <time>2015-05-16T09:38:17Z</time>
      </trkpt>
      <trkpt lat="43.77113" lon="7.00314">
        <ele>937.5</ele>
        <time>2015-05-16T09:38:23Z</time>
      </trkpt>
      <trkpt lat="43.77094" lon="7.00323">
        <ele>936.4</ele>
        <time>2015-05-16T09:38:29Z</time>
      </trkpt>
      <trkpt lat="43.77076" lon="7.00336">
        <ele>932.3</ele>
        <time>2015-05-16T09:38:35Z</time>
      </trkpt>
      <trkpt lat="43.77058" lon="7.00346">
        <ele>932.63</ele>
        <time>2015-05-16T09:38:43Z</time>
      </trkpt>
      <trkpt lat="43.77042" lon="7.0036">
        <ele>930.61</ele>
        <time>2015-05-16T09:38:53Z</time>
      </trkpt>
      <trkpt lat="43.77024" lon="7.00369">
        <ele>924.57</ele>
        <time>2015-05-16T09:39:06Z</time>
      </trkpt>
      <trkpt lat="43.77007" lon="7.0038">
        <ele>920.46</ele>
        <time>2015-05-16T09:39:15Z</time>
      </trkpt>
      <trkpt lat="43.76992" lon="7.00394">
        <ele>916.92</ele>
        <time>2015-05-16T09:39:23Z</time>
      </trkpt>
      <trkpt lat="43.76972" lon="7.00382">
        <ele>903.48</ele>
        <time>2015-05-16T09:42:26Z</time>
      </trkpt>
      <trkpt lat="43.76956" lon="7.00365">
        <ele>899.18</ele>
        <time>2015-05-16T09:42:40Z</time>
      </trkpt>
      <trkpt lat="43.7694" lon="7.00352">
        <ele>899.08</ele>
        <time>2015-05-16T09:42:50Z</time>
      </trkpt>
      <trkpt lat="43.76925" lon="7.00337">
        <ele>899.13</ele>
        <time>2015-05-16T09:43:00Z</time>
      </trkpt>
      <trkpt lat="43.76907" lon="7.00337">
        <ele>892.79</ele>
        <time>2015-05-16T09:43:41Z</time>
      </trkpt>
      <trkpt lat="43.76892" lon="7.00353">
        <ele>892.58</ele>
        <time>2015-05-16T09:43:54Z</time>
      </trkpt>
      <trkpt lat="43.76885" lon="7.00328">
        <ele>891.94</ele>
        <time>2015-05-16T09:44:07Z</time>
      </trkpt>
      <trkpt lat="43.76892" lon="7.00305">
        <ele>891.17</ele>
        <time>2015-05-16T09:44:16Z</time>
      </trkpt>
      <trkpt lat="43.76902" lon="7.0028">
        <ele>890.26</ele>
        <time>2015-05-16T09:44:24Z</time>
      </trkpt>
      <trkpt lat="43.76913" lon="7.00255">
        <ele>889.57</ele>
        <time>2015-05-16T09:44:31Z</time>
      </trkpt>
      <trkpt lat="43.76925" lon="7.00234">
        <ele>888.85</ele>
        <time>2015-05-16T09:44:40Z</time>
      </trkpt>
      <trkpt lat="43.76932" lon="7.0021">
        <ele>887.74</ele>
        <time>2015-05-16T09:44:48Z</time>
      </trkpt>
      <trkpt lat="43.76938" lon="7.00184">
        <ele>886.42</ele>
        <time>2015-05-16T09:44:56Z</time>
      </trkpt>
      <trkpt lat="43.76943" lon="7.00159">
        <ele>885.18</ele>
        <time>2015-05-16T09:45:02Z</time>
      </trkpt>
      <trkpt lat="43.76949" lon="7.00134">
        <ele>883.43</ele>
        <time>2015-05-16T09:45:10Z</time>
      </trkpt>
      <trkpt lat="43.76955" lon="7.00108">
        <ele>882.14</ele>
        <time>2015-05-16T09:45:18Z</time>
      </trkpt>
      <trkpt lat="43.76961" lon="7.00084">
        <ele>881.13</ele>
        <time>2015-05-16T09:45:24Z</time>
      </trkpt>
      <trkpt lat="43.76973" lon="7.00064">
        <ele>873.48</ele>
        <time>2015-05-16T09:46:12Z</time>
      </trkpt>
      <trkpt lat="43.76989" lon="7.00047">
        <ele>868.72</ele>
        <time>2015-05-16T09:46:21Z</time>
      </trkpt>
      <trkpt lat="43.77004" lon="7.0003">
        <ele>868.25</ele>
        <time>2015-05-16T09:46:28Z</time>
      </trkpt>
      <trkpt lat="43.77018" lon="7.00014">
        <ele>867.58</ele>
        <time>2015-05-16T09:46:34Z</time>
      </trkpt>
      <trkpt lat="43.77029" lon="6.99993">
        <ele>866.97</ele>
        <time>2015-05-16T09:46:41Z</time>
      </trkpt>
      <trkpt lat="43.77031" lon="6.99966">
        <ele>864.39</ele>
        <time>2015-05-16T09:46:52Z</time>
      </trkpt>
      <trkpt lat="43.77028" lon="6.9994">
        <ele>862.45</ele>
        <time>2015-05-16T09:46:59Z</time>
      </trkpt>
      <trkpt lat="43.77021" lon="6.99914">
        <ele>860.15</ele>
        <time>2015-05-16T09:47:07Z</time>
      </trkpt>
      <trkpt lat="43.77017" lon="6.99888">
        <ele>857.87</ele>
        <time>2015-05-16T09:47:14Z</time>
      </trkpt>
      <trkpt lat="43.77023" lon="6.99863">
        <ele>854.68</ele>
        <time>2015-05-16T09:47:21Z</time>
      </trkpt>
      <trkpt lat="43.77025" lon="6.99837">
        <ele>852.96</ele>
        <time>2015-05-16T09:47:27Z</time>
      </trkpt>
      <trkpt lat="43.77011" lon="6.9982">
        <ele>850.84</ele>
        <time>2015-05-16T09:47:34Z</time>
      </trkpt>
      <trkpt lat="43.76993" lon="6.99813">
        <ele>848.77</ele>
        <time>2015-05-16T09:47:41Z</time>
      </trkpt>
      <trkpt lat="43.76987" lon="6.99785">
        <ele>834.19</ele>
        <time>2015-05-16T09:48:26Z</time>
      </trkpt>
      <trkpt lat="43.7698" lon="6.9976">
        <ele>833.06</ele>
        <time>2015-05-16T09:48:34Z</time>
      </trkpt>
      <trkpt lat="43.76989" lon="6.99781">
        <ele>825.71</ele>
        <time>2015-05-16T09:49:42Z</time>
      </trkpt>
      <trkpt lat="43.76997" lon="6.99806">
        <ele>826.13</ele>
        <time>2015-05-16T09:49:55Z</time>
      </trkpt>
      <trkpt lat="43.77015" lon="6.99816">
        <ele>825.83</ele>
        <time>2015-05-16T09:50:03Z</time>
      </trkpt>
      <trkpt lat="43.77032" lon="6.99829">
        <ele>824.05</ele>
        <time>2015-05-16T09:50:13Z</time>
      </trkpt>
      <trkpt lat="43.7705" lon="6.99829">
        <ele>823.01</ele>
        <time>2015-05-16T09:50:20Z</time>
      </trkpt>
      <trkpt lat="43.77068" lon="6.99834">
        <ele>821.51</ele>
        <time>2015-05-16T09:50:26Z</time>
      </trkpt>
      <trkpt lat="43.77086" lon="6.99828">
        <ele>820.4</ele>
        <time>2015-05-16T09:50:33Z</time>
      </trkpt>
      <trkpt lat="43.77102" lon="6.99817">
        <ele>819.52</ele>
        <time>2015-05-16T09:50:39Z</time>
      </trkpt>
      <trkpt lat="43.77119" lon="6.99804">
        <ele>817.94</ele>
        <time>2015-05-16T09:50:45Z</time>
      </trkpt>
      <trkpt lat="43.77135" lon="6.9979">
        <ele>817.68</ele>
        <time>2015-05-16T09:51:06Z</time>
      </trkpt>
      <trkpt lat="43.7714" lon="6.99765">
        <ele>817.87</ele>
        <time>2015-05-16T09:51:13Z</time>
      </trkpt>
      <trkpt lat="43.77149" lon="6.99742">
        <ele>817.54</ele>
        <time>2015-05-16T09:51:21Z</time>
      </trkpt>
      <trkpt lat="43.77168" lon="6.99738">
        <ele>816.57</ele>
        <time>2015-05-16T09:51:31Z</time>
      </trkpt>
      <trkpt lat="43.77188" lon="6.99732">
        <ele>814.4</ele>
        <time>2015-05-16T09:51:40Z</time>
      </trkpt>
      <trkpt lat="43.77207" lon="6.99728">
        <ele>812.02</ele>
        <time>2015-05-16T09:51:46Z</time>
      </trkpt>
      <trkpt lat="43.77227" lon="6.99727">
        <ele>810.62</ele>
        <time>2015-05-16T09:51:51Z</time>
      </trkpt>
      <trkpt lat="43.77246" lon="6.99716">
        <ele>809.08</ele>
        <time>2015-05-16T09:51:56Z</time>
      </trkpt>
      <trkpt lat="43.77263" lon="6.99699">
        <ele>807.66</ele>
        <time>2015-05-16T09:52:02Z</time>
      </trkpt>
      <trkpt lat="43.77281" lon="6.99692">
        <ele>805.84</ele>
        <time>2015-05-16T09:52:09Z</time>
      </trkpt>
      <trkpt lat="43.773" lon="6.99692">
        <ele>803.93</ele>
        <time>2015-05-16T09:52:15Z</time>
      </trkpt>
      <trkpt lat="43.77319" lon="6.99688">
        <ele>801.9</ele>
        <time>2015-05-16T09:52:23Z</time>
      </trkpt>
      <trkpt lat="43.77338" lon="6.99679">
        <ele>800.1</ele>
        <time>2015-05-16T09:52:32Z</time>
      </trkpt>
      <trkpt lat="43.77356" lon="6.9967">
        <ele>799.13</ele>
        <time>2015-05-16T09:52:38Z</time>
      </trkpt>
      <trkpt lat="43.77372" lon="6.99656">
        <ele>797.34</ele>
        <time>2015-05-16T09:52:46Z</time>
      </trkpt>
      <trkpt lat="43.77394" lon="6.99646">
        <ele>798.07</ele>
        <time>2015-05-16T09:52:54Z</time>
      </trkpt>
      <trkpt lat="43.77411" lon="6.9963">
        <ele>803.78</ele>
        <time>2015-05-16T09:53:31Z</time>
      </trkpt>
      <trkpt lat="43.77428" lon="6.9962">
        <ele>803.49</ele>
        <time>2015-05-16T09:53:40Z</time>
      </trkpt>
      <trkpt lat="43.77444" lon="6.99606">
        <ele>802.97</ele>
        <time>2015-05-16T09:53:46Z</time>
      </trkpt>
      <trkpt lat="43.77463" lon="6.99597">
        <ele>802.61</ele>
        <time>2015-05-16T09:53:52Z</time>
      </trkpt>
      <trkpt lat="43.77482" lon="6.99586">
        <ele>802.38</ele>
        <time>2015-05-16T09:54:00Z</time>
      </trkpt>
      <trkpt lat="43.77503" lon="6.99579">
        <ele>802.28</ele>
        <time>2015-05-16T09:54:05Z</time>
      </trkpt>
      <trkpt lat="43.77522" lon="6.99574">
        <ele>802.89</ele>
        <time>2015-05-16T09:54:19Z</time>
      </trkpt>
      <trkpt lat="43.77539" lon="6.99566">
        <ele>803.84</ele>
        <time>2015-05-16T09:54:34Z</time>
      </trkpt>
      <trkpt lat="43.77557" lon="6.99558">
        <ele>803.72</ele>
        <time>2015-05-16T09:54:43Z</time>
      </trkpt>
      <trkpt lat="43.77579" lon="6.99549">
        <ele>804.97</ele>
        <time>2015-05-16T09:54:54Z</time>
      </trkpt>
      <trkpt lat="43.77596" lon="6.99537">
        <ele>812.2</ele>
        <time>2015-05-16T09:55:27Z</time>
      </trkpt>
      <trkpt lat="43.77615" lon="6.99531">
        <ele>812.1</ele>
        <time>2015-05-16T09:55:38Z</time>
      </trkpt>
      <trkpt lat="43.77634" lon="6.99529">
        <ele>811.21</ele>
        <time>2015-05-16T09:55:50Z</time>
      </trkpt>
      <trkpt lat="43.77653" lon="6.9952">
        <ele>811.09</ele>
        <time>2015-05-16T09:56:01Z</time>
      </trkpt>
      <trkpt lat="43.77667" lon="6.99504">
        <ele>811.88</ele>
        <time>2015-05-16T09:56:09Z</time>
      </trkpt>
      <trkpt lat="43.77678" lon="6.99484">
        <ele>813.37</ele>
        <time>2015-05-16T09:56:17Z</time>
      </trkpt>
      <trkpt lat="43.77683" lon="6.99457">
        <ele>813.9</ele>
        <time>2015-05-16T09:56:25Z</time>
      </trkpt>
      <trkpt lat="43.77677" lon="6.99427">
        <ele>814.79</ele>
        <time>2015-05-16T09:56:30Z</time>
      </trkpt>
      <trkpt lat="43.77672" lon="6.99402">
        <ele>817.63</ele>
        <time>2015-05-16T09:56:39Z</time>
      </trkpt>
      <trkpt lat="43.77675" lon="6.99375">
        <ele>818.54</ele>
        <time>2015-05-16T09:56:49Z</time>
      </trkpt>
      <trkpt lat="43.77678" lon="6.99402">
        <ele>819.6</ele>
        <time>2015-05-16T09:57:40Z</time>
      </trkpt>
      <trkpt lat="43.77682" lon="6.99429">
        <ele>819.34</ele>
        <time>2015-05-16T09:57:47Z</time>
      </trkpt>
      <trkpt lat="43.77678" lon="6.99456">
        <ele>819.23</ele>
        <time>2015-05-16T09:57:58Z</time>
      </trkpt>
      <trkpt lat="43.77696" lon="6.99462">
        <ele>820.46</ele>
        <time>2015-05-16T09:58:07Z</time>
      </trkpt>
      <trkpt lat="43.77708" lon="6.99443">
        <ele>819.81</ele>
        <time>2015-05-16T09:58:16Z</time>
      </trkpt>
      <trkpt lat="43.77722" lon="6.99426">
        <ele>817.77</ele>
        <time>2015-05-16T09:58:24Z</time>
      </trkpt>
      <trkpt lat="43.7774" lon="6.99412">
        <ele>816.34</ele>
        <time>2015-05-16T09:58:35Z</time>
      </trkpt>
      <trkpt lat="43.77751" lon="6.99392">
        <ele>815.33</ele>
        <time>2015-05-16T09:58:43Z</time>
      </trkpt>
      <trkpt lat="43.77762" lon="6.99371">
        <ele>814.48</ele>
        <time>2015-05-16T09:58:51Z</time>
      </trkpt>
      <trkpt lat="43.77776" lon="6.99355">
        <ele>813.53</ele>
        <time>2015-05-16T09:58:59Z</time>
      </trkpt>
      <trkpt lat="43.77786" lon="6.99334">
        <ele>812.68</ele>
        <time>2015-05-16T09:59:05Z</time>
      </trkpt>
      <trkpt lat="43.77778" lon="6.9931">
        <ele>811.38</ele>
        <time>2015-05-16T09:59:18Z</time>
      </trkpt>
      <trkpt lat="43.77765" lon="6.9929">
        <ele>810.96</ele>
        <time>2015-05-16T09:59:27Z</time>
      </trkpt>
      <trkpt lat="43.77748" lon="6.99274">
        <ele>810.65</ele>
        <time>2015-05-16T09:59:35Z</time>
      </trkpt>
      <trkpt lat="43.7773" lon="6.99261">
        <ele>811.22</ele>
        <time>2015-05-16T09:59:41Z</time>
      </trkpt>
      <trkpt lat="43.7772" lon="6.9924">
        <ele>811.41</ele>
        <time>2015-05-16T09:59:48Z</time>
      </trkpt>
      <trkpt lat="43.77724" lon="6.99215">
        <ele>812.02</ele>
        <time>2015-05-16T09:59:58Z</time>
      </trkpt>
      <trkpt lat="43.77731" lon="6.99192">
        <ele>812.03</ele>
        <time>2015-05-16T10:00:11Z</time>
      </trkpt>
      <trkpt lat="43.77731" lon="6.99167">
        <ele>812.99</ele>
        <time>2015-05-16T10:00:25Z</time>
      </trkpt>
      <trkpt lat="43.77744" lon="6.99147">
        <ele>811.95</ele>
        <time>2015-05-16T10:00:39Z</time>
      </trkpt>
      <trkpt lat="43.77756" lon="6.99128">
        <ele>812.36</ele>
        <time>2015-05-16T10:00:47Z</time>
      </trkpt>
      <trkpt lat="43.77769" lon="6.9911">
        <ele>813.34</ele>
        <time>2015-05-16T10:00:56Z</time>
      </trkpt>
      <trkpt lat="43.77787" lon="6.99099">
        <ele>813.64</ele>
        <time>2015-05-16T10:01:01Z</time>
      </trkpt>
      <trkpt lat="43.77804" lon="6.9909">
        <ele>812.94</ele>
        <time>2015-05-16T10:01:07Z</time>
      </trkpt>
      <trkpt lat="43.7782" lon="6.99071">
        <ele>811.91</ele>
        <time>2015-05-16T10:01:16Z</time>
      </trkpt>
      <trkpt lat="43.77831" lon="6.9905">
        <ele>811.95</ele>
        <time>2015-05-16T10:01:24Z</time>
      </trkpt>
      <trkpt lat="43.77842" lon="6.9903">
        <ele>812.94</ele>
        <time>2015-05-16T10:01:31Z</time>
      </trkpt>
      <trkpt lat="43.7786" lon="6.99018">
        <ele>812.21</ele>
        <time>2015-05-16T10:01:42Z</time>
      </trkpt>
      <trkpt lat="43.77876" lon="6.99003">
        <ele>813.22</ele>
        <time>2015-05-16T10:01:50Z</time>
      </trkpt>
      <trkpt lat="43.77892" lon="6.98988">
        <ele>814.25</ele>
        <time>2015-05-16T10:01:58Z</time>
      </trkpt>
      <trkpt lat="43.77905" lon="6.9897">
        <ele>815.24</ele>
        <time>2015-05-16T10:02:07Z</time>
      </trkpt>
      <trkpt lat="43.77923" lon="6.98963">
        <ele>816.12</ele>
        <time>2015-05-16T10:02:14Z</time>
      </trkpt>
      <trkpt lat="43.77938" lon="6.98947">
        <ele>816.91</ele>
        <time>2015-05-16T10:02:20Z</time>
      </trkpt>
      <trkpt lat="43.77958" lon="6.98936">
        <ele>817.66</ele>
        <time>2015-05-16T10:02:26Z</time>
      </trkpt>
      <trkpt lat="43.77972" lon="6.98918">
        <ele>818.81</ele>
        <time>2015-05-16T10:02:32Z</time>
      </trkpt>
      <trkpt lat="43.77988" lon="6.98901">
        <ele>818.89</ele>
        <time>2015-05-16T10:02:39Z</time>
      </trkpt>
      <trkpt lat="43.77999" lon="6.98877">
        <ele>818.28</ele>
        <time>2015-05-16T10:02:46Z</time>
      </trkpt>
      <trkpt lat="43.78009" lon="6.98855">
        <ele>818.36</ele>
        <time>2015-05-16T10:02:54Z</time>
      </trkpt>
      <trkpt lat="43.78019" lon="6.98831">
        <ele>817.22</ele>
        <time>2015-05-16T10:03:05Z</time>
      </trkpt>
      <trkpt lat="43.78034" lon="6.98816">
        <ele>815.51</ele>
        <time>2015-05-16T10:03:16Z</time>
      </trkpt>
      <trkpt lat="43.78049" lon="6.98803">
        <ele>814.92</ele>
        <time>2015-05-16T10:03:29Z</time>
      </trkpt>
      <trkpt lat="43.78054" lon="6.98779">
        <ele>816.7</ele>
        <time>2015-05-16T10:03:45Z</time>
      </trkpt>
      <trkpt lat="43.78078" lon="6.98771">
        <ele>821.33</ele>
        <time>2015-05-16T10:03:58Z</time>
      </trkpt>
      <trkpt lat="43.78092" lon="6.98755">
        <ele>825.89</ele>
        <time>2015-05-16T10:04:13Z</time>
      </trkpt>
      <trkpt lat="43.78099" lon="6.98731">
        <ele>830</ele>
        <time>2015-05-16T10:04:30Z</time>
      </trkpt>
      <trkpt lat="43.78118" lon="6.98731">
        <ele>836.12</ele>
        <time>2015-05-16T10:04:49Z</time>
      </trkpt>
      <trkpt lat="43.78136" lon="6.98728">
        <ele>843.76</ele>
        <time>2015-05-16T10:05:06Z</time>
      </trkpt>
      <trkpt lat="43.78147" lon="6.98705">
        <ele>847.38</ele>
        <time>2015-05-16T10:05:22Z</time>
      </trkpt>
      <trkpt lat="43.78156" lon="6.98683">
        <ele>850.18</ele>
        <time>2015-05-16T10:05:37Z</time>
      </trkpt>
      <trkpt lat="43.7817" lon="6.98665">
        <ele>850.55</ele>
        <time>2015-05-16T10:05:46Z</time>
      </trkpt>
      <trkpt lat="43.78187" lon="6.98655">
        <ele>850.9</ele>
        <time>2015-05-16T10:05:53Z</time>
      </trkpt>
      <trkpt lat="43.78205" lon="6.98643">
        <ele>851.77</ele>
        <time>2015-05-16T10:06:03Z</time>
      </trkpt>
      <trkpt lat="43.78223" lon="6.98641">
        <ele>852.21</ele>
        <time>2015-05-16T10:06:13Z</time>
      </trkpt>
      <trkpt lat="43.78241" lon="6.98635">
        <ele>854.44</ele>
        <time>2015-05-16T10:06:25Z</time>
      </trkpt>
      <trkpt lat="43.78259" lon="6.9863">
        <ele>856.6</ele>
        <time>2015-05-16T10:06:41Z</time>
      </trkpt>
      <trkpt lat="43.78273" lon="6.98614">
        <ele>858.95</ele>
        <time>2015-05-16T10:07:03Z</time>
      </trkpt>
      <trkpt lat="43.78286" lon="6.98593">
        <ele>861.98</ele>
        <time>2015-05-16T10:13:31Z</time>
      </trkpt>
      <trkpt lat="43.7829" lon="6.98565">
        <ele>863.67</ele>
        <time>2015-05-16T10:13:41Z</time>
      </trkpt>
      <trkpt lat="43.78302" lon="6.98544">
        <ele>861.71</ele>
        <time>2015-05-16T10:13:47Z</time>
      </trkpt>
      <trkpt lat="43.78317" lon="6.98526">
        <ele>860.61</ele>
        <time>2015-05-16T10:13:52Z</time>
      </trkpt>
      <trkpt lat="43.78335" lon="6.98513">
        <ele>858.7</ele>
        <time>2015-05-16T10:13:57Z</time>
      </trkpt>
      <trkpt lat="43.78353" lon="6.98502">
        <ele>855.35</ele>
        <time>2015-05-16T10:14:01Z</time>
      </trkpt>
      <trkpt lat="43.78373" lon="6.98497">
        <ele>853.05</ele>
        <time>2015-05-16T10:14:05Z</time>
      </trkpt>
      <trkpt lat="43.78395" lon="6.98488">
        <ele>848.73</ele>
        <time>2015-05-16T10:14:10Z</time>
      </trkpt>
      <trkpt lat="43.78413" lon="6.98475">
        <ele>842.78</ele>
        <time>2015-05-16T10:14:15Z</time>
      </trkpt>
      <trkpt lat="43.7843" lon="6.98457">
        <ele>837.43</ele>
        <time>2015-05-16T10:14:20Z</time>
      </trkpt>
      <trkpt lat="43.78447" lon="6.98462">
        <ele>834.51</ele>
        <time>2015-05-16T10:14:26Z</time>
      </trkpt>
      <trkpt lat="43.78462" lon="6.98477">
        <ele>833.03</ele>
        <time>2015-05-16T10:14:30Z</time>
      </trkpt>
      <trkpt lat="43.7848" lon="6.98491">
        <ele>832.87</ele>
        <time>2015-05-16T10:14:35Z</time>
      </trkpt>
      <trkpt lat="43.78499" lon="6.98504">
        <ele>830.94</ele>
        <time>2015-05-16T10:14:40Z</time>
      </trkpt>
      <trkpt lat="43.78521" lon="6.98497">
        <ele>827.16</ele>
        <time>2015-05-16T10:14:46Z</time>
      </trkpt>
      <trkpt lat="43.78536" lon="6.98482">
        <ele>825.15</ele>
        <time>2015-05-16T10:14:50Z</time>
      </trkpt>
      <trkpt lat="43.78553" lon="6.98471">
        <ele>822.91</ele>
        <time>2015-05-16T10:14:55Z</time>
      </trkpt>
      <trkpt lat="43.78568" lon="6.98452">
        <ele>822.35</ele>
        <time>2015-05-16T10:15:01Z</time>
      </trkpt>
      <trkpt lat="43.78589" lon="6.98438">
        <ele>820.51</ele>
        <time>2015-05-16T10:15:07Z</time>
      </trkpt>
      <trkpt lat="43.78606" lon="6.98424">
        <ele>819.02</ele>
        <time>2015-05-16T10:15:11Z</time>
      </trkpt>
      <trkpt lat="43.78626" lon="6.98414">
        <ele>817.36</ele>
        <time>2015-05-16T10:15:16Z</time>
      </trkpt>
      <trkpt lat="43.78646" lon="6.98409">
        <ele>815.21</ele>
        <time>2015-05-16T10:15:21Z</time>
      </trkpt>
      <trkpt lat="43.78665" lon="6.98408">
        <ele>814.28</ele>
        <time>2015-05-16T10:15:25Z</time>
      </trkpt>
      <trkpt lat="43.78684" lon="6.98418">
        <ele>813.76</ele>
        <time>2015-05-16T10:15:29Z</time>
      </trkpt>
      <trkpt lat="43.78703" lon="6.9842">
        <ele>813.46</ele>
        <time>2015-05-16T10:15:34Z</time>
      </trkpt>
      <trkpt lat="43.78718" lon="6.98405">
        <ele>809.73</ele>
        <time>2015-05-16T10:15:40Z</time>
      </trkpt>
      <trkpt lat="43.78727" lon="6.9838">
        <ele>808.51</ele>
        <time>2015-05-16T10:16:03Z</time>
      </trkpt>
      <trkpt lat="43.78725" lon="6.98352">
        <ele>808.52</ele>
        <time>2015-05-16T10:16:08Z</time>
      </trkpt>
      <trkpt lat="43.78737" lon="6.9833">
        <ele>808.38</ele>
        <time>2015-05-16T10:16:14Z</time>
      </trkpt>
      <trkpt lat="43.78753" lon="6.98317">
        <ele>808.26</ele>
        <time>2015-05-16T10:16:21Z</time>
      </trkpt>
      <trkpt lat="43.78773" lon="6.98311">
        <ele>807.59</ele>
        <time>2015-05-16T10:16:28Z</time>
      </trkpt>
      <trkpt lat="43.7879" lon="6.98299">
        <ele>806.87</ele>
        <time>2015-05-16T10:16:33Z</time>
      </trkpt>
      <trkpt lat="43.7881" lon="6.98292">
        <ele>806.12</ele>
        <time>2015-05-16T10:16:38Z</time>
      </trkpt>
      <trkpt lat="43.78831" lon="6.98284">
        <ele>806.1</ele>
        <time>2015-05-16T10:16:43Z</time>
      </trkpt>
      <trkpt lat="43.7885" lon="6.98269">
        <ele>802.08</ele>
        <time>2015-05-16T10:16:48Z</time>
      </trkpt>
      <trkpt lat="43.78866" lon="6.98255">
        <ele>798.69</ele>
        <time>2015-05-16T10:16:53Z</time>
      </trkpt>
      <trkpt lat="43.78883" lon="6.98243">
        <ele>794.95</ele>
        <time>2015-05-16T10:16:58Z</time>
      </trkpt>
      <trkpt lat="43.78903" lon="6.98233">
        <ele>792.04</ele>
        <time>2015-05-16T10:17:03Z</time>
      </trkpt>
      <trkpt lat="43.78921" lon="6.98221">
        <ele>789.53</ele>
        <time>2015-05-16T10:17:08Z</time>
      </trkpt>
      <trkpt lat="43.7894" lon="6.98207">
        <ele>787.26</ele>
        <time>2015-05-16T10:17:13Z</time>
      </trkpt>
      <trkpt lat="43.78956" lon="6.98195">
        <ele>785.1</ele>
        <time>2015-05-16T10:17:18Z</time>
      </trkpt>
      <trkpt lat="43.78975" lon="6.98182">
        <ele>782.58</ele>
        <time>2015-05-16T10:17:24Z</time>
      </trkpt>
      <trkpt lat="43.78991" lon="6.98169">
        <ele>779.32</ele>
        <time>2015-05-16T10:17:30Z</time>
      </trkpt>
      <trkpt lat="43.7898" lon="6.98188">
        <ele>773.13</ele>
        <time>2015-05-16T10:17:40Z</time>
      </trkpt>
      <trkpt lat="43.78967" lon="6.98207">
        <ele>770.08</ele>
        <time>2015-05-16T10:17:45Z</time>
      </trkpt>
      <trkpt lat="43.78956" lon="6.98228">
        <ele>767.05</ele>
        <time>2015-05-16T10:17:50Z</time>
      </trkpt>
      <trkpt lat="43.78942" lon="6.98245">
        <ele>763.22</ele>
        <time>2015-05-16T10:17:56Z</time>
      </trkpt>
      <trkpt lat="43.7896" lon="6.98243">
        <ele>759.41</ele>
        <time>2015-05-16T10:18:04Z</time>
      </trkpt>
      <trkpt lat="43.78978" lon="6.98239">
        <ele>756.29</ele>
        <time>2015-05-16T10:18:10Z</time>
      </trkpt>
      <trkpt lat="43.78981" lon="6.98267">
        <ele>748.25</ele>
        <time>2015-05-16T10:18:25Z</time>
      </trkpt>
      <trkpt lat="43.78973" lon="6.98292">
        <ele>743.8</ele>
        <time>2015-05-16T10:18:31Z</time>
      </trkpt>
      <trkpt lat="43.78991" lon="6.98298">
        <ele>738.08</ele>
        <time>2015-05-16T10:18:39Z</time>
      </trkpt>
      <trkpt lat="43.79003" lon="6.98319">
        <ele>732.68</ele>
        <time>2015-05-16T10:18:52Z</time>
      </trkpt>
      <trkpt lat="43.7901" lon="6.98344">
        <ele>730.18</ele>
        <time>2015-05-16T10:18:58Z</time>
      </trkpt>
      <trkpt lat="43.79006" lon="6.98368">
        <ele>727.25</ele>
        <time>2015-05-16T10:19:20Z</time>
      </trkpt>
      <trkpt lat="43.78997" lon="6.9839">
        <ele>729.02</ele>
        <time>2015-05-16T10:19:45Z</time>
      </trkpt>
      <trkpt lat="43.78993" lon="6.98415">
        <ele>730.68</ele>
        <time>2015-05-16T10:20:53Z</time>
      </trkpt>
      <trkpt lat="43.78984" lon="6.98437">
        <ele>731.5</ele>
        <time>2015-05-16T10:21:11Z</time>
      </trkpt>
      <trkpt lat="43.78977" lon="6.98461">
        <ele>731.71</ele>
        <time>2015-05-16T10:21:25Z</time>
      </trkpt>
      <trkpt lat="43.78973" lon="6.98486">
        <ele>732.62</ele>
        <time>2015-05-16T10:21:43Z</time>
      </trkpt>
      <trkpt lat="43.7897" lon="6.98512">
        <ele>734.08</ele>
        <time>2015-05-16T10:22:01Z</time>
      </trkpt>
      <trkpt lat="43.78976" lon="6.98537">
        <ele>735.02</ele>
        <time>2015-05-16T10:22:17Z</time>
      </trkpt>
      <trkpt lat="43.78974" lon="6.98562">
        <ele>736.39</ele>
        <time>2015-05-16T10:22:34Z</time>
      </trkpt>
      <trkpt lat="43.78976" lon="6.98589">
        <ele>737.55</ele>
        <time>2015-05-16T10:22:48Z</time>
      </trkpt>
      <trkpt lat="43.78986" lon="6.9861">
        <ele>738.47</ele>
        <time>2015-05-16T10:22:57Z</time>
      </trkpt>
      <trkpt lat="43.78992" lon="6.98634">
        <ele>740.18</ele>
        <time>2015-05-16T10:23:13Z</time>
      </trkpt>
      <trkpt lat="43.79001" lon="6.98657">
        <ele>740.71</ele>
        <time>2015-05-16T10:23:25Z</time>
      </trkpt>
      <trkpt lat="43.79012" lon="6.9868">
        <ele>741.97</ele>
        <time>2015-05-16T10:23:37Z</time>
      </trkpt>
      <trkpt lat="43.79018" lon="6.98704">
        <ele>743.18</ele>
        <time>2015-05-16T10:23:53Z</time>
      </trkpt>
      <trkpt lat="43.7901" lon="6.98727">
        <ele>743.93</ele>
        <time>2015-05-16T10:24:09Z</time>
      </trkpt>
      <trkpt lat="43.79002" lon="6.9875">
        <ele>746.11</ele>
        <time>2015-05-16T10:24:27Z</time>
      </trkpt>
      <trkpt lat="43.78984" lon="6.98758">
        <ele>747.94</ele>
        <time>2015-05-16T10:24:42Z</time>
      </trkpt>
      <trkpt lat="43.78973" lon="6.98779">
        <ele>749.87</ele>
        <time>2015-05-16T10:24:56Z</time>
      </trkpt>
      <trkpt lat="43.78973" lon="6.98806">
        <ele>752.3</ele>
        <time>2015-05-16T10:25:14Z</time>
      </trkpt>
      <trkpt lat="43.7897" lon="6.98832">
        <ele>754.25</ele>
        <time>2015-05-16T10:25:30Z</time>
      </trkpt>
      <trkpt lat="43.78959" lon="6.98853">
        <ele>755.68</ele>
        <time>2015-05-16T10:25:43Z</time>
      </trkpt>
      <trkpt lat="43.7895" lon="6.98875">
        <ele>758.25</ele>
        <time>2015-05-16T10:26:01Z</time>
      </trkpt>
      <trkpt lat="43.78954" lon="6.98902">
        <ele>760.14</ele>
        <time>2015-05-16T10:26:12Z</time>
      </trkpt>
      <trkpt lat="43.78953" lon="6.98928">
        <ele>762.6</ele>
        <time>2015-05-16T10:26:30Z</time>
      </trkpt>
      <trkpt lat="43.78951" lon="6.98953">
        <ele>764.15</ele>
        <time>2015-05-16T10:26:41Z</time>
      </trkpt>
      <trkpt lat="43.78944" lon="6.98976">
        <ele>766.23</ele>
        <time>2015-05-16T10:26:57Z</time>
      </trkpt>
      <trkpt lat="43.78938" lon="6.99">
        <ele>769.17</ele>
        <time>2015-05-16T10:27:16Z</time>
      </trkpt>
      <trkpt lat="43.78937" lon="6.99026">
        <ele>771</ele>
        <time>2015-05-16T10:27:32Z</time>
      </trkpt>
      <trkpt lat="43.78933" lon="6.99052">
        <ele>772.5</ele>
        <time>2015-05-16T10:27:42Z</time>
      </trkpt>
      <trkpt lat="43.78927" lon="6.99077">
        <ele>774.62</ele>
        <time>2015-05-16T10:27:58Z</time>
      </trkpt>
      <trkpt lat="43.78921" lon="6.99102">
        <ele>776.31</ele>
        <time>2015-05-16T10:28:13Z</time>
      </trkpt>
      <trkpt lat="43.78915" lon="6.99128">
        <ele>778.19</ele>
        <time>2015-05-16T10:28:29Z</time>
      </trkpt>
      <trkpt lat="43.78908" lon="6.99152">
        <ele>780.13</ele>
        <time>2015-05-16T10:28:42Z</time>
      </trkpt>
      <trkpt lat="43.78899" lon="6.99174">
        <ele>782.16</ele>
        <time>2015-05-16T10:28:58Z</time>
      </trkpt>
      <trkpt lat="43.78892" lon="6.99199">
        <ele>783.56</ele>
        <time>2015-05-16T10:29:09Z</time>
      </trkpt>
      <trkpt lat="43.78883" lon="6.99222">
        <ele>785.45</ele>
        <time>2015-05-16T10:29:24Z</time>
      </trkpt>
      <trkpt lat="43.78878" lon="6.99247">
        <ele>786.39</ele>
        <time>2015-05-16T10:29:35Z</time>
      </trkpt>
      <trkpt lat="43.78872" lon="6.99271">
        <ele>788.42</ele>
        <time>2015-05-16T10:29:51Z</time>
      </trkpt>
      <trkpt lat="43.78879" lon="6.99295">
        <ele>790.2</ele>
        <time>2015-05-16T10:30:29Z</time>
      </trkpt>
      <trkpt lat="43.78897" lon="6.99306">
        <ele>792.09</ele>
        <time>2015-05-16T10:30:43Z</time>
      </trkpt>
      <trkpt lat="43.78911" lon="6.99289">
        <ele>793.38</ele>
        <time>2015-05-16T10:30:51Z</time>
      </trkpt>
      <trkpt lat="43.78929" lon="6.99282">
        <ele>793.62</ele>
        <time>2015-05-16T10:31:02Z</time>
      </trkpt>
      <trkpt lat="43.78948" lon="6.99272">
        <ele>794.39</ele>
        <time>2015-05-16T10:31:13Z</time>
      </trkpt>
      <trkpt lat="43.78968" lon="6.99264">
        <ele>796.03</ele>
        <time>2015-05-16T10:31:20Z</time>
      </trkpt>
      <trkpt lat="43.78984" lon="6.99249">
        <ele>798.92</ele>
        <time>2015-05-16T10:31:31Z</time>
      </trkpt>
      <trkpt lat="43.78999" lon="6.99233">
        <ele>802.44</ele>
        <time>2015-05-16T10:31:42Z</time>
      </trkpt>
      <trkpt lat="43.79018" lon="6.99218">
        <ele>805.75</ele>
        <time>2015-05-16T10:31:51Z</time>
      </trkpt>
      <trkpt lat="43.79034" lon="6.99205">
        <ele>807.95</ele>
        <time>2015-05-16T10:31:58Z</time>
      </trkpt>
      <trkpt lat="43.79049" lon="6.9919">
        <ele>810.45</ele>
        <time>2015-05-16T10:32:07Z</time>
      </trkpt>
      <trkpt lat="43.79064" lon="6.9917">
        <ele>813.04</ele>
        <time>2015-05-16T10:32:17Z</time>
      </trkpt>
      <trkpt lat="43.79077" lon="6.99151">
        <ele>814.35</ele>
        <time>2015-05-16T10:32:26Z</time>
      </trkpt>
      <trkpt lat="43.79092" lon="6.99135">
        <ele>815.45</ele>
        <time>2015-05-16T10:32:37Z</time>
      </trkpt>
      <trkpt lat="43.79111" lon="6.99128">
        <ele>818.37</ele>
        <time>2015-05-16T10:32:47Z</time>
      </trkpt>
      <trkpt lat="43.79128" lon="6.99117">
        <ele>816.85</ele>
        <time>2015-05-16T10:32:55Z</time>
      </trkpt>
      <trkpt lat="43.79145" lon="6.99107">
        <ele>813.47</ele>
        <time>2015-05-16T10:33:05Z</time>
      </trkpt>
      <trkpt lat="43.79158" lon="6.99088">
        <ele>811.52</ele>
        <time>2015-05-16T10:33:14Z</time>
      </trkpt>
      <trkpt lat="43.7917" lon="6.99069">
        <ele>812.04</ele>
        <time>2015-05-16T10:33:24Z</time>
      </trkpt>
      <trkpt lat="43.79183" lon="6.99049">
        <ele>810.16</ele>
        <time>2015-05-16T10:33:33Z</time>
      </trkpt>
      <trkpt lat="43.79191" lon="6.99025">
        <ele>810.28</ele>
        <time>2015-05-16T10:33:43Z</time>
      </trkpt>
      <trkpt lat="43.79197" lon="6.99001">
        <ele>811.34</ele>
        <time>2015-05-16T10:33:52Z</time>
      </trkpt>
      <trkpt lat="43.79214" lon="6.98992">
        <ele>810.93</ele>
        <time>2015-05-16T10:39:50Z</time>
      </trkpt>
      <trkpt lat="43.7922" lon="6.98968">
        <ele>812.95</ele>
        <time>2015-05-16T10:40:28Z</time>
      </trkpt>
      <trkpt lat="43.79223" lon="6.98993">
        <ele>812.16</ele>
        <time>2015-05-16T10:41:37Z</time>
      </trkpt>
      <trkpt lat="43.79241" lon="6.98989">
        <ele>815.84</ele>
        <time>2015-05-16T10:42:28Z</time>
      </trkpt>
      <trkpt lat="43.79255" lon="6.99005">
        <ele>822.14</ele>
        <time>2015-05-16T10:43:50Z</time>
      </trkpt>
      <trkpt lat="43.79276" lon="6.98996">
        <ele>827.63</ele>
        <time>2015-05-16T10:46:06Z</time>
      </trkpt>
      <trkpt lat="43.79259" lon="6.99004">
        <ele>828.63</ele>
        <time>2015-05-16T10:48:28Z</time>
      </trkpt>
      <trkpt lat="43.79276" lon="6.99011">
        <ele>828.53</ele>
        <time>2015-05-16T10:53:00Z</time>
      </trkpt>
      <trkpt lat="43.79276" lon="6.98986">
        <ele>831.63</ele>
        <time>2015-05-16T10:57:13Z</time>
      </trkpt>
      <trkpt lat="43.79288" lon="6.98967">
        <ele>833.62</ele>
        <time>2015-05-16T10:58:09Z</time>
      </trkpt>
      <trkpt lat="43.79297" lon="6.98945">
        <ele>835.33</ele>
        <time>2015-05-16T10:58:40Z</time>
      </trkpt>
      <trkpt lat="43.79295" lon="6.9897">
        <ele>837.73</ele>
        <time>2015-05-16T11:01:36Z</time>
      </trkpt>
      <trkpt lat="43.79291" lon="6.98995">
        <ele>839.72</ele>
        <time>2015-05-16T11:02:19Z</time>
      </trkpt>
      <trkpt lat="43.793" lon="6.99017">
        <ele>842.32</ele>
        <time>2015-05-16T11:03:25Z</time>
      </trkpt>
      <trkpt lat="43.79312" lon="6.99037">
        <ele>845.43</ele>
        <time>2015-05-16T11:04:12Z</time>
      </trkpt>
      <trkpt lat="43.79321" lon="6.99058">
        <ele>848.15</ele>
        <time>2015-05-16T11:04:57Z</time>
      </trkpt>
      <trkpt lat="43.79317" lon="6.99084">
        <ele>856.61</ele>
        <time>2015-05-16T11:06:48Z</time>
      </trkpt>
      <trkpt lat="43.79336" lon="6.99077">
        <ele>864.58</ele>
        <time>2015-05-16T11:09:39Z</time>
      </trkpt>
      <trkpt lat="43.79318" lon="6.99078">
        <ele>866.43</ele>
        <time>2015-05-16T11:11:13Z</time>
      </trkpt>
      <trkpt lat="43.793" lon="6.99085">
        <ele>868.38</ele>
        <time>2015-05-16T11:22:10Z</time>
      </trkpt>
      <trkpt lat="43.79315" lon="6.99069">
        <ele>868.96</ele>
        <time>2015-05-16T11:22:48Z</time>
      </trkpt>
      <trkpt lat="43.79333" lon="6.99074">
        <ele>870.61</ele>
        <time>2015-05-16T11:24:04Z</time>
      </trkpt>
      <trkpt lat="43.79315" lon="6.99077">
        <ele>871.04</ele>
        <time>2015-05-16T11:24:53Z</time>
      </trkpt>
      <trkpt lat="43.79331" lon="6.99061">
        <ele>868.72</ele>
        <time>2015-05-16T11:25:55Z</time>
      </trkpt>
      <trkpt lat="43.79314" lon="6.99075">
        <ele>869.48</ele>
        <time>2015-05-16T11:27:20Z</time>
      </trkpt>
      <trkpt lat="43.79334" lon="6.99073">
        <ele>867.83</ele>
        <time>2015-05-16T11:28:06Z</time>
      </trkpt>
      <trkpt lat="43.79314" lon="6.99084">
        <ele>867.03</ele>
        <time>2015-05-16T11:29:01Z</time>
      </trkpt>
      <trkpt lat="43.79309" lon="6.9906">
        <ele>868.51</ele>
        <time>2015-05-16T11:31:49Z</time>
      </trkpt>
      <trkpt lat="43.79302" lon="6.99037">
        <ele>868.01</ele>
        <time>2015-05-16T11:32:19Z</time>
      </trkpt>
      <trkpt lat="43.7929" lon="6.99017">
        <ele>863.81</ele>
        <time>2015-05-16T11:33:20Z</time>
      </trkpt>
      <trkpt lat="43.79289" lon="6.98992">
        <ele>860.12</ele>
        <time>2015-05-16T11:33:49Z</time>
      </trkpt>
      <trkpt lat="43.79287" lon="6.98966">
        <ele>856.97</ele>
        <time>2015-05-16T11:34:17Z</time>
      </trkpt>
      <trkpt lat="43.79292" lon="6.98941">
        <ele>855.03</ele>
        <time>2015-05-16T11:34:37Z</time>
      </trkpt>
      <trkpt lat="43.79281" lon="6.98964">
        <ele>852.97</ele>
        <time>2015-05-16T11:35:12Z</time>
      </trkpt>
      <trkpt lat="43.79277" lon="6.98989">
        <ele>851.97</ele>
        <time>2015-05-16T11:35:23Z</time>
      </trkpt>
      <trkpt lat="43.79263" lon="6.99004">
        <ele>833.06</ele>
        <time>2015-05-16T11:39:01Z</time>
      </trkpt>
      <trkpt lat="43.79252" lon="6.98984">
        <ele>831.77</ele>
        <time>2015-05-16T11:39:27Z</time>
      </trkpt>
      <trkpt lat="43.79249" lon="6.98959">
        <ele>830.28</ele>
        <time>2015-05-16T11:39:42Z</time>
      </trkpt>
      <trkpt lat="43.79235" lon="6.98976">
        <ele>827.83</ele>
        <time>2015-05-16T11:39:56Z</time>
      </trkpt>
      <trkpt lat="43.79215" lon="6.98973">
        <ele>817.18</ele>
        <time>2015-05-16T11:40:53Z</time>
      </trkpt>
      <trkpt lat="43.79208" lon="6.98999">
        <ele>813.2</ele>
        <time>2015-05-16T11:41:04Z</time>
      </trkpt>
      <trkpt lat="43.792" lon="6.99022">
        <ele>808.12</ele>
        <time>2015-05-16T11:43:50Z</time>
      </trkpt>
      <trkpt lat="43.79189" lon="6.99045">
        <ele>808.47</ele>
        <time>2015-05-16T11:43:58Z</time>
      </trkpt>
      <trkpt lat="43.79184" lon="6.9907">
        <ele>808.3</ele>
        <time>2015-05-16T11:44:07Z</time>
      </trkpt>
      <trkpt lat="43.79176" lon="6.99094">
        <ele>808.17</ele>
        <time>2015-05-16T11:44:15Z</time>
      </trkpt>
      <trkpt lat="43.79168" lon="6.99119">
        <ele>807.45</ele>
        <time>2015-05-16T11:44:22Z</time>
      </trkpt>
      <trkpt lat="43.79161" lon="6.99142">
        <ele>806.6</ele>
        <time>2015-05-16T11:44:30Z</time>
      </trkpt>
      <trkpt lat="43.7915" lon="6.99163">
        <ele>807.06</ele>
        <time>2015-05-16T11:44:40Z</time>
      </trkpt>
      <trkpt lat="43.79137" lon="6.99181">
        <ele>808.02</ele>
        <time>2015-05-16T11:44:48Z</time>
      </trkpt>
      <trkpt lat="43.79123" lon="6.99199">
        <ele>810.21</ele>
        <time>2015-05-16T11:44:56Z</time>
      </trkpt>
      <trkpt lat="43.79108" lon="6.99215">
        <ele>812.79</ele>
        <time>2015-05-16T11:45:04Z</time>
      </trkpt>
      <trkpt lat="43.79092" lon="6.99231">
        <ele>816.21</ele>
        <time>2015-05-16T11:45:11Z</time>
      </trkpt>
      <trkpt lat="43.79077" lon="6.9925">
        <ele>819.78</ele>
        <time>2015-05-16T11:45:19Z</time>
      </trkpt>
      <trkpt lat="43.79063" lon="6.99265">
        <ele>823.88</ele>
        <time>2015-05-16T11:45:27Z</time>
      </trkpt>
      <trkpt lat="43.79047" lon="6.99282">
        <ele>827.37</ele>
        <time>2015-05-16T11:45:36Z</time>
      </trkpt>
      <trkpt lat="43.79032" lon="6.993">
        <ele>830.88</ele>
        <time>2015-05-16T11:45:45Z</time>
      </trkpt>
      <trkpt lat="43.79019" lon="6.9932">
        <ele>832.02</ele>
        <time>2015-05-16T11:45:53Z</time>
      </trkpt>
      <trkpt lat="43.79006" lon="6.99337">
        <ele>832.8</ele>
        <time>2015-05-16T11:46:01Z</time>
      </trkpt>
      <trkpt lat="43.78992" lon="6.99355">
        <ele>835.08</ele>
        <time>2015-05-16T11:46:10Z</time>
      </trkpt>
      <trkpt lat="43.78978" lon="6.99374">
        <ele>838.45</ele>
        <time>2015-05-16T11:46:21Z</time>
      </trkpt>
      <trkpt lat="43.78968" lon="6.99395">
        <ele>838.4</ele>
        <time>2015-05-16T11:46:26Z</time>
      </trkpt>
      <trkpt lat="43.78955" lon="6.99414">
        <ele>839.98</ele>
        <time>2015-05-16T11:46:34Z</time>
      </trkpt>
      <trkpt lat="43.78945" lon="6.99436">
        <ele>841.71</ele>
        <time>2015-05-16T11:46:44Z</time>
      </trkpt>
      <trkpt lat="43.78935" lon="6.99459">
        <ele>842.44</ele>
        <time>2015-05-16T11:46:54Z</time>
      </trkpt>
      <trkpt lat="43.78925" lon="6.99481">
        <ele>842.4</ele>
        <time>2015-05-16T11:47:02Z</time>
      </trkpt>
      <trkpt lat="43.78917" lon="6.99503">
        <ele>843.13</ele>
        <time>2015-05-16T11:47:12Z</time>
      </trkpt>
      <trkpt lat="43.78905" lon="6.99524">
        <ele>844.56</ele>
        <time>2015-05-16T11:47:22Z</time>
      </trkpt>
      <trkpt lat="43.78891" lon="6.99543">
        <ele>846.45</ele>
        <time>2015-05-16T11:47:32Z</time>
      </trkpt>
      <trkpt lat="43.78881" lon="6.99566">
        <ele>847.27</ele>
        <time>2015-05-16T11:47:41Z</time>
      </trkpt>
      <trkpt lat="43.78869" lon="6.99587">
        <ele>847.52</ele>
        <time>2015-05-16T11:47:49Z</time>
      </trkpt>
      <trkpt lat="43.78857" lon="6.99612">
        <ele>848.71</ele>
        <time>2015-05-16T11:47:57Z</time>
      </trkpt>
      <trkpt lat="43.78848" lon="6.99637">
        <ele>849.84</ele>
        <time>2015-05-16T11:48:05Z</time>
      </trkpt>
      <trkpt lat="43.78837" lon="6.99658">
        <ele>851.8</ele>
        <time>2015-05-16T11:48:13Z</time>
      </trkpt>
      <trkpt lat="43.78828" lon="6.99681">
        <ele>853.06</ele>
        <time>2015-05-16T11:48:22Z</time>
      </trkpt>
      <trkpt lat="43.78817" lon="6.99703">
        <ele>854.12</ele>
        <time>2015-05-16T11:48:30Z</time>
      </trkpt>
      <trkpt lat="43.78807" lon="6.99726">
        <ele>856.06</ele>
        <time>2015-05-16T11:48:40Z</time>
      </trkpt>
      <trkpt lat="43.78795" lon="6.99748">
        <ele>856.72</ele>
        <time>2015-05-16T11:48:49Z</time>
      </trkpt>
      <trkpt lat="43.78785" lon="6.99769">
        <ele>856.57</ele>
        <time>2015-05-16T11:48:56Z</time>
      </trkpt>
      <trkpt lat="43.78776" lon="6.99794">
        <ele>855.68</ele>
        <time>2015-05-16T11:49:03Z</time>
      </trkpt>
      <trkpt lat="43.78766" lon="6.99818">
        <ele>854.41</ele>
        <time>2015-05-16T11:49:12Z</time>
      </trkpt>
      <trkpt lat="43.78752" lon="6.99839">
        <ele>854.52</ele>
        <time>2015-05-16T11:49:21Z</time>
      </trkpt>
      <trkpt lat="43.78741" lon="6.99859">
        <ele>854.5</ele>
        <time>2015-05-16T11:49:28Z</time>
      </trkpt>
      <trkpt lat="43.78729" lon="6.99878">
        <ele>853.78</ele>
        <time>2015-05-16T11:49:34Z</time>
      </trkpt>
      <trkpt lat="43.78722" lon="6.99903">
        <ele>851.23</ele>
        <time>2015-05-16T11:49:43Z</time>
      </trkpt>
      <trkpt lat="43.78714" lon="6.99927">
        <ele>850.67</ele>
        <time>2015-05-16T11:49:52Z</time>
      </trkpt>
      <trkpt lat="43.78707" lon="6.99953">
        <ele>854.96</ele>
        <time>2015-05-16T11:50:27Z</time>
      </trkpt>
      <trkpt lat="43.78701" lon="6.99978">
        <ele>854.38</ele>
        <time>2015-05-16T11:50:34Z</time>
      </trkpt>
      <trkpt lat="43.78692" lon="7.00002">
        <ele>852.72</ele>
        <time>2015-05-16T11:50:43Z</time>
      </trkpt>
      <trkpt lat="43.7868" lon="7.00022">
        <ele>851.76</ele>
        <time>2015-05-16T11:50:52Z</time>
      </trkpt>
      <trkpt lat="43.78672" lon="7.00046">
        <ele>851.61</ele>
        <time>2015-05-16T11:50:59Z</time>
      </trkpt>
      <trkpt lat="43.78666" lon="7.0007">
        <ele>852.64</ele>
        <time>2015-05-16T11:51:07Z</time>
      </trkpt>
      <trkpt lat="43.78659" lon="7.00096">
        <ele>854.42</ele>
        <time>2015-05-16T11:51:17Z</time>
      </trkpt>
      <trkpt lat="43.78653" lon="7.00124">
        <ele>856.91</ele>
        <time>2015-05-16T11:51:27Z</time>
      </trkpt>
      <trkpt lat="43.78647" lon="7.00149">
        <ele>858.92</ele>
        <time>2015-05-16T11:51:35Z</time>
      </trkpt>
      <trkpt lat="43.78643" lon="7.00176">
        <ele>860.63</ele>
        <time>2015-05-16T11:51:42Z</time>
      </trkpt>
      <trkpt lat="43.78638" lon="7.002">
        <ele>862.22</ele>
        <time>2015-05-16T11:51:50Z</time>
      </trkpt>
      <trkpt lat="43.78633" lon="7.00228">
        <ele>863.83</ele>
        <time>2015-05-16T11:51:58Z</time>
      </trkpt>
      <trkpt lat="43.78629" lon="7.00254">
        <ele>866.21</ele>
        <time>2015-05-16T11:52:06Z</time>
      </trkpt>
      <trkpt lat="43.7862" lon="7.0028">
        <ele>868.92</ele>
        <time>2015-05-16T11:52:16Z</time>
      </trkpt>
      <trkpt lat="43.7862" lon="7.00305">
        <ele>868.99</ele>
        <time>2015-05-16T11:52:21Z</time>
      </trkpt>
      <trkpt lat="43.78621" lon="7.0033">
        <ele>868.9</ele>
        <time>2015-05-16T11:52:26Z</time>
      </trkpt>
      <trkpt lat="43.78621" lon="7.00357">
        <ele>869.24</ele>
        <time>2015-05-16T11:52:31Z</time>
      </trkpt>
      <trkpt lat="43.7862" lon="7.00385">
        <ele>869.15</ele>
        <time>2015-05-16T11:52:38Z</time>
      </trkpt>
      <trkpt lat="43.78618" lon="7.00411">
        <ele>869.06</ele>
        <time>2015-05-16T11:52:45Z</time>
      </trkpt>
      <trkpt lat="43.7862" lon="7.00436">
        <ele>869.58</ele>
        <time>2015-05-16T11:52:51Z</time>
      </trkpt>
      <trkpt lat="43.78622" lon="7.00462">
        <ele>870.26</ele>
        <time>2015-05-16T11:52:58Z</time>
      </trkpt>
      <trkpt lat="43.78622" lon="7.00489">
        <ele>872.03</ele>
        <time>2015-05-16T11:53:06Z</time>
      </trkpt>
      <trkpt lat="43.78622" lon="7.00516">
        <ele>872.39</ele>
        <time>2015-05-16T11:53:14Z</time>
      </trkpt>
      <trkpt lat="43.78621" lon="7.00543">
        <ele>873.69</ele>
        <time>2015-05-16T11:53:22Z</time>
      </trkpt>
      <trkpt lat="43.7862" lon="7.00569">
        <ele>873.55</ele>
        <time>2015-05-16T11:53:30Z</time>
      </trkpt>
      <trkpt lat="43.7862" lon="7.00595">
        <ele>873.51</ele>
        <time>2015-05-16T11:53:38Z</time>
      </trkpt>
      <trkpt lat="43.78619" lon="7.00621">
        <ele>873.74</ele>
        <time>2015-05-16T11:53:46Z</time>
      </trkpt>
      <trkpt lat="43.78616" lon="7.00647">
        <ele>871.06</ele>
        <time>2015-05-16T11:53:56Z</time>
      </trkpt>
      <trkpt lat="43.78615" lon="7.00674">
        <ele>871.21</ele>
        <time>2015-05-16T11:54:04Z</time>
      </trkpt>
      <trkpt lat="43.78613" lon="7.00699">
        <ele>873.58</ele>
        <time>2015-05-16T11:54:12Z</time>
      </trkpt>
      <trkpt lat="43.78611" lon="7.00727">
        <ele>876.39</ele>
        <time>2015-05-16T11:54:21Z</time>
      </trkpt>
      <trkpt lat="43.7861" lon="7.00753">
        <ele>879.31</ele>
        <time>2015-05-16T11:54:30Z</time>
      </trkpt>
      <trkpt lat="43.78616" lon="7.00779">
        <ele>882.1</ele>
        <time>2015-05-16T11:54:37Z</time>
      </trkpt>
      <trkpt lat="43.78618" lon="7.00805">
        <ele>881.28</ele>
        <time>2015-05-16T11:54:44Z</time>
      </trkpt>
      <trkpt lat="43.78619" lon="7.00831">
        <ele>882.75</ele>
        <time>2015-05-16T11:54:51Z</time>
      </trkpt>
      <trkpt lat="43.78618" lon="7.00857">
        <ele>883.46</ele>
        <time>2015-05-16T11:54:58Z</time>
      </trkpt>
      <trkpt lat="43.78613" lon="7.00882">
        <ele>884.27</ele>
        <time>2015-05-16T11:55:05Z</time>
      </trkpt>
      <trkpt lat="43.78608" lon="7.00908">
        <ele>884.54</ele>
        <time>2015-05-16T11:55:13Z</time>
      </trkpt>
      <trkpt lat="43.78606" lon="7.00935">
        <ele>885.65</ele>
        <time>2015-05-16T11:55:21Z</time>
      </trkpt>
      <trkpt lat="43.78608" lon="7.00962">
        <ele>886.35</ele>
        <time>2015-05-16T11:55:30Z</time>
      </trkpt>
      <trkpt lat="43.7861" lon="7.0099">
        <ele>887.61</ele>
        <time>2015-05-16T11:55:38Z</time>
      </trkpt>
      <trkpt lat="43.78613" lon="7.01017">
        <ele>888.19</ele>
        <time>2015-05-16T11:55:46Z</time>
      </trkpt>
      <trkpt lat="43.78616" lon="7.01043">
        <ele>889.08</ele>
        <time>2015-05-16T11:55:54Z</time>
      </trkpt>
      <trkpt lat="43.78619" lon="7.0107">
        <ele>889.84</ele>
        <time>2015-05-16T11:56:02Z</time>
      </trkpt>
      <trkpt lat="43.78621" lon="7.01095">
        <ele>891.13</ele>
        <time>2015-05-16T11:56:10Z</time>
      </trkpt>
      <trkpt lat="43.78624" lon="7.01123">
        <ele>891.11</ele>
        <time>2015-05-16T11:56:19Z</time>
      </trkpt>
      <trkpt lat="43.78628" lon="7.01149">
        <ele>892.2</ele>
        <time>2015-05-16T11:56:27Z</time>
      </trkpt>
      <trkpt lat="43.7863" lon="7.01174">
        <ele>893.41</ele>
        <time>2015-05-16T11:56:35Z</time>
      </trkpt>
      <trkpt lat="43.78633" lon="7.01199">
        <ele>894.5</ele>
        <time>2015-05-16T11:56:43Z</time>
      </trkpt>
      <trkpt lat="43.78633" lon="7.01226">
        <ele>894.93</ele>
        <time>2015-05-16T11:56:51Z</time>
      </trkpt>
      <trkpt lat="43.78632" lon="7.01254">
        <ele>896.54</ele>
        <time>2015-05-16T11:57:00Z</time>
      </trkpt>
      <trkpt lat="43.78629" lon="7.01281">
        <ele>898.96</ele>
        <time>2015-05-16T11:57:09Z</time>
      </trkpt>
      <trkpt lat="43.78626" lon="7.01309">
        <ele>898.99</ele>
        <time>2015-05-16T11:57:18Z</time>
      </trkpt>
      <trkpt lat="43.78625" lon="7.01334">
        <ele>898.54</ele>
        <time>2015-05-16T11:57:27Z</time>
      </trkpt>
      <trkpt lat="43.78624" lon="7.01359">
        <ele>900.02</ele>
        <time>2015-05-16T11:57:36Z</time>
      </trkpt>
      <trkpt lat="43.78622" lon="7.01385">
        <ele>901.82</ele>
        <time>2015-05-16T11:57:46Z</time>
      </trkpt>
      <trkpt lat="43.78624" lon="7.01411">
        <ele>902.64</ele>
        <time>2015-05-16T11:57:56Z</time>
      </trkpt>
      <trkpt lat="43.78624" lon="7.01438">
        <ele>903.9</ele>
        <time>2015-05-16T11:58:06Z</time>
      </trkpt>
      <trkpt lat="43.78625" lon="7.01465">
        <ele>905.89</ele>
        <time>2015-05-16T11:58:14Z</time>
      </trkpt>
      <trkpt lat="43.78623" lon="7.01493">
        <ele>908.08</ele>
        <time>2015-05-16T11:58:27Z</time>
      </trkpt>
      <trkpt lat="43.78616" lon="7.01517">
        <ele>909.32</ele>
        <time>2015-05-16T11:58:35Z</time>
      </trkpt>
      <trkpt lat="43.78613" lon="7.01542">
        <ele>910.28</ele>
        <time>2015-05-16T11:58:42Z</time>
      </trkpt>
      <trkpt lat="43.78614" lon="7.01568">
        <ele>910.86</ele>
        <time>2015-05-16T11:58:49Z</time>
      </trkpt>
      <trkpt lat="43.78617" lon="7.01595">
        <ele>911.56</ele>
        <time>2015-05-16T11:58:56Z</time>
      </trkpt>
      <trkpt lat="43.7862" lon="7.0162">
        <ele>912.4</ele>
        <time>2015-05-16T11:59:03Z</time>
      </trkpt>
      <trkpt lat="43.78621" lon="7.01648">
        <ele>914.65</ele>
        <time>2015-05-16T11:59:12Z</time>
      </trkpt>
      <trkpt lat="43.78617" lon="7.01675">
        <ele>915.74</ele>
        <time>2015-05-16T11:59:21Z</time>
      </trkpt>
      <trkpt lat="43.78616" lon="7.017">
        <ele>916.09</ele>
        <time>2015-05-16T11:59:29Z</time>
      </trkpt>
      <trkpt lat="43.78616" lon="7.01726">
        <ele>917.6</ele>
        <time>2015-05-16T11:59:37Z</time>
      </trkpt>
      <trkpt lat="43.78615" lon="7.01753">
        <ele>918.55</ele>
        <time>2015-05-16T11:59:44Z</time>
      </trkpt>
      <trkpt lat="43.78612" lon="7.0178">
        <ele>918.83</ele>
        <time>2015-05-16T11:59:53Z</time>
      </trkpt>
      <trkpt lat="43.78611" lon="7.01809">
        <ele>919.66</ele>
        <time>2015-05-16T12:00:01Z</time>
      </trkpt>
      <trkpt lat="43.7861" lon="7.01834">
        <ele>920.25</ele>
        <time>2015-05-16T12:00:08Z</time>
      </trkpt>
      <trkpt lat="43.78605" lon="7.0186">
        <ele>919.37</ele>
        <time>2015-05-16T12:00:16Z</time>
      </trkpt>
      <trkpt lat="43.78601" lon="7.01887">
        <ele>918.24</ele>
        <time>2015-05-16T12:00:26Z</time>
      </trkpt>
      <trkpt lat="43.78597" lon="7.01912">
        <ele>917.17</ele>
        <time>2015-05-16T12:00:36Z</time>
      </trkpt>
      <trkpt lat="43.78591" lon="7.01939">
        <ele>915.12</ele>
        <time>2015-05-16T12:00:45Z</time>
      </trkpt>
      <trkpt lat="43.7859" lon="7.01965">
        <ele>913.98</ele>
        <time>2015-05-16T12:00:51Z</time>
      </trkpt>
      <trkpt lat="43.78588" lon="7.01992">
        <ele>913.2</ele>
        <time>2015-05-16T12:00:58Z</time>
      </trkpt>
      <trkpt lat="43.78585" lon="7.02017">
        <ele>913.01</ele>
        <time>2015-05-16T12:01:05Z</time>
      </trkpt>
      <trkpt lat="43.78581" lon="7.02043">
        <ele>913.3</ele>
        <time>2015-05-16T12:01:13Z</time>
      </trkpt>
      <trkpt lat="43.78581" lon="7.02068">
        <ele>913.22</ele>
        <time>2015-05-16T12:01:18Z</time>
      </trkpt>
      <trkpt lat="43.78578" lon="7.02095">
        <ele>913.44</ele>
        <time>2015-05-16T12:01:25Z</time>
      </trkpt>
      <trkpt lat="43.78581" lon="7.02123">
        <ele>912.82</ele>
        <time>2015-05-16T12:01:31Z</time>
      </trkpt>
      <trkpt lat="43.78584" lon="7.02149">
        <ele>914.23</ele>
        <time>2015-05-16T12:01:37Z</time>
      </trkpt>
      <trkpt lat="43.78584" lon="7.02174">
        <ele>917.1</ele>
        <time>2015-05-16T12:01:42Z</time>
      </trkpt>
      <trkpt lat="43.78586" lon="7.02203">
        <ele>917.44</ele>
        <time>2015-05-16T12:01:48Z</time>
      </trkpt>
      <trkpt lat="43.7859" lon="7.0223">
        <ele>917.28</ele>
        <time>2015-05-16T12:01:53Z</time>
      </trkpt>
      <trkpt lat="43.78595" lon="7.02255">
        <ele>917.88</ele>
        <time>2015-05-16T12:01:58Z</time>
      </trkpt>
      <trkpt lat="43.78597" lon="7.02284">
        <ele>918.41</ele>
        <time>2015-05-16T12:02:04Z</time>
      </trkpt>
      <trkpt lat="43.78601" lon="7.0231">
        <ele>918.86</ele>
        <time>2015-05-16T12:02:09Z</time>
      </trkpt>
      <trkpt lat="43.78605" lon="7.02338">
        <ele>919.53</ele>
        <time>2015-05-16T12:02:14Z</time>
      </trkpt>
      <trkpt lat="43.78611" lon="7.02364">
        <ele>919.22</ele>
        <time>2015-05-16T12:02:19Z</time>
      </trkpt>
      <trkpt lat="43.78615" lon="7.02389">
        <ele>921.51</ele>
        <time>2015-05-16T12:02:23Z</time>
      </trkpt>
      <trkpt lat="43.78619" lon="7.02416">
        <ele>924.91</ele>
        <time>2015-05-16T12:02:28Z</time>
      </trkpt>
      <trkpt lat="43.78625" lon="7.02441">
        <ele>926.23</ele>
        <time>2015-05-16T12:02:33Z</time>
      </trkpt>
      <trkpt lat="43.78632" lon="7.02467">
        <ele>925.86</ele>
        <time>2015-05-16T12:02:38Z</time>
      </trkpt>
      <trkpt lat="43.78639" lon="7.02491">
        <ele>924.99</ele>
        <time>2015-05-16T12:02:42Z</time>
      </trkpt>
      <trkpt lat="43.78645" lon="7.02515">
        <ele>925.42</ele>
        <time>2015-05-16T12:02:46Z</time>
      </trkpt>
      <trkpt lat="43.7865" lon="7.02539">
        <ele>925.78</ele>
        <time>2015-05-16T12:02:50Z</time>
      </trkpt>
      <trkpt lat="43.78658" lon="7.02568">
        <ele>925.32</ele>
        <time>2015-05-16T12:02:55Z</time>
      </trkpt>
      <trkpt lat="43.78664" lon="7.02591">
        <ele>925.41</ele>
        <time>2015-05-16T12:02:59Z</time>
      </trkpt>
      <trkpt lat="43.78671" lon="7.02617">
        <ele>924.13</ele>
        <time>2015-05-16T12:03:04Z</time>
      </trkpt>
      <trkpt lat="43.78678" lon="7.02641">
        <ele>922.68</ele>
        <time>2015-05-16T12:03:09Z</time>
      </trkpt>
      <trkpt lat="43.7868" lon="7.02668">
        <ele>922.83</ele>
        <time>2015-05-16T12:06:07Z</time>
      </trkpt>
      <trkpt lat="43.7869" lon="7.02691">
        <ele>925.43</ele>
        <time>2015-05-16T12:06:14Z</time>
      </trkpt>
      <trkpt lat="43.78697" lon="7.02719">
        <ele>926.34</ele>
        <time>2015-05-16T12:06:19Z</time>
      </trkpt>
      <trkpt lat="43.78703" lon="7.02742">
        <ele>927.19</ele>
        <time>2015-05-16T12:06:23Z</time>
      </trkpt>
      <trkpt lat="43.7871" lon="7.0277">
        <ele>928.12</ele>
        <time>2015-05-16T12:06:28Z</time>
      </trkpt>
      <trkpt lat="43.78716" lon="7.02795">
        <ele>928.9</ele>
        <time>2015-05-16T12:06:33Z</time>
      </trkpt>
      <trkpt lat="43.78723" lon="7.02823">
        <ele>928.29</ele>
        <time>2015-05-16T12:06:38Z</time>
      </trkpt>
      <trkpt lat="43.7873" lon="7.02849">
        <ele>928.79</ele>
        <time>2015-05-16T12:06:43Z</time>
      </trkpt>
      <trkpt lat="43.78732" lon="7.02878">
        <ele>928.56</ele>
        <time>2015-05-16T12:06:48Z</time>
      </trkpt>
      <trkpt lat="43.78736" lon="7.02906">
        <ele>928.09</ele>
        <time>2015-05-16T12:06:53Z</time>
      </trkpt>
      <trkpt lat="43.78742" lon="7.02932">
        <ele>928.22</ele>
        <time>2015-05-16T12:06:58Z</time>
      </trkpt>
      <trkpt lat="43.7875" lon="7.02956">
        <ele>929.25</ele>
        <time>2015-05-16T12:07:03Z</time>
      </trkpt>
      <trkpt lat="43.78759" lon="7.0298">
        <ele>929.51</ele>
        <time>2015-05-16T12:07:08Z</time>
      </trkpt>
      <trkpt lat="43.78768" lon="7.03003">
        <ele>931.11</ele>
        <time>2015-05-16T12:07:13Z</time>
      </trkpt>
      <trkpt lat="43.78775" lon="7.03027">
        <ele>931.81</ele>
        <time>2015-05-16T12:07:18Z</time>
      </trkpt>
      <trkpt lat="43.78784" lon="7.03049">
        <ele>932.51</ele>
        <time>2015-05-16T12:07:23Z</time>
      </trkpt>
      <trkpt lat="43.78793" lon="7.03072">
        <ele>933.27</ele>
        <time>2015-05-16T12:07:28Z</time>
      </trkpt>
      <trkpt lat="43.78802" lon="7.03096">
        <ele>934.41</ele>
        <time>2015-05-16T12:07:33Z</time>
      </trkpt>
      <trkpt lat="43.78811" lon="7.03118">
        <ele>934.82</ele>
        <time>2015-05-16T12:07:37Z</time>
      </trkpt>
      <trkpt lat="43.78819" lon="7.03141">
        <ele>935.04</ele>
        <time>2015-05-16T12:07:41Z</time>
      </trkpt>
      <trkpt lat="43.78825" lon="7.03165">
        <ele>933.3</ele>
        <time>2015-05-16T12:07:45Z</time>
      </trkpt>
      <trkpt lat="43.7883" lon="7.03195">
        <ele>932.07</ele>
        <time>2015-05-16T12:07:50Z</time>
      </trkpt>
      <trkpt lat="43.78834" lon="7.03221">
        <ele>931.98</ele>
        <time>2015-05-16T12:07:54Z</time>
      </trkpt>
      <trkpt lat="43.78838" lon="7.03248">
        <ele>930.58</ele>
        <time>2015-05-16T12:07:59Z</time>
      </trkpt>
      <trkpt lat="43.78845" lon="7.03274">
        <ele>927.93</ele>
        <time>2015-05-16T12:08:29Z</time>
      </trkpt>
      <trkpt lat="43.78857" lon="7.03295">
        <ele>927.68</ele>
        <time>2015-05-16T12:08:34Z</time>
      </trkpt>
      <trkpt lat="43.78873" lon="7.03309">
        <ele>927.09</ele>
        <time>2015-05-16T12:08:38Z</time>
      </trkpt>
      <trkpt lat="43.78891" lon="7.03317">
        <ele>925.7</ele>
        <time>2015-05-16T12:08:43Z</time>
      </trkpt>
      <trkpt lat="43.78872" lon="7.03306">
        <ele>926.84</ele>
        <time>2015-05-16T12:08:50Z</time>
      </trkpt>
      <trkpt lat="43.78858" lon="7.03321">
        <ele>928.09</ele>
        <time>2015-05-16T12:08:58Z</time>
      </trkpt>
      <trkpt lat="43.78863" lon="7.03345">
        <ele>928.72</ele>
        <time>2015-05-16T12:09:03Z</time>
      </trkpt>
      <trkpt lat="43.78867" lon="7.03371">
        <ele>928.91</ele>
        <time>2015-05-16T12:09:08Z</time>
      </trkpt>
      <trkpt lat="43.7886" lon="7.03398">
        <ele>930.29</ele>
        <time>2015-05-16T12:09:14Z</time>
      </trkpt>
      <trkpt lat="43.78849" lon="7.03423">
        <ele>930.28</ele>
        <time>2015-05-16T12:09:20Z</time>
      </trkpt>
      <trkpt lat="43.78831" lon="7.03428">
        <ele>928.1</ele>
        <time>2015-05-16T12:09:31Z</time>
      </trkpt>
      <trkpt lat="43.78813" lon="7.03417">
        <ele>926.78</ele>
        <time>2015-05-16T12:10:37Z</time>
      </trkpt>
      <trkpt lat="43.78795" lon="7.03408">
        <ele>928.14</ele>
        <time>2015-05-16T12:10:46Z</time>
      </trkpt>
      <trkpt lat="43.78778" lon="7.03395">
        <ele>929.11</ele>
        <time>2015-05-16T12:10:56Z</time>
      </trkpt>
      <trkpt lat="43.7876" lon="7.03385">
        <ele>930.59</ele>
        <time>2015-05-16T12:11:08Z</time>
      </trkpt>
      <trkpt lat="43.78744" lon="7.03374">
        <ele>931.65</ele>
        <time>2015-05-16T12:11:20Z</time>
      </trkpt>
      <trkpt lat="43.78727" lon="7.03363">
        <ele>931.74</ele>
        <time>2015-05-16T12:11:31Z</time>
      </trkpt>
      <trkpt lat="43.78709" lon="7.03353">
        <ele>931.82</ele>
        <time>2015-05-16T12:11:42Z</time>
      </trkpt>
      <trkpt lat="43.78691" lon="7.03346">
        <ele>932.88</ele>
        <time>2015-05-16T12:11:52Z</time>
      </trkpt>
      <trkpt lat="43.78674" lon="7.03339">
        <ele>934.56</ele>
        <time>2015-05-16T12:12:02Z</time>
      </trkpt>
      <trkpt lat="43.7866" lon="7.03356">
        <ele>935.54</ele>
        <time>2015-05-16T12:13:03Z</time>
      </trkpt>
      <trkpt lat="43.78649" lon="7.03377">
        <ele>935.69</ele>
        <time>2015-05-16T12:13:15Z</time>
      </trkpt>
      <trkpt lat="43.78635" lon="7.03393">
        <ele>936.76</ele>
        <time>2015-05-16T12:13:30Z</time>
      </trkpt>
      <trkpt lat="43.78619" lon="7.03406">
        <ele>938.06</ele>
        <time>2015-05-16T12:13:47Z</time>
      </trkpt>
      <trkpt lat="43.78605" lon="7.03423">
        <ele>939</ele>
        <time>2015-05-16T12:14:04Z</time>
      </trkpt>
      <trkpt lat="43.78591" lon="7.03442">
        <ele>940.4</ele>
        <time>2015-05-16T12:14:20Z</time>
      </trkpt>
      <trkpt lat="43.78573" lon="7.03449">
        <ele>943.38</ele>
        <time>2015-05-16T12:14:44Z</time>
      </trkpt>
      <trkpt lat="43.78555" lon="7.03449">
        <ele>944.09</ele>
        <time>2015-05-16T12:15:05Z</time>
      </trkpt>
      <trkpt lat="43.78536" lon="7.03449">
        <ele>946.88</ele>
        <time>2015-05-16T12:15:37Z</time>
      </trkpt>
      <trkpt lat="43.78518" lon="7.03448">
        <ele>948.19</ele>
        <time>2015-05-16T12:15:58Z</time>
      </trkpt>
      <trkpt lat="43.78499" lon="7.03448">
        <ele>952.25</ele>
        <time>2015-05-16T12:16:28Z</time>
      </trkpt>
      <trkpt lat="43.7848" lon="7.0345">
        <ele>954.85</ele>
        <time>2015-05-16T12:16:50Z</time>
      </trkpt>
      <trkpt lat="43.78461" lon="7.0345">
        <ele>958.24</ele>
        <time>2015-05-16T12:17:14Z</time>
      </trkpt>
      <trkpt lat="43.78445" lon="7.03436">
        <ele>963.88</ele>
        <time>2015-05-16T12:17:46Z</time>
      </trkpt>
      <trkpt lat="43.7843" lon="7.03423">
        <ele>969.88</ele>
        <time>2015-05-16T12:18:17Z</time>
      </trkpt>
      <trkpt lat="43.78412" lon="7.03424">
        <ele>974.36</ele>
        <time>2015-05-16T12:18:46Z</time>
      </trkpt>
      <trkpt lat="43.784" lon="7.03405">
        <ele>977.04</ele>
        <time>2015-05-16T12:19:23Z</time>
      </trkpt>
      <trkpt lat="43.78383" lon="7.03397">
        <ele>978.49</ele>
        <time>2015-05-16T12:19:40Z</time>
      </trkpt>
      <trkpt lat="43.78368" lon="7.03382">
        <ele>980.49</ele>
        <time>2015-05-16T12:19:58Z</time>
      </trkpt>
      <trkpt lat="43.78352" lon="7.03369">
        <ele>982.28</ele>
        <time>2015-05-16T12:20:14Z</time>
      </trkpt>
      <trkpt lat="43.78335" lon="7.03358">
        <ele>984.38</ele>
        <time>2015-05-16T12:20:34Z</time>
      </trkpt>
      <trkpt lat="43.7832" lon="7.03344">
        <ele>987.62</ele>
        <time>2015-05-16T12:20:55Z</time>
      </trkpt>
      <trkpt lat="43.78317" lon="7.03319">
        <ele>990.85</ele>
        <time>2015-05-16T12:21:16Z</time>
      </trkpt>
      <trkpt lat="43.7831" lon="7.03295">
        <ele>994.57</ele>
        <time>2015-05-16T12:21:40Z</time>
      </trkpt>
      <trkpt lat="43.78296" lon="7.03279">
        <ele>997.97</ele>
        <time>2015-05-16T12:22:05Z</time>
      </trkpt>
      <trkpt lat="43.78286" lon="7.03258">
        <ele>1001.62</ele>
        <time>2015-05-16T12:22:28Z</time>
      </trkpt>
      <trkpt lat="43.78278" lon="7.03236">
        <ele>1004.57</ele>
        <time>2015-05-16T12:22:48Z</time>
      </trkpt>
      <trkpt lat="43.78262" lon="7.03219">
        <ele>1006.63</ele>
        <time>2015-05-16T12:23:16Z</time>
      </trkpt>
      <trkpt lat="43.78244" lon="7.03211">
        <ele>1005.35</ele>
        <time>2015-05-16T12:23:32Z</time>
      </trkpt>
      <trkpt lat="43.78226" lon="7.03202">
        <ele>1005.89</ele>
        <time>2015-05-16T12:23:51Z</time>
      </trkpt>
      <trkpt lat="43.78211" lon="7.03188">
        <ele>1004.41</ele>
        <time>2015-05-16T12:24:07Z</time>
      </trkpt>
      <trkpt lat="43.78203" lon="7.03164">
        <ele>1006.09</ele>
        <time>2015-05-16T12:24:29Z</time>
      </trkpt>
      <trkpt lat="43.78197" lon="7.0314">
        <ele>1006.44</ele>
        <time>2015-05-16T12:24:45Z</time>
      </trkpt>
      <trkpt lat="43.78188" lon="7.03119">
        <ele>1007.43</ele>
        <time>2015-05-16T12:25:00Z</time>
      </trkpt>
      <trkpt lat="43.78175" lon="7.03101">
        <ele>1012.2</ele>
        <time>2015-05-16T12:25:20Z</time>
      </trkpt>
      <trkpt lat="43.78158" lon="7.03087">
        <ele>1016.43</ele>
        <time>2015-05-16T12:26:12Z</time>
      </trkpt>
      <trkpt lat="43.78143" lon="7.03072">
        <ele>1018.35</ele>
        <time>2015-05-16T12:26:32Z</time>
      </trkpt>
      <trkpt lat="43.78126" lon="7.03066">
        <ele>1020.62</ele>
        <time>2015-05-16T12:26:56Z</time>
      </trkpt>
      <trkpt lat="43.78109" lon="7.03057">
        <ele>1022.62</ele>
        <time>2015-05-16T12:27:46Z</time>
      </trkpt>
      <trkpt lat="43.78095" lon="7.03039">
        <ele>1024.39</ele>
        <time>2015-05-16T12:28:08Z</time>
      </trkpt>
      <trkpt lat="43.78082" lon="7.03021">
        <ele>1026.78</ele>
        <time>2015-05-16T12:28:28Z</time>
      </trkpt>
      <trkpt lat="43.78069" lon="7.03003">
        <ele>1030.26</ele>
        <time>2015-05-16T12:28:52Z</time>
      </trkpt>
      <trkpt lat="43.78054" lon="7.02987">
        <ele>1032.78</ele>
        <time>2015-05-16T12:29:09Z</time>
      </trkpt>
      <trkpt lat="43.78044" lon="7.02966">
        <ele>1035.1</ele>
        <time>2015-05-16T12:29:26Z</time>
      </trkpt>
      <trkpt lat="43.78035" lon="7.02943">
        <ele>1037.59</ele>
        <time>2015-05-16T12:29:44Z</time>
      </trkpt>
      <trkpt lat="43.7802" lon="7.02929">
        <ele>1040.18</ele>
        <time>2015-05-16T12:30:18Z</time>
      </trkpt>
      <trkpt lat="43.78003" lon="7.0292">
        <ele>1042.08</ele>
        <time>2015-05-16T12:30:43Z</time>
      </trkpt>
      <trkpt lat="43.77989" lon="7.02903">
        <ele>1045.18</ele>
        <time>2015-05-16T12:31:09Z</time>
      </trkpt>
      <trkpt lat="43.77976" lon="7.02886">
        <ele>1048.47</ele>
        <time>2015-05-16T12:31:32Z</time>
      </trkpt>
      <trkpt lat="43.77964" lon="7.02866">
        <ele>1051.93</ele>
        <time>2015-05-16T12:32:00Z</time>
      </trkpt>
      <trkpt lat="43.77947" lon="7.02872">
        <ele>1054.03</ele>
        <time>2015-05-16T12:32:50Z</time>
      </trkpt>
      <trkpt lat="43.77928" lon="7.02872">
        <ele>1057.38</ele>
        <time>2015-05-16T12:33:25Z</time>
      </trkpt>
      <trkpt lat="43.77912" lon="7.02858">
        <ele>1059.73</ele>
        <time>2015-05-16T12:33:46Z</time>
      </trkpt>
      <trkpt lat="43.77899" lon="7.02841">
        <ele>1063.21</ele>
        <time>2015-05-16T12:34:14Z</time>
      </trkpt>
      <trkpt lat="43.77888" lon="7.0282">
        <ele>1068.33</ele>
        <time>2015-05-16T12:34:46Z</time>
      </trkpt>
      <trkpt lat="43.77876" lon="7.028">
        <ele>1072.04</ele>
        <time>2015-05-16T12:35:08Z</time>
      </trkpt>
      <trkpt lat="43.7786" lon="7.02788">
        <ele>1075.09</ele>
        <time>2015-05-16T12:35:28Z</time>
      </trkpt>
      <trkpt lat="43.77843" lon="7.02777">
        <ele>1078.91</ele>
        <time>2015-05-16T12:35:48Z</time>
      </trkpt>
      <trkpt lat="43.77827" lon="7.0276">
        <ele>1080.75</ele>
        <time>2015-05-16T12:36:04Z</time>
      </trkpt>
      <trkpt lat="43.77809" lon="7.02752">
        <ele>1082.98</ele>
        <time>2015-05-16T12:36:21Z</time>
      </trkpt>
      <trkpt lat="43.7779" lon="7.02749">
        <ele>1085.07</ele>
        <time>2015-05-16T12:36:39Z</time>
      </trkpt>
      <trkpt lat="43.77772" lon="7.02752">
        <ele>1088.05</ele>
        <time>2015-05-16T12:36:59Z</time>
      </trkpt>
      <trkpt lat="43.77754" lon="7.02757">
        <ele>1091.97</ele>
        <time>2015-05-16T12:37:27Z</time>
      </trkpt>
      <trkpt lat="43.77736" lon="7.02759">
        <ele>1094.52</ele>
        <time>2015-05-16T12:37:47Z</time>
      </trkpt>
      <trkpt lat="43.77717" lon="7.02761">
        <ele>1096.08</ele>
        <time>2015-05-16T12:38:00Z</time>
      </trkpt>
      <trkpt lat="43.77704" lon="7.02744">
        <ele>1094.22</ele>
        <time>2015-05-16T12:38:36Z</time>
      </trkpt>
      <trkpt lat="43.77707" lon="7.02769">
        <ele>1085.44</ele>
        <time>2015-05-16T12:52:00Z</time>
      </trkpt>
      <trkpt lat="43.77689" lon="7.02777">
        <ele>1086.25</ele>
        <time>2015-05-16T12:52:10Z</time>
      </trkpt>
      <trkpt lat="43.7767" lon="7.02784">
        <ele>1085.51</ele>
        <time>2015-05-16T12:52:17Z</time>
      </trkpt>
      <trkpt lat="43.77651" lon="7.0278">
        <ele>1084.94</ele>
        <time>2015-05-16T12:52:24Z</time>
      </trkpt>
      <trkpt lat="43.77631" lon="7.02773">
        <ele>1084.79</ele>
        <time>2015-05-16T12:52:33Z</time>
      </trkpt>
      <trkpt lat="43.77612" lon="7.0277">
        <ele>1082.65</ele>
        <time>2015-05-16T12:52:41Z</time>
      </trkpt>
      <trkpt lat="43.77595" lon="7.02762">
        <ele>1082.86</ele>
        <time>2015-05-16T12:52:48Z</time>
      </trkpt>
      <trkpt lat="43.77577" lon="7.02751">
        <ele>1084.08</ele>
        <time>2015-05-16T12:52:54Z</time>
      </trkpt>
      <trkpt lat="43.77559" lon="7.02736">
        <ele>1085.18</ele>
        <time>2015-05-16T12:53:00Z</time>
      </trkpt>
      <trkpt lat="43.77544" lon="7.02719">
        <ele>1087.8</ele>
        <time>2015-05-16T12:53:07Z</time>
      </trkpt>
      <trkpt lat="43.77525" lon="7.02706">
        <ele>1087.68</ele>
        <time>2015-05-16T12:53:15Z</time>
      </trkpt>
      <trkpt lat="43.77508" lon="7.02696">
        <ele>1084.06</ele>
        <time>2015-05-16T12:53:21Z</time>
      </trkpt>
      <trkpt lat="43.77492" lon="7.0268">
        <ele>1079.84</ele>
        <time>2015-05-16T12:53:28Z</time>
      </trkpt>
      <trkpt lat="43.77478" lon="7.02663">
        <ele>1078.12</ele>
        <time>2015-05-16T12:53:35Z</time>
      </trkpt>
      <trkpt lat="43.77462" lon="7.02647">
        <ele>1075.02</ele>
        <time>2015-05-16T12:53:43Z</time>
      </trkpt>
      <trkpt lat="43.77446" lon="7.0263">
        <ele>1069.93</ele>
        <time>2015-05-16T12:53:52Z</time>
      </trkpt>
      <trkpt lat="43.7743" lon="7.02616">
        <ele>1065.94</ele>
        <time>2015-05-16T12:54:00Z</time>
      </trkpt>
      <trkpt lat="43.77412" lon="7.02608">
        <ele>1062.07</ele>
        <time>2015-05-16T12:54:06Z</time>
      </trkpt>
      <trkpt lat="43.77393" lon="7.02612">
        <ele>1058.94</ele>
        <time>2015-05-16T12:54:12Z</time>
      </trkpt>
      <trkpt lat="43.77374" lon="7.0262">
        <ele>1056.05</ele>
        <time>2015-05-16T12:54:18Z</time>
      </trkpt>
      <trkpt lat="43.77355" lon="7.02633">
        <ele>1052.63</ele>
        <time>2015-05-16T12:54:24Z</time>
      </trkpt>
      <trkpt lat="43.77338" lon="7.02644">
        <ele>1050.72</ele>
        <time>2015-05-16T12:54:29Z</time>
      </trkpt>
      <trkpt lat="43.77321" lon="7.02653">
        <ele>1047.82</ele>
        <time>2015-05-16T12:54:35Z</time>
      </trkpt>
      <trkpt lat="43.77301" lon="7.02663">
        <ele>1045.87</ele>
        <time>2015-05-16T12:54:41Z</time>
      </trkpt>
      <trkpt lat="43.77283" lon="7.02671">
        <ele>1045.27</ele>
        <time>2015-05-16T12:54:45Z</time>
      </trkpt>
      <trkpt lat="43.77263" lon="7.0268">
        <ele>1044.58</ele>
        <time>2015-05-16T12:54:50Z</time>
      </trkpt>
      <trkpt lat="43.77244" lon="7.0269">
        <ele>1044.07</ele>
        <time>2015-05-16T12:54:56Z</time>
      </trkpt>
      <trkpt lat="43.77225" lon="7.02698">
        <ele>1040.43</ele>
        <time>2015-05-16T12:55:06Z</time>
      </trkpt>
      <trkpt lat="43.77208" lon="7.02708">
        <ele>1038.12</ele>
        <time>2015-05-16T12:55:16Z</time>
      </trkpt>
      <trkpt lat="43.77198" lon="7.0273">
        <ele>1036.46</ele>
        <time>2015-05-16T12:55:25Z</time>
      </trkpt>
      <trkpt lat="43.77192" lon="7.02756">
        <ele>1034.43</ele>
        <time>2015-05-16T12:55:33Z</time>
      </trkpt>
      <trkpt lat="43.77181" lon="7.02779">
        <ele>1032.41</ele>
        <time>2015-05-16T12:55:40Z</time>
      </trkpt>
      <trkpt lat="43.77169" lon="7.02799">
        <ele>1030.29</ele>
        <time>2015-05-16T12:55:47Z</time>
      </trkpt>
      <trkpt lat="43.77156" lon="7.02817">
        <ele>1028.33</ele>
        <time>2015-05-16T12:55:54Z</time>
      </trkpt>
      <trkpt lat="43.77142" lon="7.02837">
        <ele>1026.36</ele>
        <time>2015-05-16T12:56:00Z</time>
      </trkpt>
      <trkpt lat="43.77129" lon="7.02854">
        <ele>1023.79</ele>
        <time>2015-05-16T12:56:06Z</time>
      </trkpt>
      <trkpt lat="43.77112" lon="7.02871">
        <ele>1021.89</ele>
        <time>2015-05-16T12:56:13Z</time>
      </trkpt>
      <trkpt lat="43.77099" lon="7.02888">
        <ele>1020.41</ele>
        <time>2015-05-16T12:56:19Z</time>
      </trkpt>
      <trkpt lat="43.77085" lon="7.02907">
        <ele>1017.84</ele>
        <time>2015-05-16T12:56:27Z</time>
      </trkpt>
      <trkpt lat="43.77073" lon="7.02889">
        <ele>1017.45</ele>
        <time>2015-05-16T12:56:40Z</time>
      </trkpt>
      <trkpt lat="43.77071" lon="7.02862">
        <ele>1015.78</ele>
        <time>2015-05-16T12:56:48Z</time>
      </trkpt>
      <trkpt lat="43.77066" lon="7.02837">
        <ele>1010.71</ele>
        <time>2015-05-16T12:56:56Z</time>
      </trkpt>
      <trkpt lat="43.77047" lon="7.02841">
        <ele>1006.23</ele>
        <time>2015-05-16T12:57:03Z</time>
      </trkpt>
      <trkpt lat="43.77033" lon="7.02858">
        <ele>1002.72</ele>
        <time>2015-05-16T12:57:10Z</time>
      </trkpt>
      <trkpt lat="43.77016" lon="7.02867">
        <ele>999.36</ele>
        <time>2015-05-16T12:57:20Z</time>
      </trkpt>
      <trkpt lat="43.77017" lon="7.0284">
        <ele>998.4</ele>
        <time>2015-05-16T12:57:28Z</time>
      </trkpt>
      <trkpt lat="43.7702" lon="7.02814">
        <ele>997.09</ele>
        <time>2015-05-16T12:57:35Z</time>
      </trkpt>
      <trkpt lat="43.77025" lon="7.02789">
        <ele>995.41</ele>
        <time>2015-05-16T12:57:43Z</time>
      </trkpt>
      <trkpt lat="43.77007" lon="7.02793">
        <ele>992.76</ele>
        <time>2015-05-16T12:57:53Z</time>
      </trkpt>
      <trkpt lat="43.76995" lon="7.02772">
        <ele>990.12</ele>
        <time>2015-05-16T12:58:07Z</time>
      </trkpt>
      <trkpt lat="43.77" lon="7.02746">
        <ele>988.95</ele>
        <time>2015-05-16T12:58:14Z</time>
      </trkpt>
      <trkpt lat="43.76992" lon="7.02722">
        <ele>987.28</ele>
        <time>2015-05-16T12:58:22Z</time>
      </trkpt>
      <trkpt lat="43.76974" lon="7.0272">
        <ele>983.44</ele>
        <time>2015-05-16T12:58:31Z</time>
      </trkpt>
      <trkpt lat="43.76956" lon="7.02714">
        <ele>979.84</ele>
        <time>2015-05-16T12:58:38Z</time>
      </trkpt>
      <trkpt lat="43.76937" lon="7.02712">
        <ele>977.36</ele>
        <time>2015-05-16T12:58:44Z</time>
      </trkpt>
      <trkpt lat="43.76918" lon="7.02705">
        <ele>975.87</ele>
        <time>2015-05-16T12:58:50Z</time>
      </trkpt>
      <trkpt lat="43.76898" lon="7.02702">
        <ele>974.14</ele>
        <time>2015-05-16T12:58:56Z</time>
      </trkpt>
      <trkpt lat="43.76879" lon="7.027">
        <ele>971.48</ele>
        <time>2015-05-16T12:59:03Z</time>
      </trkpt>
      <trkpt lat="43.76861" lon="7.02692">
        <ele>970.69</ele>
        <time>2015-05-16T12:59:11Z</time>
      </trkpt>
      <trkpt lat="43.76841" lon="7.02688">
        <ele>968.94</ele>
        <time>2015-05-16T12:59:23Z</time>
      </trkpt>
      <trkpt lat="43.76825" lon="7.02679">
        <ele>967.69</ele>
        <time>2015-05-16T12:59:28Z</time>
      </trkpt>
      <trkpt lat="43.76808" lon="7.02669">
        <ele>967.27</ele>
        <time>2015-05-16T12:59:32Z</time>
      </trkpt>
      <trkpt lat="43.76788" lon="7.02655">
        <ele>967.14</ele>
        <time>2015-05-16T12:59:37Z</time>
      </trkpt>
      <trkpt lat="43.76769" lon="7.02639">
        <ele>966.84</ele>
        <time>2015-05-16T12:59:42Z</time>
      </trkpt>
      <trkpt lat="43.76752" lon="7.02628">
        <ele>966.55</ele>
        <time>2015-05-16T12:59:47Z</time>
      </trkpt>
      <trkpt lat="43.76734" lon="7.02614">
        <ele>966.87</ele>
        <time>2015-05-16T12:59:53Z</time>
      </trkpt>
      <trkpt lat="43.76718" lon="7.02601">
        <ele>966.63</ele>
        <time>2015-05-16T12:59:59Z</time>
      </trkpt>
      <trkpt lat="43.76701" lon="7.02591">
        <ele>966.03</ele>
        <time>2015-05-16T13:00:05Z</time>
      </trkpt>
      <trkpt lat="43.76685" lon="7.02578">
        <ele>966.23</ele>
        <time>2015-05-16T13:00:11Z</time>
      </trkpt>
      <trkpt lat="43.76668" lon="7.02564">
        <ele>965.97</ele>
        <time>2015-05-16T13:00:18Z</time>
      </trkpt>
      <trkpt lat="43.7665" lon="7.02551">
        <ele>965.06</ele>
        <time>2015-05-16T13:00:24Z</time>
      </trkpt>
      <trkpt lat="43.76632" lon="7.02538">
        <ele>964.33</ele>
        <time>2015-05-16T13:00:30Z</time>
      </trkpt>
      <trkpt lat="43.76614" lon="7.02526">
        <ele>963.69</ele>
        <time>2015-05-16T13:00:36Z</time>
      </trkpt>
      <trkpt lat="43.76598" lon="7.02514">
        <ele>963.01</ele>
        <time>2015-05-16T13:00:41Z</time>
      </trkpt>
      <trkpt lat="43.76579" lon="7.02501">
        <ele>962.49</ele>
        <time>2015-05-16T13:00:47Z</time>
      </trkpt>
      <trkpt lat="43.76563" lon="7.02488">
        <ele>963.13</ele>
        <time>2015-05-16T13:00:52Z</time>
      </trkpt>
      <trkpt lat="43.76547" lon="7.02477">
        <ele>964.25</ele>
        <time>2015-05-16T13:00:57Z</time>
      </trkpt>
      <trkpt lat="43.76528" lon="7.02476">
        <ele>964.69</ele>
        <time>2015-05-16T13:01:02Z</time>
      </trkpt>
      <trkpt lat="43.76507" lon="7.02476">
        <ele>965.24</ele>
        <time>2015-05-16T13:01:07Z</time>
      </trkpt>
      <trkpt lat="43.76488" lon="7.02475">
        <ele>963.49</ele>
        <time>2015-05-16T13:01:13Z</time>
      </trkpt>
      <trkpt lat="43.76468" lon="7.02469">
        <ele>961.34</ele>
        <time>2015-05-16T13:01:20Z</time>
      </trkpt>
      <trkpt lat="43.7645" lon="7.02464">
        <ele>959.82</ele>
        <time>2015-05-16T13:01:25Z</time>
      </trkpt>
      <trkpt lat="43.7643" lon="7.02455">
        <ele>957.83</ele>
        <time>2015-05-16T13:01:32Z</time>
      </trkpt>
      <trkpt lat="43.76412" lon="7.02441">
        <ele>955.86</ele>
        <time>2015-05-16T13:01:39Z</time>
      </trkpt>
      <trkpt lat="43.76396" lon="7.02429">
        <ele>953.6</ele>
        <time>2015-05-16T13:01:46Z</time>
      </trkpt>
      <trkpt lat="43.76377" lon="7.02415">
        <ele>951.45</ele>
        <time>2015-05-16T13:01:52Z</time>
      </trkpt>
      <trkpt lat="43.76361" lon="7.02403">
        <ele>950.81</ele>
        <time>2015-05-16T13:01:56Z</time>
      </trkpt>
      <trkpt lat="43.76346" lon="7.0239">
        <ele>949.46</ele>
        <time>2015-05-16T13:02:01Z</time>
      </trkpt>
      <trkpt lat="43.76329" lon="7.02374">
        <ele>947.48</ele>
        <time>2015-05-16T13:02:09Z</time>
      </trkpt>
      <trkpt lat="43.76315" lon="7.02359">
        <ele>945.49</ele>
        <time>2015-05-16T13:02:18Z</time>
      </trkpt>
      <trkpt lat="43.76305" lon="7.02337">
        <ele>944.82</ele>
        <time>2015-05-16T13:02:24Z</time>
      </trkpt>
      <trkpt lat="43.76296" lon="7.02311">
        <ele>943.98</ele>
        <time>2015-05-16T13:02:30Z</time>
      </trkpt>
      <trkpt lat="43.76287" lon="7.02288">
        <ele>943.13</ele>
        <time>2015-05-16T13:02:36Z</time>
      </trkpt>
      <trkpt lat="43.76277" lon="7.02265">
        <ele>942.24</ele>
        <time>2015-05-16T13:02:42Z</time>
      </trkpt>
      <trkpt lat="43.76266" lon="7.02243">
        <ele>939.81</ele>
        <time>2015-05-16T13:02:49Z</time>
      </trkpt>
      <trkpt lat="43.76256" lon="7.02217">
        <ele>937.4</ele>
        <time>2015-05-16T13:02:55Z</time>
      </trkpt>
      <trkpt lat="43.76247" lon="7.02193">
        <ele>936.5</ele>
        <time>2015-05-16T13:03:01Z</time>
      </trkpt>
      <trkpt lat="43.76228" lon="7.02187">
        <ele>933.67</ele>
        <time>2015-05-16T13:03:11Z</time>
      </trkpt>
      <trkpt lat="43.76209" lon="7.02196">
        <ele>931.39</ele>
        <time>2015-05-16T13:03:19Z</time>
      </trkpt>
      <trkpt lat="43.7619" lon="7.02186">
        <ele>929.48</ele>
        <time>2015-05-16T13:03:26Z</time>
      </trkpt>
      <trkpt lat="43.76174" lon="7.02171">
        <ele>927.28</ele>
        <time>2015-05-16T13:03:33Z</time>
      </trkpt>
      <trkpt lat="43.76155" lon="7.02158">
        <ele>924.7</ele>
        <time>2015-05-16T13:03:40Z</time>
      </trkpt>
      <trkpt lat="43.76138" lon="7.02142">
        <ele>921.43</ele>
        <time>2015-05-16T13:03:46Z</time>
      </trkpt>
      <trkpt lat="43.76119" lon="7.02126">
        <ele>918.9</ele>
        <time>2015-05-16T13:03:52Z</time>
      </trkpt>
      <trkpt lat="43.76102" lon="7.0211">
        <ele>917.3</ele>
        <time>2015-05-16T13:03:57Z</time>
      </trkpt>
      <trkpt lat="43.76085" lon="7.02094">
        <ele>916.01</ele>
        <time>2015-05-16T13:04:03Z</time>
      </trkpt>
      <trkpt lat="43.76069" lon="7.02082">
        <ele>913.43</ele>
        <time>2015-05-16T13:04:09Z</time>
      </trkpt>
      <trkpt lat="43.76052" lon="7.02069">
        <ele>911.5</ele>
        <time>2015-05-16T13:04:15Z</time>
      </trkpt>
      <trkpt lat="43.76037" lon="7.02052">
        <ele>909.22</ele>
        <time>2015-05-16T13:04:22Z</time>
      </trkpt>
      <trkpt lat="43.76021" lon="7.02037">
        <ele>907.29</ele>
        <time>2015-05-16T13:04:28Z</time>
      </trkpt>
      <trkpt lat="43.76004" lon="7.02024">
        <ele>906.99</ele>
        <time>2015-05-16T13:04:35Z</time>
      </trkpt>
      <trkpt lat="43.75988" lon="7.0201">
        <ele>908.72</ele>
        <time>2015-05-16T13:04:42Z</time>
      </trkpt>
      <trkpt lat="43.75972" lon="7.01998">
        <ele>911.14</ele>
        <time>2015-05-16T13:04:48Z</time>
      </trkpt>
      <trkpt lat="43.75955" lon="7.0199">
        <ele>911.7</ele>
        <time>2015-05-16T13:04:54Z</time>
      </trkpt>
      <trkpt lat="43.75936" lon="7.01981">
        <ele>911.68</ele>
        <time>2015-05-16T13:05:00Z</time>
      </trkpt>
      <trkpt lat="43.75918" lon="7.01973">
        <ele>911.3</ele>
        <time>2015-05-16T13:05:06Z</time>
      </trkpt>
      <trkpt lat="43.75898" lon="7.01963">
        <ele>910.17</ele>
        <time>2015-05-16T13:05:12Z</time>
      </trkpt>
      <trkpt lat="43.75879" lon="7.01952">
        <ele>907.69</ele>
        <time>2015-05-16T13:05:17Z</time>
      </trkpt>
      <trkpt lat="43.75859" lon="7.01945">
        <ele>904.75</ele>
        <time>2015-05-16T13:05:22Z</time>
      </trkpt>
      <trkpt lat="43.75843" lon="7.01933">
        <ele>902.4</ele>
        <time>2015-05-16T13:05:26Z</time>
      </trkpt>
      <trkpt lat="43.75825" lon="7.01921">
        <ele>900.65</ele>
        <time>2015-05-16T13:05:30Z</time>
      </trkpt>
      <trkpt lat="43.75806" lon="7.01911">
        <ele>899.46</ele>
        <time>2015-05-16T13:05:34Z</time>
      </trkpt>
      <trkpt lat="43.75787" lon="7.01902">
        <ele>898.16</ele>
        <time>2015-05-16T13:05:39Z</time>
      </trkpt>
      <trkpt lat="43.75769" lon="7.01894">
        <ele>897.61</ele>
        <time>2015-05-16T13:05:43Z</time>
      </trkpt>
      <trkpt lat="43.75749" lon="7.01885">
        <ele>897.14</ele>
        <time>2015-05-16T13:05:47Z</time>
      </trkpt>
      <trkpt lat="43.75729" lon="7.01877">
        <ele>896.51</ele>
        <time>2015-05-16T13:05:51Z</time>
      </trkpt>
      <trkpt lat="43.75711" lon="7.0187">
        <ele>895.95</ele>
        <time>2015-05-16T13:05:55Z</time>
      </trkpt>
      <trkpt lat="43.75693" lon="7.01864">
        <ele>895.89</ele>
        <time>2015-05-16T13:05:59Z</time>
      </trkpt>
      <trkpt lat="43.75674" lon="7.01857">
        <ele>895.68</ele>
        <time>2015-05-16T13:06:04Z</time>
      </trkpt>
      <trkpt lat="43.75655" lon="7.01853">
        <ele>895.16</ele>
        <time>2015-05-16T13:06:09Z</time>
      </trkpt>
      <trkpt lat="43.75634" lon="7.01846">
        <ele>894.62</ele>
        <time>2015-05-16T13:06:15Z</time>
      </trkpt>
      <trkpt lat="43.75616" lon="7.0184">
        <ele>893.64</ele>
        <time>2015-05-16T13:06:21Z</time>
      </trkpt>
      <trkpt lat="43.75595" lon="7.01837">
        <ele>892.04</ele>
        <time>2015-05-16T13:06:28Z</time>
      </trkpt>
      <trkpt lat="43.75575" lon="7.01834">
        <ele>891.96</ele>
        <time>2015-05-16T13:06:34Z</time>
      </trkpt>
      <trkpt lat="43.75555" lon="7.01832">
        <ele>893.63</ele>
        <time>2015-05-16T13:06:40Z</time>
      </trkpt>
      <trkpt lat="43.75537" lon="7.01827">
        <ele>894.32</ele>
        <time>2015-05-16T13:06:47Z</time>
      </trkpt>
      <trkpt lat="43.75517" lon="7.01823">
        <ele>895.1</ele>
        <time>2015-05-16T13:06:55Z</time>
      </trkpt>
      <trkpt lat="43.75497" lon="7.01816">
        <ele>895.32</ele>
        <time>2015-05-16T13:07:02Z</time>
      </trkpt>
      <trkpt lat="43.75478" lon="7.01812">
        <ele>895.67</ele>
        <time>2015-05-16T13:07:08Z</time>
      </trkpt>
      <trkpt lat="43.75461" lon="7.01807">
        <ele>894.92</ele>
        <time>2015-05-16T13:07:14Z</time>
      </trkpt>
      <trkpt lat="43.7544" lon="7.01798">
        <ele>894.93</ele>
        <time>2015-05-16T13:07:21Z</time>
      </trkpt>
      <trkpt lat="43.75421" lon="7.01793">
        <ele>894.14</ele>
        <time>2015-05-16T13:07:28Z</time>
      </trkpt>
      <trkpt lat="43.75402" lon="7.01794">
        <ele>893.14</ele>
        <time>2015-05-16T13:07:34Z</time>
      </trkpt>
      <trkpt lat="43.75384" lon="7.01798">
        <ele>892.28</ele>
        <time>2015-05-16T13:07:40Z</time>
      </trkpt>
      <trkpt lat="43.75366" lon="7.01803">
        <ele>890.92</ele>
        <time>2015-05-16T13:07:47Z</time>
      </trkpt>
      <trkpt lat="43.75348" lon="7.01795">
        <ele>888.57</ele>
        <time>2015-05-16T13:07:54Z</time>
      </trkpt>
      <trkpt lat="43.75332" lon="7.01779">
        <ele>890.11</ele>
        <time>2015-05-16T13:09:15Z</time>
      </trkpt>
      <trkpt lat="43.75316" lon="7.01765">
        <ele>889.67</ele>
        <time>2015-05-16T13:09:22Z</time>
      </trkpt>
      <trkpt lat="43.75298" lon="7.01753">
        <ele>889.46</ele>
        <time>2015-05-16T13:09:28Z</time>
      </trkpt>
      <trkpt lat="43.75282" lon="7.01738">
        <ele>888.07</ele>
        <time>2015-05-16T13:09:34Z</time>
      </trkpt>
      <trkpt lat="43.75265" lon="7.01722">
        <ele>885.86</ele>
        <time>2015-05-16T13:09:39Z</time>
      </trkpt>
      <trkpt lat="43.7525" lon="7.01705">
        <ele>885.64</ele>
        <time>2015-05-16T13:09:44Z</time>
      </trkpt>
      <trkpt lat="43.75232" lon="7.0169">
        <ele>886.78</ele>
        <time>2015-05-16T13:09:50Z</time>
      </trkpt>
      <trkpt lat="43.75215" lon="7.01676">
        <ele>886.8</ele>
        <time>2015-05-16T13:09:55Z</time>
      </trkpt>
      <trkpt lat="43.75198" lon="7.01659">
        <ele>886.86</ele>
        <time>2015-05-16T13:10:00Z</time>
      </trkpt>
      <trkpt lat="43.75183" lon="7.01644">
        <ele>887.52</ele>
        <time>2015-05-16T13:10:05Z</time>
      </trkpt>
      <trkpt lat="43.75166" lon="7.01631">
        <ele>886.78</ele>
        <time>2015-05-16T13:10:11Z</time>
      </trkpt>
      <trkpt lat="43.75148" lon="7.01622">
        <ele>886.62</ele>
        <time>2015-05-16T13:10:17Z</time>
      </trkpt>
      <trkpt lat="43.75128" lon="7.01614">
        <ele>886.24</ele>
        <time>2015-05-16T13:10:24Z</time>
      </trkpt>
      <trkpt lat="43.75109" lon="7.01609">
        <ele>885.75</ele>
        <time>2015-05-16T13:10:32Z</time>
      </trkpt>
      <trkpt lat="43.75094" lon="7.01628">
        <ele>882.75</ele>
        <time>2015-05-16T13:10:43Z</time>
      </trkpt>
      <trkpt lat="43.75074" lon="7.01629">
        <ele>879.87</ele>
        <time>2015-05-16T13:10:53Z</time>
      </trkpt>
      <trkpt lat="43.75056" lon="7.01626">
        <ele>877.23</ele>
        <time>2015-05-16T13:11:01Z</time>
      </trkpt>
      <trkpt lat="43.75036" lon="7.01623">
        <ele>873.15</ele>
        <time>2015-05-16T13:11:09Z</time>
      </trkpt>
      <trkpt lat="43.75017" lon="7.01621">
        <ele>871</ele>
        <time>2015-05-16T13:11:15Z</time>
      </trkpt>
      <trkpt lat="43.74999" lon="7.01616">
        <ele>866.97</ele>
        <time>2015-05-16T13:11:26Z</time>
      </trkpt>
      <trkpt lat="43.7498" lon="7.01615">
        <ele>861.64</ele>
        <time>2015-05-16T13:11:37Z</time>
      </trkpt>
      <trkpt lat="43.74962" lon="7.01609">
        <ele>855.85</ele>
        <time>2015-05-16T13:11:49Z</time>
      </trkpt>
      <trkpt lat="43.74944" lon="7.01599">
        <ele>850.14</ele>
        <time>2015-05-16T13:12:01Z</time>
      </trkpt>
      <trkpt lat="43.74927" lon="7.01592">
        <ele>843.51</ele>
        <time>2015-05-16T13:12:16Z</time>
      </trkpt>
      <trkpt lat="43.74907" lon="7.01585">
        <ele>840.96</ele>
        <time>2015-05-16T13:12:26Z</time>
      </trkpt>
      <trkpt lat="43.74888" lon="7.01576">
        <ele>840.8</ele>
        <time>2015-05-16T13:12:32Z</time>
      </trkpt>
      <trkpt lat="43.74871" lon="7.01563">
        <ele>840.95</ele>
        <time>2015-05-16T13:12:40Z</time>
      </trkpt>
      <trkpt lat="43.74856" lon="7.01547">
        <ele>840.27</ele>
        <time>2015-05-16T13:12:49Z</time>
      </trkpt>
      <trkpt lat="43.74845" lon="7.01526">
        <ele>839.51</ele>
        <time>2015-05-16T13:12:55Z</time>
      </trkpt>
      <trkpt lat="43.74833" lon="7.01506">
        <ele>839.11</ele>
        <time>2015-05-16T13:13:00Z</time>
      </trkpt>
      <trkpt lat="43.74821" lon="7.01488">
        <ele>839.13</ele>
        <time>2015-05-16T13:13:06Z</time>
      </trkpt>
      <trkpt lat="43.7481" lon="7.01466">
        <ele>839.17</ele>
        <time>2015-05-16T13:13:13Z</time>
      </trkpt>
      <trkpt lat="43.74795" lon="7.01452">
        <ele>839.39</ele>
        <time>2015-05-16T13:13:21Z</time>
      </trkpt>
      <trkpt lat="43.74781" lon="7.01435">
        <ele>839.64</ele>
        <time>2015-05-16T13:13:26Z</time>
      </trkpt>
      <trkpt lat="43.74765" lon="7.01418">
        <ele>838.99</ele>
        <time>2015-05-16T13:13:32Z</time>
      </trkpt>
      <trkpt lat="43.74749" lon="7.01404">
        <ele>838.59</ele>
        <time>2015-05-16T13:13:38Z</time>
      </trkpt>
      <trkpt lat="43.74728" lon="7.01411">
        <ele>837.22</ele>
        <time>2015-05-16T13:13:44Z</time>
      </trkpt>
      <trkpt lat="43.74715" lon="7.01434">
        <ele>837.26</ele>
        <time>2015-05-16T13:13:52Z</time>
      </trkpt>
      <trkpt lat="43.74702" lon="7.01456">
        <ele>837.21</ele>
        <time>2015-05-16T13:13:59Z</time>
      </trkpt>
      <trkpt lat="43.74689" lon="7.01476">
        <ele>835.98</ele>
        <time>2015-05-16T13:14:06Z</time>
      </trkpt>
      <trkpt lat="43.74675" lon="7.01494">
        <ele>834.25</ele>
        <time>2015-05-16T13:14:12Z</time>
      </trkpt>
      <trkpt lat="43.7466" lon="7.01509">
        <ele>831.46</ele>
        <time>2015-05-16T13:14:19Z</time>
      </trkpt>
      <trkpt lat="43.74642" lon="7.01522">
        <ele>827.91</ele>
        <time>2015-05-16T13:14:26Z</time>
      </trkpt>
      <trkpt lat="43.74649" lon="7.01498">
        <ele>825.14</ele>
        <time>2015-05-16T13:15:04Z</time>
      </trkpt>
      <trkpt lat="43.7466" lon="7.01475">
        <ele>821.94</ele>
        <time>2015-05-16T13:15:14Z</time>
      </trkpt>
      <trkpt lat="43.74667" lon="7.01451">
        <ele>818.11</ele>
        <time>2015-05-16T13:15:21Z</time>
      </trkpt>
      <trkpt lat="43.74671" lon="7.01427">
        <ele>813.42</ele>
        <time>2015-05-16T13:15:30Z</time>
      </trkpt>
      <trkpt lat="43.74675" lon="7.01402">
        <ele>808.72</ele>
        <time>2015-05-16T13:15:39Z</time>
      </trkpt>
      <trkpt lat="43.74658" lon="7.01414">
        <ele>801.42</ele>
        <time>2015-05-16T13:16:02Z</time>
      </trkpt>
      <trkpt lat="43.74644" lon="7.01434">
        <ele>798.71</ele>
        <time>2015-05-16T13:16:09Z</time>
      </trkpt>
      <trkpt lat="43.74636" lon="7.01411">
        <ele>793.2</ele>
        <time>2015-05-16T13:16:28Z</time>
      </trkpt>
      <trkpt lat="43.74616" lon="7.01414">
        <ele>783.44</ele>
        <time>2015-05-16T13:16:54Z</time>
      </trkpt>
      <trkpt lat="43.74598" lon="7.01421">
        <ele>780.39</ele>
        <time>2015-05-16T13:17:00Z</time>
      </trkpt>
      <trkpt lat="43.74579" lon="7.01423">
        <ele>777.44</ele>
        <time>2015-05-16T13:17:06Z</time>
      </trkpt>
      <trkpt lat="43.7456" lon="7.01427">
        <ele>773.81</ele>
        <time>2015-05-16T13:17:13Z</time>
      </trkpt>
      <trkpt lat="43.74545" lon="7.01442">
        <ele>769.81</ele>
        <time>2015-05-16T13:17:19Z</time>
      </trkpt>
      <trkpt lat="43.74526" lon="7.01453">
        <ele>766.14</ele>
        <time>2015-05-16T13:17:26Z</time>
      </trkpt>
      <trkpt lat="43.74509" lon="7.01466">
        <ele>763.77</ele>
        <time>2015-05-16T13:17:32Z</time>
      </trkpt>
      <trkpt lat="43.74491" lon="7.01477">
        <ele>760.41</ele>
        <time>2015-05-16T13:17:39Z</time>
      </trkpt>
      <trkpt lat="43.74472" lon="7.01484">
        <ele>757.17</ele>
        <time>2015-05-16T13:17:46Z</time>
      </trkpt>
      <trkpt lat="43.74453" lon="7.01497">
        <ele>753.42</ele>
        <time>2015-05-16T13:17:53Z</time>
      </trkpt>
      <trkpt lat="43.74435" lon="7.01511">
        <ele>749.59</ele>
        <time>2015-05-16T13:18:00Z</time>
      </trkpt>
      <trkpt lat="43.7442" lon="7.01525">
        <ele>744.87</ele>
        <time>2015-05-16T13:18:07Z</time>
      </trkpt>
      <trkpt lat="43.74401" lon="7.01536">
        <ele>743.11</ele>
        <time>2015-05-16T13:18:15Z</time>
      </trkpt>
      <trkpt lat="43.74382" lon="7.01544">
        <ele>739.65</ele>
        <time>2015-05-16T13:18:22Z</time>
      </trkpt>
      <trkpt lat="43.74367" lon="7.01559">
        <ele>736.47</ele>
        <time>2015-05-16T13:18:29Z</time>
      </trkpt>
      <trkpt lat="43.7437" lon="7.01534">
        <ele>729.46</ele>
        <time>2015-05-16T13:18:48Z</time>
      </trkpt>
      <trkpt lat="43.74355" lon="7.01519">
        <ele>723.41</ele>
        <time>2015-05-16T13:19:07Z</time>
      </trkpt>
      <trkpt lat="43.74356" lon="7.01493">
        <ele>719.39</ele>
        <time>2015-05-16T13:19:22Z</time>
      </trkpt>
      <trkpt lat="43.74336" lon="7.01492">
        <ele>716.97</ele>
        <time>2015-05-16T13:19:31Z</time>
      </trkpt>
      <trkpt lat="43.74316" lon="7.0149">
        <ele>715.36</ele>
        <time>2015-05-16T13:19:37Z</time>
      </trkpt>
      <trkpt lat="43.74295" lon="7.01491">
        <ele>713.79</ele>
        <time>2015-05-16T13:19:44Z</time>
      </trkpt>
      <trkpt lat="43.74277" lon="7.0149">
        <ele>712.57</ele>
        <time>2015-05-16T13:19:49Z</time>
      </trkpt>
      <trkpt lat="43.74258" lon="7.01491">
        <ele>710.84</ele>
        <time>2015-05-16T13:19:54Z</time>
      </trkpt>
      <trkpt lat="43.74241" lon="7.01479">
        <ele>709.54</ele>
        <time>2015-05-16T13:20:00Z</time>
      </trkpt>
      <trkpt lat="43.74224" lon="7.01469">
        <ele>708.26</ele>
        <time>2015-05-16T13:20:06Z</time>
      </trkpt>
      <trkpt lat="43.74204" lon="7.01463">
        <ele>706.08</ele>
        <time>2015-05-16T13:20:14Z</time>
      </trkpt>
      <trkpt lat="43.74182" lon="7.0146">
        <ele>704.25</ele>
        <time>2015-05-16T13:20:20Z</time>
      </trkpt>
      <trkpt lat="43.74164" lon="7.01454">
        <ele>704.49</ele>
        <time>2015-05-16T13:20:24Z</time>
      </trkpt>
      <trkpt lat="43.74143" lon="7.01441">
        <ele>705.22</ele>
        <time>2015-05-16T13:20:29Z</time>
      </trkpt>
      <trkpt lat="43.74128" lon="7.01424">
        <ele>705.96</ele>
        <time>2015-05-16T13:20:34Z</time>
      </trkpt>
      <trkpt lat="43.74114" lon="7.01403">
        <ele>706.92</ele>
        <time>2015-05-16T13:20:39Z</time>
      </trkpt>
      <trkpt lat="43.74102" lon="7.01379">
        <ele>707.05</ele>
        <time>2015-05-16T13:20:45Z</time>
      </trkpt>
      <trkpt lat="43.74086" lon="7.01365">
        <ele>704.65</ele>
        <time>2015-05-16T13:20:52Z</time>
      </trkpt>
      <trkpt lat="43.74076" lon="7.01343">
        <ele>701.28</ele>
        <time>2015-05-16T13:21:01Z</time>
      </trkpt>
      <trkpt lat="43.74064" lon="7.01322">
        <ele>699.69</ele>
        <time>2015-05-16T13:21:10Z</time>
      </trkpt>
      <trkpt lat="43.74048" lon="7.01307">
        <ele>697.26</ele>
        <time>2015-05-16T13:21:23Z</time>
      </trkpt>
      <trkpt lat="43.74031" lon="7.01295">
        <ele>695.32</ele>
        <time>2015-05-16T13:21:35Z</time>
      </trkpt>
      <trkpt lat="43.74012" lon="7.01288">
        <ele>692.27</ele>
        <time>2015-05-16T13:21:42Z</time>
      </trkpt>
      <trkpt lat="43.73987" lon="7.01284">
        <ele>688.73</ele>
        <time>2015-05-16T13:22:14Z</time>
      </trkpt>
      <trkpt lat="43.74003" lon="7.0127">
        <ele>680.47</ele>
        <time>2015-05-16T13:23:09Z</time>
      </trkpt>
      <trkpt lat="43.74022" lon="7.01259">
        <ele>678.78</ele>
        <time>2015-05-16T13:23:16Z</time>
      </trkpt>
      <trkpt lat="43.7404" lon="7.0125">
        <ele>677.24</ele>
        <time>2015-05-16T13:23:23Z</time>
      </trkpt>
      <trkpt lat="43.74059" lon="7.01259">
        <ele>675.77</ele>
        <time>2015-05-16T13:23:29Z</time>
      </trkpt>
      <trkpt lat="43.74075" lon="7.0127">
        <ele>674.62</ele>
        <time>2015-05-16T13:23:35Z</time>
      </trkpt>
      <trkpt lat="43.74093" lon="7.01284">
        <ele>673.64</ele>
        <time>2015-05-16T13:23:41Z</time>
      </trkpt>
      <trkpt lat="43.74109" lon="7.01294">
        <ele>672.58</ele>
        <time>2015-05-16T13:23:48Z</time>
      </trkpt>
      <trkpt lat="43.74127" lon="7.01286">
        <ele>670.94</ele>
        <time>2015-05-16T13:23:52Z</time>
      </trkpt>
      <trkpt lat="43.74145" lon="7.01278">
        <ele>668.64</ele>
        <time>2015-05-16T13:23:57Z</time>
      </trkpt>
      <trkpt lat="43.74162" lon="7.01267">
        <ele>665.78</ele>
        <time>2015-05-16T13:24:03Z</time>
      </trkpt>
      <trkpt lat="43.7415" lon="7.01247">
        <ele>659.37</ele>
        <time>2015-05-16T13:24:11Z</time>
      </trkpt>
      <trkpt lat="43.74137" lon="7.01227">
        <ele>657.33</ele>
        <time>2015-05-16T13:24:18Z</time>
      </trkpt>
      <trkpt lat="43.74128" lon="7.012">
        <ele>656.48</ele>
        <time>2015-05-16T13:24:24Z</time>
      </trkpt>
      <trkpt lat="43.74125" lon="7.01173">
        <ele>655.35</ele>
        <time>2015-05-16T13:24:29Z</time>
      </trkpt>
      <trkpt lat="43.74142" lon="7.0119">
        <ele>652.43</ele>
        <time>2015-05-16T13:24:43Z</time>
      </trkpt>
      <trkpt lat="43.7416" lon="7.01176">
        <ele>650.97</ele>
        <time>2015-05-16T13:24:50Z</time>
      </trkpt>
      <trkpt lat="43.74178" lon="7.01161">
        <ele>647.45</ele>
        <time>2015-05-16T13:24:57Z</time>
      </trkpt>
      <trkpt lat="43.74194" lon="7.01146">
        <ele>644.26</ele>
        <time>2015-05-16T13:25:04Z</time>
      </trkpt>
      <trkpt lat="43.74213" lon="7.01133">
        <ele>640.02</ele>
        <time>2015-05-16T13:25:11Z</time>
      </trkpt>
      <trkpt lat="43.7423" lon="7.01122">
        <ele>636.89</ele>
        <time>2015-05-16T13:25:16Z</time>
      </trkpt>
      <trkpt lat="43.74247" lon="7.01109">
        <ele>632.4</ele>
        <time>2015-05-16T13:25:25Z</time>
      </trkpt>
      <trkpt lat="43.74264" lon="7.01096">
        <ele>628.87</ele>
        <time>2015-05-16T13:25:32Z</time>
      </trkpt>
      <trkpt lat="43.74275" lon="7.01072">
        <ele>627.02</ele>
        <time>2015-05-16T13:25:38Z</time>
      </trkpt>
      <trkpt lat="43.74287" lon="7.01051">
        <ele>624.28</ele>
        <time>2015-05-16T13:25:44Z</time>
      </trkpt>
      <trkpt lat="43.74301" lon="7.01031">
        <ele>620.28</ele>
        <time>2015-05-16T13:25:50Z</time>
      </trkpt>
      <trkpt lat="43.74315" lon="7.01011">
        <ele>615.74</ele>
        <time>2015-05-16T13:25:56Z</time>
      </trkpt>
      <trkpt lat="43.7433" lon="7.00996">
        <ele>612.19</ele>
        <time>2015-05-16T13:26:01Z</time>
      </trkpt>
      <trkpt lat="43.74347" lon="7.00985">
        <ele>607.98</ele>
        <time>2015-05-16T13:26:06Z</time>
      </trkpt>
      <trkpt lat="43.74358" lon="7.00962">
        <ele>604.04</ele>
        <time>2015-05-16T13:26:13Z</time>
      </trkpt>
      <trkpt lat="43.74373" lon="7.00947">
        <ele>601.32</ele>
        <time>2015-05-16T13:26:20Z</time>
      </trkpt>
      <trkpt lat="43.74388" lon="7.00932">
        <ele>594.8</ele>
        <time>2015-05-16T13:26:33Z</time>
      </trkpt>
      <trkpt lat="43.74379" lon="7.0091">
        <ele>587.79</ele>
        <time>2015-05-16T13:26:45Z</time>
      </trkpt>
      <trkpt lat="43.74374" lon="7.00884">
        <ele>583.37</ele>
        <time>2015-05-16T13:26:52Z</time>
      </trkpt>
    </trkseg>
  </trk>
</gpx>